<?xml version='1.0' encoding='UTF-8'?><gpx version="1.1" creator="JPX - https://github.com/jenetics/jpx" xmlns="http://www.topografix.com/GPX/1/1"><trk><trkseg><trkpt lat="49.29319522610183" lon="-0.7065624949695255"><ele>48.0</ele><time>2026-04-26T11:27:08Z</time></trkpt><trkpt lat="49.29327090069138" lon="-0.7065983263995818"><ele>48.0</ele><time>2026-04-26T11:27:11Z</time></trkpt><trkpt lat="49.293361297574826" lon="-0.7066184464700058"><ele>48.0</ele><time>2026-04-26T11:27:14Z</time></trkpt><trkpt lat="49.293425943053066" lon="-0.7066211613033645"><ele>48.0</ele><time>2026-04-26T11:27:16Z</time></trkpt><trkpt lat="49.2935063144075" lon="-0.7066257024608606"><ele>48.0</ele><time>2026-04-26T11:27:18Z</time></trkpt><trkpt lat="49.29359712447786" lon="-0.7066410239502262"><ele>48.0</ele><time>2026-04-26T11:27:21Z</time></trkpt><trkpt lat="49.293678151632335" lon="-0.7066520016171653"><ele>48.0</ele><time>2026-04-26T11:27:24Z</time></trkpt><trkpt lat="49.293753455525284" lon="-0.7066603662908136"><ele>48.0</ele><time>2026-04-26T11:27:27Z</time></trkpt><trkpt lat="49.293825000645576" lon="-0.7067014534723105"><ele>48.0</ele><time>2026-04-26T11:27:31Z</time></trkpt><trkpt lat="49.29390160557123" lon="-0.7067016682130637"><ele>48.0</ele><time>2026-04-26T11:27:34Z</time></trkpt><trkpt lat="49.29398706770095" lon="-0.7067057805220706"><ele>48.0</ele><time>2026-04-26T11:27:37Z</time></trkpt><trkpt lat="49.294058757435224" lon="-0.7066931861015228"><ele>48.0</ele><time>2026-04-26T11:27:39Z</time></trkpt><trkpt lat="49.294134913585225" lon="-0.7066929321540715"><ele>47.71428571428571</ele><time>2026-04-26T11:27:42Z</time></trkpt><trkpt lat="49.29422158529268" lon="-0.7066996705871926"><ele>47.42857142857143</ele><time>2026-04-26T11:27:45Z</time></trkpt><trkpt lat="49.29429367898329" lon="-0.7067096051129789"><ele>47.14285714285714</ele><time>2026-04-26T11:27:48Z</time></trkpt><trkpt lat="49.29435732558655" lon="-0.7067118872229149"><ele>46.857142857142854</ele><time>2026-04-26T11:27:51Z</time></trkpt><trkpt lat="49.29443477954412" lon="-0.7067141895475513"><ele>46.57142857142857</ele><time>2026-04-26T11:27:54Z</time></trkpt><trkpt lat="49.29450950121869" lon="-0.7067107327322344"><ele>46.285714285714285</ele><time>2026-04-26T11:27:57Z</time></trkpt><trkpt lat="49.29457421742615" lon="-0.706704121666687"><ele>46.0</ele><time>2026-04-26T11:28:00Z</time></trkpt><trkpt lat="49.294653939246636" lon="-0.7067105652837155"><ele>46.0</ele><time>2026-04-26T11:28:03Z</time></trkpt><trkpt lat="49.29473984277701" lon="-0.7067167336097845"><ele>46.0</ele><time>2026-04-26T11:28:07Z</time></trkpt><trkpt lat="49.29482534460402" lon="-0.70673345625835"><ele>46.0</ele><time>2026-04-26T11:28:10Z</time></trkpt><trkpt lat="49.294893728884915" lon="-0.7067373275273987"><ele>46.0</ele><time>2026-04-26T11:28:13Z</time></trkpt><trkpt lat="49.29496687355278" lon="-0.7067620308727117"><ele>46.0</ele><time>2026-04-26T11:28:16Z</time></trkpt><trkpt lat="49.295038766627705" lon="-0.7067785686752075"><ele>46.0</ele><time>2026-04-26T11:28:19Z</time></trkpt><trkpt lat="49.29510849394002" lon="-0.7067943815918881"><ele>45.5</ele><time>2026-04-26T11:28:22Z</time></trkpt><trkpt lat="49.29518138506998" lon="-0.7068088119754153"><ele>45.0</ele><time>2026-04-26T11:28:25Z</time></trkpt><trkpt lat="49.29527125094991" lon="-0.7068230420823689"><ele>44.5</ele><time>2026-04-26T11:28:28Z</time></trkpt><trkpt lat="49.29535814424973" lon="-0.7068379083624836"><ele>44.0</ele><time>2026-04-26T11:28:31Z</time></trkpt><trkpt lat="49.29542330392775" lon="-0.706854030581052"><ele>43.5</ele><time>2026-04-26T11:28:33Z</time></trkpt><trkpt lat="49.295486848295724" lon="-0.7068507727468478"><ele>43.0</ele><time>2026-04-26T11:28:35Z</time></trkpt><trkpt lat="49.29557234666978" lon="-0.7068625161881293"><ele>42.833333333333336</ele><time>2026-04-26T11:28:38Z</time></trkpt><trkpt lat="49.295664844844914" lon="-0.7068652848652532"><ele>42.66666666666667</ele><time>2026-04-26T11:28:42Z</time></trkpt><trkpt lat="49.29573950397206" lon="-0.706872823732048"><ele>42.5</ele><time>2026-04-26T11:28:45Z</time></trkpt><trkpt lat="49.295811145093275" lon="-0.7068689685972342"><ele>42.333333333333336</ele><time>2026-04-26T11:28:48Z</time></trkpt><trkpt lat="49.29589744231954" lon="-0.706868134882018"><ele>42.166666666666664</ele><time>2026-04-26T11:28:51Z</time></trkpt><trkpt lat="49.29596650618525" lon="-0.7068704785659246"><ele>42.0</ele><time>2026-04-26T11:28:54Z</time></trkpt><trkpt lat="49.296056823766556" lon="-0.7068728625058163"><ele>42.0</ele><time>2026-04-26T11:28:57Z</time></trkpt><trkpt lat="49.29613268367125" lon="-0.7068712724512015"><ele>42.0</ele><time>2026-04-26T11:29:00Z</time></trkpt><trkpt lat="49.29619865785079" lon="-0.70689349981364"><ele>42.0</ele><time>2026-04-26T11:29:02Z</time></trkpt><trkpt lat="49.29627965062392" lon="-0.7069054738157012"><ele>42.0</ele><time>2026-04-26T11:29:05Z</time></trkpt><trkpt lat="49.29634714778142" lon="-0.7069242227538189"><ele>42.0</ele><time>2026-04-26T11:29:06.999Z</time></trkpt><trkpt lat="49.29640783592017" lon="-0.706952241362515"><ele>42.0</ele><time>2026-04-26T11:29:08.999Z</time></trkpt><trkpt lat="49.29647701846028" lon="-0.7069626817357079"><ele>42.0</ele><time>2026-04-26T11:29:10.999Z</time></trkpt><trkpt lat="49.29654382794884" lon="-0.7069793736862718"><ele>41.666666666666664</ele><time>2026-04-26T11:29:12.999Z</time></trkpt><trkpt lat="49.296605589013225" lon="-0.7070013552087921"><ele>41.333333333333336</ele><time>2026-04-26T11:29:14.999Z</time></trkpt><trkpt lat="49.29668806036912" lon="-0.7070236770275856"><ele>41.0</ele><time>2026-04-26T11:29:17.999Z</time></trkpt><trkpt lat="49.29677045703326" lon="-0.7070386845857201"><ele>40.66666666666667</ele><time>2026-04-26T11:29:19.999Z</time></trkpt><trkpt lat="49.29686719374976" lon="-0.7070618012999055"><ele>40.333333333333336</ele><time>2026-04-26T11:29:23Z</time></trkpt><trkpt lat="49.2969306267288" lon="-0.7070764852214164"><ele>40.0</ele><time>2026-04-26T11:29:25Z</time></trkpt><trkpt lat="49.29699760463524" lon="-0.7071040529620216"><ele>40.0</ele><time>2026-04-26T11:29:27Z</time></trkpt><trkpt lat="49.29706665832371" lon="-0.7071077261690712"><ele>40.0</ele><time>2026-04-26T11:29:29Z</time></trkpt><trkpt lat="49.297166229861546" lon="-0.7071382164332234"><ele>40.0</ele><time>2026-04-26T11:29:32Z</time></trkpt><trkpt lat="49.297259367746626" lon="-0.707166325739005"><ele>40.0</ele><time>2026-04-26T11:29:35Z</time></trkpt><trkpt lat="49.297324222115876" lon="-0.7071886203391154"><ele>40.0</ele><time>2026-04-26T11:29:37Z</time></trkpt><trkpt lat="49.29739572447686" lon="-0.707207685397485"><ele>40.0</ele><time>2026-04-26T11:29:39Z</time></trkpt><trkpt lat="49.29746096277391" lon="-0.7072197466910136"><ele>39.66666666666667</ele><time>2026-04-26T11:29:41Z</time></trkpt><trkpt lat="49.297544725691175" lon="-0.7072419228434178"><ele>39.333333333333336</ele><time>2026-04-26T11:29:43Z</time></trkpt><trkpt lat="49.297621609743146" lon="-0.7072523674312715"><ele>39.0</ele><time>2026-04-26T11:29:45Z</time></trkpt><trkpt lat="49.2976934200373" lon="-0.7072795161650695"><ele>38.666666666666664</ele><time>2026-04-26T11:29:47Z</time></trkpt><trkpt lat="49.297756895670645" lon="-0.7072989152609458"><ele>38.33333333333333</ele><time>2026-04-26T11:29:49Z</time></trkpt><trkpt lat="49.297856828275144" lon="-0.7073199515705969"><ele>38.0</ele><time>2026-04-26T11:29:53Z</time></trkpt><trkpt lat="49.29793325431953" lon="-0.7073417140900293"><ele>38.0</ele><time>2026-04-26T11:29:56Z</time></trkpt><trkpt lat="49.29799738744447" lon="-0.7073548932710141"><ele>38.0</ele><time>2026-04-26T11:29:59Z</time></trkpt><trkpt lat="49.298073675943456" lon="-0.7073714313547202"><ele>38.0</ele><time>2026-04-26T11:30:03Z</time></trkpt><trkpt lat="49.29814536472965" lon="-0.7073979696773193"><ele>38.0</ele><time>2026-04-26T11:30:07Z</time></trkpt><trkpt lat="49.29820813523046" lon="-0.7074119880773121"><ele>38.0</ele><time>2026-04-26T11:30:11Z</time></trkpt><trkpt lat="49.29830030516278" lon="-0.7074379516185283"><ele>38.0</ele><time>2026-04-26T11:31:50Z</time></trkpt><trkpt lat="49.29838607819271" lon="-0.7074516920282312"><ele>37.83333333333333</ele><time>2026-04-26T11:31:55Z</time></trkpt><trkpt lat="49.2984698681688" lon="-0.7074640359588876"><ele>37.666666666666664</ele><time>2026-04-26T11:31:58Z</time></trkpt><trkpt lat="49.298544930353586" lon="-0.7074577471822564"><ele>37.5</ele><time>2026-04-26T11:32:02Z</time></trkpt><trkpt lat="49.298615907561086" lon="-0.7074837484863308"><ele>37.333333333333336</ele><time>2026-04-26T11:32:05Z</time></trkpt><trkpt lat="49.298708788650124" lon="-0.7075013566900002"><ele>37.16666666666667</ele><time>2026-04-26T11:32:08Z</time></trkpt><trkpt lat="49.2987798128162" lon="-0.7075226716142823"><ele>37.0</ele><time>2026-04-26T11:32:10Z</time></trkpt><trkpt lat="49.29885336527941" lon="-0.7075513514125601"><ele>37.16666666666667</ele><time>2026-04-26T11:32:12Z</time></trkpt><trkpt lat="49.29893047233965" lon="-0.7075563962210784"><ele>37.333333333333336</ele><time>2026-04-26T11:32:14Z</time></trkpt><trkpt lat="49.29901847599679" lon="-0.7075624156040301"><ele>37.5</ele><time>2026-04-26T11:32:16Z</time></trkpt><trkpt lat="49.29909770660138" lon="-0.7075767164816092"><ele>37.666666666666664</ele><time>2026-04-26T11:32:18Z</time></trkpt><trkpt lat="49.299166694616225" lon="-0.7075632511457125"><ele>37.83333333333333</ele><time>2026-04-26T11:32:20Z</time></trkpt><trkpt lat="49.299254881461245" lon="-0.7075508917120416"><ele>38.0</ele><time>2026-04-26T11:32:22Z</time></trkpt><trkpt lat="49.29933386911511" lon="-0.7075612346698872"><ele>38.0</ele><time>2026-04-26T11:32:24Z</time></trkpt><trkpt lat="49.299408541221474" lon="-0.7075545208761175"><ele>38.0</ele><time>2026-04-26T11:32:26Z</time></trkpt><trkpt lat="49.29948001315561" lon="-0.7075691576614331"><ele>38.0</ele><time>2026-04-26T11:32:28Z</time></trkpt><trkpt lat="49.299557632238866" lon="-0.7075867890001482"><ele>38.0</ele><time>2026-04-26T11:32:30Z</time></trkpt><trkpt lat="49.29964233980722" lon="-0.7076138769553738"><ele>38.0</ele><time>2026-04-26T11:32:32Z</time></trkpt><trkpt lat="49.29972030134597" lon="-0.707615342729872"><ele>38.0</ele><time>2026-04-26T11:32:34Z</time></trkpt><trkpt lat="49.29980634249225" lon="-0.707618270899986"><ele>37.5</ele><time>2026-04-26T11:32:36Z</time></trkpt><trkpt lat="49.2998948446625" lon="-0.7076341987708493"><ele>37.0</ele><time>2026-04-26T11:32:38Z</time></trkpt><trkpt lat="49.29997141785503" lon="-0.7076334157648282"><ele>36.5</ele><time>2026-04-26T11:32:40Z</time></trkpt><trkpt lat="49.30005712124352" lon="-0.7076394772332966"><ele>36.0</ele><time>2026-04-26T11:32:42Z</time></trkpt><trkpt lat="49.30014239550796" lon="-0.7076509885854575"><ele>35.5</ele><time>2026-04-26T11:32:44Z</time></trkpt><trkpt lat="49.30021906094471" lon="-0.7076573909636065"><ele>35.0</ele><time>2026-04-26T11:32:46Z</time></trkpt><trkpt lat="49.30030419946605" lon="-0.7076754295555738"><ele>35.0</ele><time>2026-04-26T11:32:48Z</time></trkpt><trkpt lat="49.30036953677856" lon="-0.7076740667613132"><ele>35.0</ele><time>2026-04-26T11:32:50Z</time></trkpt><trkpt lat="49.30044325648257" lon="-0.7076902454338767"><ele>35.0</ele><time>2026-04-26T11:32:52Z</time></trkpt><trkpt lat="49.30052313047362" lon="-0.7076893348739643"><ele>35.0</ele><time>2026-04-26T11:32:54Z</time></trkpt><trkpt lat="49.300611092059825" lon="-0.7076941260701815"><ele>35.0</ele><time>2026-04-26T11:32:56Z</time></trkpt><trkpt lat="49.30068073313107" lon="-0.707699337078431"><ele>35.0</ele><time>2026-04-26T11:32:58Z</time></trkpt><trkpt lat="49.30077035550277" lon="-0.7077034566235588"><ele>34.666666666666664</ele><time>2026-04-26T11:33:00Z</time></trkpt><trkpt lat="49.30086709227668" lon="-0.707709982446756"><ele>34.33333333333333</ele><time>2026-04-26T11:33:03Z</time></trkpt><trkpt lat="49.30094120570657" lon="-0.7077282943852193"><ele>34.0</ele><time>2026-04-26T11:33:05Z</time></trkpt><trkpt lat="49.301011435466734" lon="-0.7077245003853551"><ele>33.666666666666664</ele><time>2026-04-26T11:33:07Z</time></trkpt><trkpt lat="49.30107701722805" lon="-0.7077322860641303"><ele>33.333333333333336</ele><time>2026-04-26T11:33:09Z</time></trkpt><trkpt lat="49.301160852727" lon="-0.7077387097160325"><ele>33.0</ele><time>2026-04-26T11:33:11Z</time></trkpt><trkpt lat="49.30123540222952" lon="-0.7077353364859424"><ele>33.0</ele><time>2026-04-26T11:33:13Z</time></trkpt><trkpt lat="49.30131302504053" lon="-0.7077254561705547"><ele>33.0</ele><time>2026-04-26T11:33:16Z</time></trkpt><trkpt lat="49.30138148258641" lon="-0.7077298624669836"><ele>33.0</ele><time>2026-04-26T11:33:18Z</time></trkpt><trkpt lat="49.30147919779459" lon="-0.7077144427393544"><ele>33.0</ele><time>2026-04-26T11:33:21Z</time></trkpt><trkpt lat="49.301546437392176" lon="-0.707724910975804"><ele>33.0</ele><time>2026-04-26T11:33:23Z</time></trkpt><trkpt lat="49.30161833488119" lon="-0.7077184980449491"><ele>33.0</ele><time>2026-04-26T11:33:26Z</time></trkpt><trkpt lat="49.30167430634394" lon="-0.7077682676729659"><ele>33.0</ele><time>2026-04-26T11:33:44Z</time></trkpt><trkpt lat="49.30172899556204" lon="-0.7078360116137578"><ele>33.0</ele><time>2026-04-26T11:33:47Z</time></trkpt><trkpt lat="49.30180010625252" lon="-0.7079052253861201"><ele>33.0</ele><time>2026-04-26T11:33:50Z</time></trkpt><trkpt lat="49.30187055229531" lon="-0.7079820454159927"><ele>33.0</ele><time>2026-04-26T11:33:53Z</time></trkpt><trkpt lat="49.30192071590264" lon="-0.7080404776368842"><ele>33.0</ele><time>2026-04-26T11:33:56Z</time></trkpt><trkpt lat="49.30198361894673" lon="-0.7081107740189023"><ele>33.0</ele><time>2026-04-26T11:34:00Z</time></trkpt><trkpt lat="49.30192122423621" lon="-0.7080740738788064"><ele>33.0</ele><time>2026-04-26T11:34:55Z</time></trkpt><trkpt lat="49.30186977082103" lon="-0.7080029828568487"><ele>33.0</ele><time>2026-04-26T11:34:57Z</time></trkpt><trkpt lat="49.301816385143205" lon="-0.7079320060969716"><ele>33.0</ele><time>2026-04-26T11:34:59Z</time></trkpt><trkpt lat="49.30175333522519" lon="-0.7078727158495708"><ele>33.0</ele><time>2026-04-26T11:35:01Z</time></trkpt><trkpt lat="49.30168876874967" lon="-0.7077767552282165"><ele>33.0</ele><time>2026-04-26T11:35:04Z</time></trkpt><trkpt lat="49.301611948514584" lon="-0.7077463758397675"><ele>33.0</ele><time>2026-04-26T11:35:07Z</time></trkpt><trkpt lat="49.30152867640043" lon="-0.7077455803974909"><ele>33.0</ele><time>2026-04-26T11:35:10.001Z</time></trkpt><trkpt lat="49.301445164140524" lon="-0.7077466084008802"><ele>33.0</ele><time>2026-04-26T11:35:14.001Z</time></trkpt><trkpt lat="49.30137809746855" lon="-0.707748338815226"><ele>33.0</ele><time>2026-04-26T11:35:16.001Z</time></trkpt><trkpt lat="49.30128859239397" lon="-0.7077361702365537"><ele>33.0</ele><time>2026-04-26T11:35:19.001Z</time></trkpt><trkpt lat="49.301211432031955" lon="-0.7077520192826473"><ele>33.0</ele><time>2026-04-26T11:35:22.001Z</time></trkpt><trkpt lat="49.30127761131543" lon="-0.7077194092226871"><ele>33.0</ele><time>2026-04-26T11:35:34.999Z</time></trkpt><trkpt lat="49.30135079888977" lon="-0.7077328329152304"><ele>33.0</ele><time>2026-04-26T11:35:36.999Z</time></trkpt><trkpt lat="49.30143206200989" lon="-0.7077246415793867"><ele>33.0</ele><time>2026-04-26T11:35:38.999Z</time></trkpt><trkpt lat="49.301513729880305" lon="-0.7077174570890928"><ele>33.0</ele><time>2026-04-26T11:35:40.999Z</time></trkpt><trkpt lat="49.30158382255212" lon="-0.707705764698992"><ele>33.0</ele><time>2026-04-26T11:35:42.999Z</time></trkpt><trkpt lat="49.30164985646409" lon="-0.7077416747530546"><ele>33.0</ele><time>2026-04-26T11:35:49Z</time></trkpt><trkpt lat="49.30171288705579" lon="-0.7078113978985029"><ele>33.0</ele><time>2026-04-26T11:35:52Z</time></trkpt><trkpt lat="49.301784774803615" lon="-0.707884259517511"><ele>33.0</ele><time>2026-04-26T11:35:55Z</time></trkpt><trkpt lat="49.30183953685605" lon="-0.7079417522460698"><ele>33.0</ele><time>2026-04-26T11:35:57Z</time></trkpt><trkpt lat="49.30189365563418" lon="-0.7079999802660366"><ele>33.0</ele><time>2026-04-26T11:35:59Z</time></trkpt><trkpt lat="49.30194281450318" lon="-0.7080681730913274"><ele>33.0</ele><time>2026-04-26T11:36:01Z</time></trkpt><trkpt lat="49.30202277240366" lon="-0.7081255672515065"><ele>33.0</ele><time>2026-04-26T11:36:04Z</time></trkpt><trkpt lat="49.30203324063944" lon="-0.7082257006237723"><ele>33.0</ele><time>2026-04-26T11:36:22Z</time></trkpt><trkpt lat="49.302084636141586" lon="-0.7082831379089106"><ele>33.0</ele><time>2026-04-26T11:36:31Z</time></trkpt><trkpt lat="49.30215826252726" lon="-0.7083246119665269"><ele>33.0</ele><time>2026-04-26T11:36:42Z</time></trkpt><trkpt lat="49.30222788696793" lon="-0.7083785676415589"><ele>33.0</ele><time>2026-04-26T11:36:44Z</time></trkpt><trkpt lat="49.302296582521144" lon="-0.7083965452021692"><ele>33.0</ele><time>2026-04-26T11:36:46Z</time></trkpt><trkpt lat="49.30237147738497" lon="-0.7084292629513255"><ele>32.833333333333336</ele><time>2026-04-26T11:36:53Z</time></trkpt><trkpt lat="49.30243666554666" lon="-0.7084347297224874"><ele>32.666666666666664</ele><time>2026-04-26T11:36:57Z</time></trkpt><trkpt lat="49.30251557771807" lon="-0.7084540023377799"><ele>32.5</ele><time>2026-04-26T11:37:00Z</time></trkpt><trkpt lat="49.302593462371284" lon="-0.7084615051439282"><ele>32.33333333333333</ele><time>2026-04-26T11:37:03Z</time></trkpt><trkpt lat="49.30267062492178" lon="-0.7084354953660478"><ele>32.166666666666664</ele><time>2026-04-26T11:37:05Z</time></trkpt><trkpt lat="49.30274826710494" lon="-0.7084345430283638"><ele>32.0</ele><time>2026-04-26T11:37:07.001Z</time></trkpt><trkpt lat="49.30284092159364" lon="-0.7084309043592586"><ele>32.0</ele><time>2026-04-26T11:37:09.001Z</time></trkpt><trkpt lat="49.302935084456145" lon="-0.7084350656381012"><ele>32.0</ele><time>2026-04-26T11:37:11.001Z</time></trkpt><trkpt lat="49.30301526795301" lon="-0.7084603098885683"><ele>32.0</ele><time>2026-04-26T11:37:13.001Z</time></trkpt><trkpt lat="49.30311355781892" lon="-0.7084729408426552"><ele>32.0</ele><time>2026-04-26T11:37:15.001Z</time></trkpt><trkpt lat="49.303216274888804" lon="-0.7084855134482009"><ele>32.0</ele><time>2026-04-26T11:37:17.001Z</time></trkpt><trkpt lat="49.30329620590699" lon="-0.7085074776935506"><ele>32.166666666666664</ele><time>2026-04-26T11:37:19.001Z</time></trkpt><trkpt lat="49.30337454472514" lon="-0.7085363231736964"><ele>32.33333333333333</ele><time>2026-04-26T11:37:21.001Z</time></trkpt><trkpt lat="49.303462308935636" lon="-0.7085519440268161"><ele>32.5</ele><time>2026-04-26T11:37:23.001Z</time></trkpt><trkpt lat="49.303547950355316" lon="-0.7085648979296476"><ele>32.666666666666664</ele><time>2026-04-26T11:37:25.001Z</time></trkpt><trkpt lat="49.30363061342912" lon="-0.7086141133595143"><ele>32.833333333333336</ele><time>2026-04-26T11:37:27.001Z</time></trkpt><trkpt lat="49.303716291990824" lon="-0.7086190188792385"><ele>33.0</ele><time>2026-04-26T11:37:29.001Z</time></trkpt><trkpt lat="49.30378408569286" lon="-0.7086373868205048"><ele>33.166666666666664</ele><time>2026-04-26T11:37:31Z</time></trkpt><trkpt lat="49.303845157288066" lon="-0.7086636993452686"><ele>33.333333333333336</ele><time>2026-04-26T11:37:32Z</time></trkpt><trkpt lat="49.30393931561787" lon="-0.7086845398764516"><ele>33.5</ele><time>2026-04-26T11:37:34Z</time></trkpt><trkpt lat="49.304047232373975" lon="-0.708716395172419"><ele>33.66666666666667</ele><time>2026-04-26T11:37:36Z</time></trkpt><trkpt lat="49.30410869123957" lon="-0.7086850729545462"><ele>33.833333333333336</ele><time>2026-04-26T11:37:40Z</time></trkpt><trkpt lat="49.304142578692115" lon="-0.7086003610074021"><ele>34.0</ele><time>2026-04-26T11:38:15Z</time></trkpt><trkpt lat="49.304228159777885" lon="-0.7086305927903556"><ele>33.57142857142857</ele><time>2026-04-26T11:38:20Z</time></trkpt><trkpt lat="49.304305524699416" lon="-0.7086698219484048"><ele>33.14285714285714</ele><time>2026-04-26T11:38:23Z</time></trkpt><trkpt lat="49.30436385486382" lon="-0.7087107560874288"><ele>32.714285714285715</ele><time>2026-04-26T11:38:26Z</time></trkpt><trkpt lat="49.30442421377833" lon="-0.7087525629754864"><ele>32.285714285714285</ele><time>2026-04-26T11:38:28Z</time></trkpt><trkpt lat="49.30448619274044" lon="-0.7087952138151317"><ele>31.85714285714286</ele><time>2026-04-26T11:38:30Z</time></trkpt><trkpt lat="49.30455814620335" lon="-0.7088349187757274"><ele>31.42857142857143</ele><time>2026-04-26T11:38:32Z</time></trkpt><trkpt lat="49.30463324481394" lon="-0.7088831231626548"><ele>31.0</ele><time>2026-04-26T11:38:34Z</time></trkpt><trkpt lat="49.30469747052825" lon="-0.7089418294301583"><ele>30.571428571428573</ele><time>2026-04-26T11:38:36Z</time></trkpt><trkpt lat="49.304770358982914" lon="-0.7089807824408341"><ele>30.142857142857146</ele><time>2026-04-26T11:38:38Z</time></trkpt><trkpt lat="49.30483575483376" lon="-0.7090265391656266"><ele>29.714285714285715</ele><time>2026-04-26T11:38:40Z</time></trkpt><trkpt lat="49.304903290254394" lon="-0.7090825437435744"><ele>29.285714285714285</ele><time>2026-04-26T11:38:42Z</time></trkpt><trkpt lat="49.30497144244243" lon="-0.7091306429124992"><ele>28.857142857142858</ele><time>2026-04-26T11:38:44.001Z</time></trkpt><trkpt lat="49.305037865748" lon="-0.7091872448093526"><ele>28.42857142857143</ele><time>2026-04-26T11:38:46.001Z</time></trkpt><trkpt lat="49.30508859119973" lon="-0.7092594642162825"><ele>28.0</ele><time>2026-04-26T11:38:48.001Z</time></trkpt><trkpt lat="49.30516137640916" lon="-0.7093460378612527"><ele>28.000000000000004</ele><time>2026-04-26T11:38:51.001Z</time></trkpt><trkpt lat="49.3052263622678" lon="-0.7094418248322047"><ele>28.0</ele><time>2026-04-26T11:38:54.001Z</time></trkpt><trkpt lat="49.30527641211607" lon="-0.7095028739254065"><ele>28.0</ele><time>2026-04-26T11:38:56.001Z</time></trkpt><trkpt lat="49.30532913513405" lon="-0.7095832367741914"><ele>28.0</ele><time>2026-04-26T11:38:59.001Z</time></trkpt><trkpt lat="49.30538714043536" lon="-0.709669840479464"><ele>28.000000000000004</ele><time>2026-04-26T11:39:02.001Z</time></trkpt><trkpt lat="49.30543194081205" lon="-0.7097399434482675"><ele>28.0</ele><time>2026-04-26T11:39:04.001Z</time></trkpt><trkpt lat="49.305491847414594" lon="-0.7098429125684989"><ele>28.000000000000004</ele><time>2026-04-26T11:39:07.001Z</time></trkpt><trkpt lat="49.30555972169957" lon="-0.7099516534728331"><ele>28.0</ele><time>2026-04-26T11:39:10.001Z</time></trkpt><trkpt lat="49.30560691051463" lon="-0.7100418226294998"><ele>28.0</ele><time>2026-04-26T11:39:12.001Z</time></trkpt><trkpt lat="49.30564352030661" lon="-0.7101566117623217"><ele>28.0</ele><time>2026-04-26T11:39:14.001Z</time></trkpt><trkpt lat="49.30566686219958" lon="-0.710262530858471"><ele>28.000000000000004</ele><time>2026-04-26T11:39:16.001Z</time></trkpt><trkpt lat="49.30569856150609" lon="-0.7103789027625315"><ele>28.0</ele><time>2026-04-26T11:39:18.001Z</time></trkpt><trkpt lat="49.305715451004545" lon="-0.7104952015057975"><ele>28.000000000000004</ele><time>2026-04-26T11:39:20.001Z</time></trkpt><trkpt lat="49.30573827969671" lon="-0.7106109911951379"><ele>28.0</ele><time>2026-04-26T11:39:22.001Z</time></trkpt><trkpt lat="49.305765029363" lon="-0.7107117897931678"><ele>28.0</ele><time>2026-04-26T11:39:24.001Z</time></trkpt><trkpt lat="49.30579756573876" lon="-0.710836988779709"><ele>28.0</ele><time>2026-04-26T11:39:27.001Z</time></trkpt><trkpt lat="49.30584005245914" lon="-0.7109272033345984"><ele>28.000000000000004</ele><time>2026-04-26T11:39:35.001Z</time></trkpt><trkpt lat="49.30590132009294" lon="-0.7110005581416083"><ele>28.0</ele><time>2026-04-26T11:39:39Z</time></trkpt><trkpt lat="49.30597348867174" lon="-0.7110492782934943"><ele>28.333333333333336</ele><time>2026-04-26T11:39:42Z</time></trkpt><trkpt lat="49.30606609056804" lon="-0.711094887024923"><ele>28.666666666666668</ele><time>2026-04-26T11:39:45Z</time></trkpt><trkpt lat="49.306138970439655" lon="-0.7111280617493065"><ele>29.0</ele><time>2026-04-26T11:39:47Z</time></trkpt><trkpt lat="49.30620715206379" lon="-0.7111636292066507"><ele>29.333333333333336</ele><time>2026-04-26T11:39:49Z</time></trkpt><trkpt lat="49.30627512539581" lon="-0.7112047116829368"><ele>29.666666666666668</ele><time>2026-04-26T11:39:51Z</time></trkpt><trkpt lat="49.306335287448896" lon="-0.7112640848377815"><ele>30.0</ele><time>2026-04-26T11:39:53Z</time></trkpt><trkpt lat="49.306394254251" lon="-0.7113025249867512"><ele>30.0</ele><time>2026-04-26T11:39:55Z</time></trkpt><trkpt lat="49.30645357126988" lon="-0.711348454842503"><ele>30.0</ele><time>2026-04-26T11:39:57Z</time></trkpt><trkpt lat="49.30651144861371" lon="-0.7113936632193458"><ele>30.0</ele><time>2026-04-26T11:39:59Z</time></trkpt><trkpt lat="49.30656307125201" lon="-0.7114524554787465"><ele>30.0</ele><time>2026-04-26T11:40:01Z</time></trkpt><trkpt lat="49.306616516921295" lon="-0.711506494591501"><ele>30.0</ele><time>2026-04-26T11:40:03Z</time></trkpt><trkpt lat="49.30667686432864" lon="-0.7115628922904662"><ele>30.0</ele><time>2026-04-26T11:40:05Z</time></trkpt><trkpt lat="49.306728535430246" lon="-0.711618744665152"><ele>30.0</ele><time>2026-04-26T11:40:07Z</time></trkpt><trkpt lat="49.306812733767494" lon="-0.7116861419040283"><ele>30.0</ele><time>2026-04-26T11:40:10Z</time></trkpt><trkpt lat="49.30688675923841" lon="-0.7117548014580642"><ele>30.0</ele><time>2026-04-26T11:40:13Z</time></trkpt><trkpt lat="49.30695402695887" lon="-0.7118247959950105"><ele>30.0</ele><time>2026-04-26T11:40:16Z</time></trkpt><trkpt lat="49.307014609279065" lon="-0.7118853680824446"><ele>30.0</ele><time>2026-04-26T11:40:19Z</time></trkpt><trkpt lat="49.30708790481827" lon="-0.711944509244986"><ele>30.0</ele><time>2026-04-26T11:40:22Z</time></trkpt><trkpt lat="49.307167832890535" lon="-0.712004783463748"><ele>30.0</ele><time>2026-04-26T11:40:25Z</time></trkpt><trkpt lat="49.307241976517275" lon="-0.7120731420385628"><ele>30.142857142857146</ele><time>2026-04-26T11:40:28Z</time></trkpt><trkpt lat="49.30729496973966" lon="-0.7121262618766038"><ele>30.285714285714285</ele><time>2026-04-26T11:40:30Z</time></trkpt><trkpt lat="49.307365071719516" lon="-0.7121848064622716"><ele>30.42857142857143</ele><time>2026-04-26T11:40:33.001Z</time></trkpt><trkpt lat="49.3074239110093" lon="-0.7122454446056182"><ele>30.571428571428573</ele><time>2026-04-26T11:40:36.001Z</time></trkpt><trkpt lat="49.307495533468675" lon="-0.7122927623289583"><ele>30.714285714285715</ele><time>2026-04-26T11:40:39.001Z</time></trkpt><trkpt lat="49.307563842542315" lon="-0.7123485454307911"><ele>30.857142857142858</ele><time>2026-04-26T11:40:42.001Z</time></trkpt><trkpt lat="49.307628339876" lon="-0.7124027470377121"><ele>31.0</ele><time>2026-04-26T11:40:45.001Z</time></trkpt><trkpt lat="49.30769117081335" lon="-0.7124548002377565"><ele>31.0</ele><time>2026-04-26T11:40:48.001Z</time></trkpt><trkpt lat="49.3077507877247" lon="-0.7124905988776041"><ele>31.000000000000004</ele><time>2026-04-26T11:40:51.001Z</time></trkpt><trkpt lat="49.307814767752866" lon="-0.7125431552885925"><ele>31.0</ele><time>2026-04-26T11:40:54.001Z</time></trkpt><trkpt lat="49.307879373735915" lon="-0.71258975492582"><ele>31.0</ele><time>2026-04-26T11:40:57.001Z</time></trkpt><trkpt lat="49.307940775727246" lon="-0.7126373626631869"><ele>31.000000000000004</ele><time>2026-04-26T11:41:00.001Z</time></trkpt><trkpt lat="49.30800115919476" lon="-0.7126885380919341"><ele>31.0</ele><time>2026-04-26T11:41:03.001Z</time></trkpt><trkpt lat="49.30804123845834" lon="-0.7127847258497693"><ele>31.0</ele><time>2026-04-26T11:45:36.001Z</time></trkpt><trkpt lat="49.308102093208156" lon="-0.71285381806609"><ele>31.142857142857146</ele><time>2026-04-26T11:45:40.001Z</time></trkpt><trkpt lat="49.30815952485193" lon="-0.7129151728393172"><ele>31.28571428571429</ele><time>2026-04-26T11:45:43.001Z</time></trkpt><trkpt lat="49.30823069450113" lon="-0.7129512719572593"><ele>31.42857142857143</ele><time>2026-04-26T11:45:46.001Z</time></trkpt><trkpt lat="49.30829191203668" lon="-0.7129916555663253"><ele>31.57142857142857</ele><time>2026-04-26T11:45:49.001Z</time></trkpt><trkpt lat="49.30835315130307" lon="-0.7130307889471273"><ele>31.71428571428571</ele><time>2026-04-26T11:45:53.001Z</time></trkpt><trkpt lat="49.30842105151564" lon="-0.7130809467117323"><ele>31.857142857142854</ele><time>2026-04-26T11:45:58Z</time></trkpt><trkpt lat="49.3084936094308" lon="-0.7131315727745773"><ele>32.0</ele><time>2026-04-26T11:46:02Z</time></trkpt><trkpt lat="49.30855852692022" lon="-0.7131714861581201"><ele>31.999999999999996</ele><time>2026-04-26T11:46:05Z</time></trkpt><trkpt lat="49.30863122997867" lon="-0.7132232907038292"><ele>32.0</ele><time>2026-04-26T11:46:09Z</time></trkpt><trkpt lat="49.3087131736698" lon="-0.7132764901017771"><ele>32.0</ele><time>2026-04-26T11:46:12Z</time></trkpt><trkpt lat="49.30878698756822" lon="-0.7133178370466161"><ele>32.0</ele><time>2026-04-26T11:46:15Z</time></trkpt><trkpt lat="49.308853704854556" lon="-0.7133489552982961"><ele>31.999999999999996</ele><time>2026-04-26T11:46:18Z</time></trkpt><trkpt lat="49.308934385216354" lon="-0.713386808666591"><ele>32.0</ele><time>2026-04-26T11:46:22Z</time></trkpt><trkpt lat="49.309016821453724" lon="-0.7134242821812627"><ele>31.833333333333332</ele><time>2026-04-26T11:46:25Z</time></trkpt><trkpt lat="49.309105980663" lon="-0.7134402119913169"><ele>31.666666666666664</ele><time>2026-04-26T11:46:28Z</time></trkpt><trkpt lat="49.309187376139164" lon="-0.7134545385327158"><ele>31.5</ele><time>2026-04-26T11:46:32Z</time></trkpt><trkpt lat="49.309256581953576" lon="-0.7134365591565172"><ele>31.333333333333336</ele><time>2026-04-26T11:46:36Z</time></trkpt><trkpt lat="49.30933121593613" lon="-0.713407069583677"><ele>31.166666666666668</ele><time>2026-04-26T11:46:39Z</time></trkpt><trkpt lat="49.30941295004537" lon="-0.7133899479686755"><ele>31.0</ele><time>2026-04-26T11:46:42Z</time></trkpt><trkpt lat="49.30950079068331" lon="-0.7133963829495025"><ele>31.0</ele><time>2026-04-26T11:46:45Z</time></trkpt><trkpt lat="49.30956864186626" lon="-0.7133952173951202"><ele>31.000000000000004</ele><time>2026-04-26T11:46:47Z</time></trkpt><trkpt lat="49.3096465094103" lon="-0.7134089047046221"><ele>31.0</ele><time>2026-04-26T11:46:50Z</time></trkpt><trkpt lat="49.309710175452935" lon="-0.7134090183904084"><ele>31.0</ele><time>2026-04-26T11:46:53Z</time></trkpt><trkpt lat="49.309777402162105" lon="-0.7134059642381189"><ele>31.000000000000004</ele><time>2026-04-26T11:47:54.001Z</time></trkpt><trkpt lat="49.309844401884064" lon="-0.7134136666070273"><ele>31.0</ele><time>2026-04-26T11:47:57.001Z</time></trkpt><trkpt lat="49.30991980444181" lon="-0.7134314012625512"><ele>31.0</ele><time>2026-04-26T11:48:00.001Z</time></trkpt><trkpt lat="49.310001003134836" lon="-0.7134418799284493"><ele>30.833333333333336</ele><time>2026-04-26T11:48:03Z</time></trkpt><trkpt lat="49.31007915749134" lon="-0.713455003113244"><ele>30.666666666666668</ele><time>2026-04-26T11:48:05Z</time></trkpt><trkpt lat="49.31016749747948" lon="-0.7134636468251728"><ele>30.5</ele><time>2026-04-26T11:48:08Z</time></trkpt><trkpt lat="49.310264134317976" lon="-0.7134675569528255"><ele>30.333333333333336</ele><time>2026-04-26T11:48:11Z</time></trkpt><trkpt lat="49.31032704050597" lon="-0.7134759879008806"><ele>30.166666666666668</ele><time>2026-04-26T11:48:13Z</time></trkpt><trkpt lat="49.31040271530915" lon="-0.7134851677743317"><ele>30.0</ele><time>2026-04-26T11:48:16Z</time></trkpt><trkpt lat="49.310469775490844" lon="-0.7135026736734897"><ele>30.142857142857146</ele><time>2026-04-26T11:49:15Z</time></trkpt><trkpt lat="49.31048254458542" lon="-0.7136114604086619"><ele>30.285714285714285</ele><time>2026-04-26T11:49:21Z</time></trkpt><trkpt lat="49.31055118963338" lon="-0.7136453093595548"><ele>30.42857142857143</ele><time>2026-04-26T11:49:27Z</time></trkpt><trkpt lat="49.31061605594096" lon="-0.7136716131507265"><ele>30.571428571428573</ele><time>2026-04-26T11:49:31.001Z</time></trkpt><trkpt lat="49.310677385921814" lon="-0.713698670860512"><ele>30.714285714285715</ele><time>2026-04-26T11:49:35.001Z</time></trkpt><trkpt lat="49.310736318278664" lon="-0.7137418603075427"><ele>30.857142857142858</ele><time>2026-04-26T11:49:39.001Z</time></trkpt><trkpt lat="49.31080927314937" lon="-0.713762199001416"><ele>31.0</ele><time>2026-04-26T11:49:43.001Z</time></trkpt><trkpt lat="49.31087141981336" lon="-0.713788628426165"><ele>31.000000000000004</ele><time>2026-04-26T11:49:47.001Z</time></trkpt><trkpt lat="49.31094452907861" lon="-0.7138121051017594"><ele>31.0</ele><time>2026-04-26T11:49:51.001Z</time></trkpt><trkpt lat="49.31101637968857" lon="-0.713833897378869"><ele>31.0</ele><time>2026-04-26T11:49:55.001Z</time></trkpt><trkpt lat="49.31108619799374" lon="-0.7138629736653673"><ele>31.0</ele><time>2026-04-26T11:49:59.001Z</time></trkpt><trkpt lat="49.31116128150087" lon="-0.713883787036208"><ele>31.000000000000004</ele><time>2026-04-26T11:50:03.001Z</time></trkpt><trkpt lat="49.31124034877659" lon="-0.7139207693866082"><ele>31.0</ele><time>2026-04-26T11:50:07Z</time></trkpt><trkpt lat="49.31131607072025" lon="-0.7139566765584461"><ele>31.0</ele><time>2026-04-26T11:50:11Z</time></trkpt><trkpt lat="49.31139786921415" lon="-0.7139896708056228"><ele>31.000000000000004</ele><time>2026-04-26T11:50:15Z</time></trkpt><trkpt lat="49.31146374351925" lon="-0.7140109627061875"><ele>31.0</ele><time>2026-04-26T11:50:18Z</time></trkpt><trkpt lat="49.311527823445964" lon="-0.7140326336300867"><ele>31.0</ele><time>2026-04-26T11:50:21Z</time></trkpt><trkpt lat="49.31159309230225" lon="-0.7140590840609365"><ele>31.000000000000004</ele><time>2026-04-26T11:50:24Z</time></trkpt><trkpt lat="49.311663002490185" lon="-0.7140844934123832"><ele>31.0</ele><time>2026-04-26T11:50:27Z</time></trkpt><trkpt lat="49.31173038841056" lon="-0.714115346231964"><ele>31.0</ele><time>2026-04-26T11:50:30Z</time></trkpt><trkpt lat="49.31180774170083" lon="-0.7141431658700828"><ele>31.0</ele><time>2026-04-26T11:50:33Z</time></trkpt><trkpt lat="49.31188270540644" lon="-0.7141756115271041"><ele>31.000000000000004</ele><time>2026-04-26T11:50:36Z</time></trkpt><trkpt lat="49.311953771288294" lon="-0.7142096578568765"><ele>31.0</ele><time>2026-04-26T11:50:39Z</time></trkpt><trkpt lat="49.312026594845086" lon="-0.7142332275305225"><ele>31.0</ele><time>2026-04-26T11:50:42Z</time></trkpt><trkpt lat="49.312101175190854" lon="-0.714260616442672"><ele>31.000000000000004</ele><time>2026-04-26T11:50:45Z</time></trkpt><trkpt lat="49.31216474064247" lon="-0.7142789982968033"><ele>31.0</ele><time>2026-04-26T11:50:48Z</time></trkpt><trkpt lat="49.312227737588536" lon="-0.7142988317739375"><ele>31.0</ele><time>2026-04-26T11:50:51Z</time></trkpt><trkpt lat="49.312293725616115" lon="-0.7143148737292542"><ele>31.0</ele><time>2026-04-26T11:50:54Z</time></trkpt><trkpt lat="49.312360734207815" lon="-0.7143208756304342"><ele>31.000000000000004</ele><time>2026-04-26T11:50:57Z</time></trkpt><trkpt lat="49.31243015689415" lon="-0.7143374780797932"><ele>31.0</ele><time>2026-04-26T11:51:00Z</time></trkpt><trkpt lat="49.31249490925113" lon="-0.714353475848382"><ele>31.0</ele><time>2026-04-26T11:51:03Z</time></trkpt><trkpt lat="49.31255727647996" lon="-0.7143695395075964"><ele>31.000000000000004</ele><time>2026-04-26T11:51:06Z</time></trkpt><trkpt lat="49.3126202548908" lon="-0.7143889376060013"><ele>31.0</ele><time>2026-04-26T11:51:09Z</time></trkpt><trkpt lat="49.31268342123005" lon="-0.7144139394422702"><ele>31.0</ele><time>2026-04-26T11:51:12Z</time></trkpt><trkpt lat="49.31275633154046" lon="-0.7144476779259581"><ele>31.0</ele><time>2026-04-26T11:51:15Z</time></trkpt><trkpt lat="49.31281797318579" lon="-0.7144796079757851"><ele>31.000000000000004</ele><time>2026-04-26T11:51:18Z</time></trkpt><trkpt lat="49.31288522392774" lon="-0.71452443951304"><ele>31.0</ele><time>2026-04-26T11:51:21Z</time></trkpt><trkpt lat="49.31295009417438" lon="-0.7145748626360433"><ele>31.0</ele><time>2026-04-26T11:51:24Z</time></trkpt><trkpt lat="49.31301134988241" lon="-0.7146191950884929"><ele>31.000000000000004</ele><time>2026-04-26T11:51:27.001Z</time></trkpt><trkpt lat="49.31306879019996" lon="-0.714659967233359"><ele>31.0</ele><time>2026-04-26T11:51:30.001Z</time></trkpt><trkpt lat="49.31312919472873" lon="-0.7147103546507566"><ele>31.0</ele><time>2026-04-26T11:51:33.001Z</time></trkpt><trkpt lat="49.31319068911015" lon="-0.7147740244029092"><ele>30.666666666666668</ele><time>2026-04-26T11:51:36.001Z</time></trkpt><trkpt lat="49.31325147411114" lon="-0.7148178571641731"><ele>30.333333333333336</ele><time>2026-04-26T11:51:39.001Z</time></trkpt><trkpt lat="49.31331016592603" lon="-0.714854788139642"><ele>30.0</ele><time>2026-04-26T11:51:42.001Z</time></trkpt><trkpt lat="49.31337786505838" lon="-0.7149362200800728"><ele>29.666666666666664</ele><time>2026-04-26T11:51:46.001Z</time></trkpt><trkpt lat="49.31344453408076" lon="-0.7149857698021533"><ele>29.333333333333332</ele><time>2026-04-26T11:51:49.001Z</time></trkpt><trkpt lat="49.31351143640349" lon="-0.7150498254683144"><ele>29.0</ele><time>2026-04-26T11:51:52.001Z</time></trkpt><trkpt lat="49.3135891979184" lon="-0.7151062165995266"><ele>29.000000000000004</ele><time>2026-04-26T11:51:55.001Z</time></trkpt><trkpt lat="49.313663448803034" lon="-0.7151634982114669"><ele>29.0</ele><time>2026-04-26T11:51:58.001Z</time></trkpt><trkpt lat="49.31374258230431" lon="-0.7152138453388033"><ele>29.000000000000004</ele><time>2026-04-26T11:52:01.001Z</time></trkpt><trkpt lat="49.313807817599" lon="-0.7152504262548458"><ele>29.000000000000004</ele><time>2026-04-26T11:52:04.001Z</time></trkpt><trkpt lat="49.31387007306236" lon="-0.7152732057093306"><ele>29.0</ele><time>2026-04-26T11:52:06.001Z</time></trkpt><trkpt lat="49.313937164603246" lon="-0.7153153708073418"><ele>29.000000000000004</ele><time>2026-04-26T11:52:09.001Z</time></trkpt><trkpt lat="49.314010821370786" lon="-0.7153269073140267"><ele>29.000000000000004</ele><time>2026-04-26T11:52:12.001Z</time></trkpt><trkpt lat="49.314080125676256" lon="-0.7153343305290073"><ele>28.833333333333332</ele><time>2026-04-26T11:52:15Z</time></trkpt><trkpt lat="49.314167928436575" lon="-0.7153331736950964"><ele>28.666666666666664</ele><time>2026-04-26T11:52:18Z</time></trkpt><trkpt lat="49.31424763603802" lon="-0.7153228929816435"><ele>28.5</ele><time>2026-04-26T11:52:21Z</time></trkpt><trkpt lat="49.31432809470326" lon="-0.7152953254477122"><ele>28.333333333333336</ele><time>2026-04-26T11:52:24Z</time></trkpt><trkpt lat="49.31441513522153" lon="-0.7152533125362268"><ele>28.166666666666668</ele><time>2026-04-26T11:52:27Z</time></trkpt><trkpt lat="49.31449633023854" lon="-0.7152127315288697"><ele>28.0</ele><time>2026-04-26T11:52:30Z</time></trkpt><trkpt lat="49.31458043025431" lon="-0.7151585146231111"><ele>28.0</ele><time>2026-04-26T11:52:33Z</time></trkpt><trkpt lat="49.314643271088826" lon="-0.7151207474254064"><ele>28.0</ele><time>2026-04-26T11:52:35Z</time></trkpt><trkpt lat="49.31471193609509" lon="-0.7150835370095073"><ele>28.0</ele><time>2026-04-26T11:52:38Z</time></trkpt><trkpt lat="49.31476889679994" lon="-0.7150390965039286"><ele>28.0</ele><time>2026-04-26T11:52:41Z</time></trkpt><trkpt lat="49.314838740328405" lon="-0.7150223524124247"><ele>28.0</ele><time>2026-04-26T11:55:02Z</time></trkpt><trkpt lat="49.31490479024836" lon="-0.7149898205609718"><ele>28.0</ele><time>2026-04-26T11:55:06Z</time></trkpt><trkpt lat="49.31497969641188" lon="-0.7149725098753328"><ele>28.0</ele><time>2026-04-26T11:55:09Z</time></trkpt><trkpt lat="49.31505227168212" lon="-0.7149574799311496"><ele>27.833333333333336</ele><time>2026-04-26T11:55:12Z</time></trkpt><trkpt lat="49.315120157298935" lon="-0.7149373887121018"><ele>27.666666666666668</ele><time>2026-04-26T11:55:15Z</time></trkpt><trkpt lat="49.315196857998814" lon="-0.7149235615773987"><ele>27.5</ele><time>2026-04-26T11:55:18Z</time></trkpt><trkpt lat="49.31526766053353" lon="-0.714918244359443"><ele>27.333333333333336</ele><time>2026-04-26T11:55:21Z</time></trkpt><trkpt lat="49.315348574395536" lon="-0.7148974371254048"><ele>27.166666666666668</ele><time>2026-04-26T11:55:24Z</time></trkpt><trkpt lat="49.315421465896" lon="-0.714892086934492"><ele>27.0</ele><time>2026-04-26T11:55:27Z</time></trkpt><trkpt lat="49.3155043962886" lon="-0.7148708424875999"><ele>26.833333333333332</ele><time>2026-04-26T11:55:30Z</time></trkpt><trkpt lat="49.31557655324035" lon="-0.7148706250104294"><ele>26.666666666666664</ele><time>2026-04-26T11:55:33Z</time></trkpt><trkpt lat="49.31566144016418" lon="-0.7148531388384586"><ele>26.5</ele><time>2026-04-26T11:55:36Z</time></trkpt><trkpt lat="49.31573863453471" lon="-0.7148605151345244"><ele>26.333333333333332</ele><time>2026-04-26T11:55:39.001Z</time></trkpt><trkpt lat="49.31583036216217" lon="-0.7148676451487869"><ele>26.166666666666664</ele><time>2026-04-26T11:55:42.001Z</time></trkpt><trkpt lat="49.31591209168168" lon="-0.7148953935831631"><ele>26.0</ele><time>2026-04-26T11:55:46.001Z</time></trkpt><trkpt lat="49.3159881163337" lon="-0.71490317369666"><ele>25.999999999999996</ele><time>2026-04-26T11:55:50.001Z</time></trkpt><trkpt lat="49.316060512946315" lon="-0.7149383994198725"><ele>26.0</ele><time>2026-04-26T11:55:53.001Z</time></trkpt><trkpt lat="49.31613305214635" lon="-0.714984028029162"><ele>26.0</ele><time>2026-04-26T11:55:56.001Z</time></trkpt><trkpt lat="49.31620635432677" lon="-0.7150444166068983"><ele>26.0</ele><time>2026-04-26T11:55:59.001Z</time></trkpt><trkpt lat="49.31627094500745" lon="-0.7150900852848926"><ele>25.999999999999996</ele><time>2026-04-26T11:56:02.001Z</time></trkpt><trkpt lat="49.316340131056386" lon="-0.7151402237074006"><ele>26.0</ele><time>2026-04-26T11:56:05.001Z</time></trkpt><trkpt lat="49.31640886785529" lon="-0.7151922807645845"><ele>25.999999999999996</ele><time>2026-04-26T11:56:08.001Z</time></trkpt><trkpt lat="49.31647581251252" lon="-0.7152406901303413"><ele>26.0</ele><time>2026-04-26T11:56:11.001Z</time></trkpt><trkpt lat="49.31654555612036" lon="-0.71529543047059"><ele>26.0</ele><time>2026-04-26T11:56:14.001Z</time></trkpt><trkpt lat="49.316607822920325" lon="-0.7153526674780024"><ele>26.0</ele><time>2026-04-26T11:56:17.001Z</time></trkpt><trkpt lat="49.31667224008308" lon="-0.7154020258925187"><ele>25.999999999999996</ele><time>2026-04-26T11:56:20.001Z</time></trkpt><trkpt lat="49.31673777571008" lon="-0.7154625846948057"><ele>26.0</ele><time>2026-04-26T11:56:23.001Z</time></trkpt><trkpt lat="49.31680500740215" lon="-0.715527410892731"><ele>26.0</ele><time>2026-04-26T11:56:26Z</time></trkpt><trkpt lat="49.316870284709516" lon="-0.7155907002588385"><ele>26.0</ele><time>2026-04-26T11:56:29Z</time></trkpt><trkpt lat="49.316938824368236" lon="-0.7156517225859971"><ele>26.0</ele><time>2026-04-26T11:56:32Z</time></trkpt><trkpt lat="49.31699821477288" lon="-0.7157064125264003"><ele>26.0</ele><time>2026-04-26T11:56:35Z</time></trkpt><trkpt lat="49.31706151581652" lon="-0.7157869114111733"><ele>26.0</ele><time>2026-04-26T11:56:39Z</time></trkpt><trkpt lat="49.31712800108068" lon="-0.7158192714564441"><ele>26.0</ele><time>2026-04-26T11:56:42Z</time></trkpt><trkpt lat="49.31718234284548" lon="-0.7158722586154896"><ele>26.0</ele><time>2026-04-26T11:56:49Z</time></trkpt><trkpt lat="49.31724046462714" lon="-0.7159220590279372"><ele>25.833333333333332</ele><time>2026-04-26T11:56:53Z</time></trkpt><trkpt lat="49.31729966518175" lon="-0.7159818387793006"><ele>25.666666666666664</ele><time>2026-04-26T11:56:56Z</time></trkpt><trkpt lat="49.31735580186075" lon="-0.7160304744506643"><ele>25.5</ele><time>2026-04-26T11:56:58Z</time></trkpt><trkpt lat="49.3174240378657" lon="-0.7161104089772415"><ele>25.333333333333336</ele><time>2026-04-26T11:57:01Z</time></trkpt><trkpt lat="49.31749740300982" lon="-0.7161733494849839"><ele>25.166666666666668</ele><time>2026-04-26T11:57:04Z</time></trkpt><trkpt lat="49.31756304419189" lon="-0.7162474142089833"><ele>25.0</ele><time>2026-04-26T11:57:07Z</time></trkpt><trkpt lat="49.317623843018694" lon="-0.7163086203598872"><ele>25.28571428571429</ele><time>2026-04-26T11:57:10Z</time></trkpt><trkpt lat="49.31769183019219" lon="-0.7163698212506594"><ele>25.571428571428573</ele><time>2026-04-26T11:57:13Z</time></trkpt><trkpt lat="49.31775523292755" lon="-0.7164470930252527"><ele>25.857142857142858</ele><time>2026-04-26T11:57:16Z</time></trkpt><trkpt lat="49.31781150969317" lon="-0.7165189526428342"><ele>26.142857142857146</ele><time>2026-04-26T11:57:19Z</time></trkpt><trkpt lat="49.31786487467058" lon="-0.7165983899229648"><ele>26.428571428571427</ele><time>2026-04-26T11:57:22Z</time></trkpt><trkpt lat="49.317922007796945" lon="-0.71666168258522"><ele>26.714285714285715</ele><time>2026-04-26T11:57:25Z</time></trkpt><trkpt lat="49.31796977066748" lon="-0.7167280141209407"><ele>27.0</ele><time>2026-04-26T11:57:28Z</time></trkpt><trkpt lat="49.318017340036114" lon="-0.716799002679632"><ele>27.0</ele><time>2026-04-26T11:57:31Z</time></trkpt><trkpt lat="49.318065675828876" lon="-0.7168711005907048"><ele>27.0</ele><time>2026-04-26T11:57:34Z</time></trkpt><trkpt lat="49.31811793714725" lon="-0.7169432071362228"><ele>27.0</ele><time>2026-04-26T11:57:37Z</time></trkpt><trkpt lat="49.3181768840229" lon="-0.71701191456684"><ele>27.0</ele><time>2026-04-26T11:57:40Z</time></trkpt><trkpt lat="49.31823175658882" lon="-0.7170704000157336"><ele>27.0</ele><time>2026-04-26T11:57:43.001Z</time></trkpt><trkpt lat="49.318294329955144" lon="-0.7171242467163622"><ele>27.0</ele><time>2026-04-26T11:57:46.001Z</time></trkpt><trkpt lat="49.31835639186352" lon="-0.7171885218472266"><ele>27.0</ele><time>2026-04-26T11:57:49.001Z</time></trkpt><trkpt lat="49.3184193206874" lon="-0.7172260260309905"><ele>27.0</ele><time>2026-04-26T11:57:52.001Z</time></trkpt><trkpt lat="49.31848032630564" lon="-0.7172692916179065"><ele>27.0</ele><time>2026-04-26T11:57:55.001Z</time></trkpt><trkpt lat="49.318538925798784" lon="-0.7173098882531036"><ele>27.0</ele><time>2026-04-26T11:57:58.001Z</time></trkpt><trkpt lat="49.318610616164456" lon="-0.7173655742354511"><ele>27.0</ele><time>2026-04-26T11:58:02.001Z</time></trkpt><trkpt lat="49.31866693461049" lon="-0.7174129193092802"><ele>27.0</ele><time>2026-04-26T11:58:05.001Z</time></trkpt><trkpt lat="49.31873057132078" lon="-0.7174657746256403"><ele>27.0</ele><time>2026-04-26T11:58:08.001Z</time></trkpt><trkpt lat="49.31879069776137" lon="-0.717510156750143"><ele>27.0</ele><time>2026-04-26T11:58:11.001Z</time></trkpt><trkpt lat="49.31884804205007" lon="-0.7175616383871454"><ele>26.857142857142858</ele><time>2026-04-26T11:58:14.001Z</time></trkpt><trkpt lat="49.3189065846124" lon="-0.7176175641777877"><ele>26.714285714285715</ele><time>2026-04-26T11:58:17.001Z</time></trkpt><trkpt lat="49.31896376771019" lon="-0.7176763030650603"><ele>26.57142857142857</ele><time>2026-04-26T11:58:20.001Z</time></trkpt><trkpt lat="49.319024071904956" lon="-0.717732086813254"><ele>26.42857142857143</ele><time>2026-04-26T11:58:23.001Z</time></trkpt><trkpt lat="49.31908444088084" lon="-0.7177917396180821"><ele>26.28571428571429</ele><time>2026-04-26T11:58:26.001Z</time></trkpt><trkpt lat="49.319144757648445" lon="-0.7178554039899779"><ele>26.142857142857142</ele><time>2026-04-26T11:58:29.001Z</time></trkpt><trkpt lat="49.31920902813525" lon="-0.7179097013685576"><ele>26.0</ele><time>2026-04-26T11:58:32Z</time></trkpt><trkpt lat="49.319266734927474" lon="-0.7179768667654256"><ele>26.0</ele><time>2026-04-26T11:58:35Z</time></trkpt><trkpt lat="49.319331319216765" lon="-0.7180372042417437"><ele>26.0</ele><time>2026-04-26T11:58:38Z</time></trkpt><trkpt lat="49.319411780721964" lon="-0.718116860491993"><ele>26.0</ele><time>2026-04-26T11:58:41Z</time></trkpt><trkpt lat="49.31946536939108" lon="-0.7181855423743134"><ele>26.0</ele><time>2026-04-26T11:58:43Z</time></trkpt><trkpt lat="49.31952602954509" lon="-0.7182365866495317"><ele>26.0</ele><time>2026-04-26T11:58:45Z</time></trkpt><trkpt lat="49.3195788357501" lon="-0.7182974525968802"><ele>26.0</ele><time>2026-04-26T11:58:47Z</time></trkpt><trkpt lat="49.31963643970705" lon="-0.7183442193714208"><ele>26.0</ele><time>2026-04-26T11:58:49Z</time></trkpt><trkpt lat="49.319717967666115" lon="-0.7184226901146509"><ele>25.833333333333332</ele><time>2026-04-26T11:58:52Z</time></trkpt><trkpt lat="49.319773765062436" lon="-0.7184695366617535"><ele>25.666666666666664</ele><time>2026-04-26T11:58:54Z</time></trkpt><trkpt lat="49.319849517780334" lon="-0.7185308255318416"><ele>25.5</ele><time>2026-04-26T11:58:57Z</time></trkpt><trkpt lat="49.31991716382283" lon="-0.7186181316253167"><ele>25.333333333333336</ele><time>2026-04-26T11:59:00Z</time></trkpt><trkpt lat="49.31997706064667" lon="-0.7187078948628839"><ele>25.166666666666668</ele><time>2026-04-26T11:59:03Z</time></trkpt><trkpt lat="49.32002733372308" lon="-0.7187789203072221"><ele>25.0</ele><time>2026-04-26T11:59:06Z</time></trkpt><trkpt lat="49.32006621140426" lon="-0.7188762831052049"><ele>25.000000000000004</ele><time>2026-04-26T11:59:45.001Z</time></trkpt><trkpt lat="49.32008652959936" lon="-0.7189771472594446"><ele>25.0</ele><time>2026-04-26T11:59:50.001Z</time></trkpt><trkpt lat="49.32011802875585" lon="-0.7190680927819094"><ele>25.0</ele><time>2026-04-26T11:59:54.001Z</time></trkpt><trkpt lat="49.32015270899085" lon="-0.7191743929586328"><ele>25.0</ele><time>2026-04-26T11:59:57.001Z</time></trkpt><trkpt lat="49.32017454187606" lon="-0.7192689853898936"><ele>25.0</ele><time>2026-04-26T12:00:00.001Z</time></trkpt><trkpt lat="49.32020354844528" lon="-0.71937594043071"><ele>25.000000000000004</ele><time>2026-04-26T12:00:04.001Z</time></trkpt><trkpt lat="49.32023383845547" lon="-0.7194853411853763"><ele>25.0</ele><time>2026-04-26T12:00:07.001Z</time></trkpt><trkpt lat="49.32025635188902" lon="-0.7195934437932228"><ele>25.000000000000004</ele><time>2026-04-26T12:00:11.001Z</time></trkpt><trkpt lat="49.32027908275007" lon="-0.7196934641410543"><ele>25.0</ele><time>2026-04-26T12:00:15.001Z</time></trkpt><trkpt lat="49.320312468559635" lon="-0.7197809690985111"><ele>25.0</ele><time>2026-04-26T12:00:18.001Z</time></trkpt><trkpt lat="49.320341232661335" lon="-0.7198948981879523"><ele>25.0</ele><time>2026-04-26T12:00:22.001Z</time></trkpt><trkpt lat="49.32036461131877" lon="-0.7199853789090751"><ele>25.0</ele><time>2026-04-26T12:00:25.001Z</time></trkpt><trkpt lat="49.32039581916642" lon="-0.7200987910546001"><ele>25.000000000000004</ele><time>2026-04-26T12:00:28.001Z</time></trkpt><trkpt lat="49.32041909695525" lon="-0.7201922449346241"><ele>25.0</ele><time>2026-04-26T12:00:31.001Z</time></trkpt><trkpt lat="49.32044569761058" lon="-0.720298044951104"><ele>25.000000000000004</ele><time>2026-04-26T12:00:35.001Z</time></trkpt><trkpt lat="49.320471597181374" lon="-0.7203965512299697"><ele>25.0</ele><time>2026-04-26T12:00:38Z</time></trkpt><trkpt lat="49.32050608549295" lon="-0.7205181137339708"><ele>25.0</ele><time>2026-04-26T12:00:42Z</time></trkpt><trkpt lat="49.320531719018796" lon="-0.7206143728049538"><ele>25.0</ele><time>2026-04-26T12:00:46Z</time></trkpt><trkpt lat="49.320552138068294" lon="-0.7207144283897464"><ele>25.0</ele><time>2026-04-26T12:00:49Z</time></trkpt><trkpt lat="49.320580435015806" lon="-0.7208136895600439"><ele>25.000000000000004</ele><time>2026-04-26T12:00:52Z</time></trkpt><trkpt lat="49.32061090976822" lon="-0.72091615857295"><ele>25.0</ele><time>2026-04-26T12:00:55Z</time></trkpt><trkpt lat="49.32063256396504" lon="-0.7210111155313941"><ele>24.857142857142858</ele><time>2026-04-26T12:00:58Z</time></trkpt><trkpt lat="49.32065535364314" lon="-0.7211169997919266"><ele>24.714285714285715</ele><time>2026-04-26T12:01:01Z</time></trkpt><trkpt lat="49.32068720260034" lon="-0.7212112131328692"><ele>24.57142857142857</ele><time>2026-04-26T12:01:04Z</time></trkpt><trkpt lat="49.320708496173765" lon="-0.7213221450565696"><ele>24.42857142857143</ele><time>2026-04-26T12:01:07Z</time></trkpt><trkpt lat="49.32074425169446" lon="-0.7214168412254183"><ele>24.285714285714285</ele><time>2026-04-26T12:01:10Z</time></trkpt><trkpt lat="49.320766407565955" lon="-0.721523321235051"><ele>24.142857142857142</ele><time>2026-04-26T12:01:14Z</time></trkpt><trkpt lat="49.32079058180131" lon="-0.7216287146393637"><ele>24.0</ele><time>2026-04-26T12:01:17Z</time></trkpt><trkpt lat="49.32081833290861" lon="-0.7217445689887416"><ele>23.999999999999996</ele><time>2026-04-26T12:01:20Z</time></trkpt><trkpt lat="49.32085142715196" lon="-0.7218538544673087"><ele>24.0</ele><time>2026-04-26T12:01:23Z</time></trkpt><trkpt lat="49.32087390131244" lon="-0.7219587694017594"><ele>24.0</ele><time>2026-04-26T12:01:26Z</time></trkpt><trkpt lat="49.320906884222936" lon="-0.7220598975128701"><ele>24.0</ele><time>2026-04-26T12:01:29Z</time></trkpt><trkpt lat="49.32092612407166" lon="-0.7221539602399727"><ele>24.0</ele><time>2026-04-26T12:01:32Z</time></trkpt><trkpt lat="49.320956038324965" lon="-0.7222433958228265"><ele>23.999999999999996</ele><time>2026-04-26T12:01:36Z</time></trkpt><trkpt lat="49.32097290282134" lon="-0.7223426992244685"><ele>24.0</ele><time>2026-04-26T12:01:42Z</time></trkpt><trkpt lat="49.320943736077304" lon="-0.7221423550659632"><ele>24.0</ele><time>2026-04-26T12:01:50.001Z</time></trkpt><trkpt lat="49.32089680222159" lon="-0.7219863108013325"><ele>24.0</ele><time>2026-04-26T12:01:52.001Z</time></trkpt><trkpt lat="49.320861541528686" lon="-0.7218464726687427"><ele>24.0</ele><time>2026-04-26T12:01:54.001Z</time></trkpt><trkpt lat="49.32081721520935" lon="-0.7217151498084619"><ele>24.0</ele><time>2026-04-26T12:01:56.001Z</time></trkpt><trkpt lat="49.32077329747526" lon="-0.7215973401286021"><ele>24.0</ele><time>2026-04-26T12:01:58.001Z</time></trkpt><trkpt lat="49.32074206319506" lon="-0.7214752749093503"><ele>24.0</ele><time>2026-04-26T12:02:00.001Z</time></trkpt><trkpt lat="49.32071050727002" lon="-0.7213647427141145"><ele>24.0</ele><time>2026-04-26T12:02:02.001Z</time></trkpt><trkpt lat="49.32067236272309" lon="-0.7212421829540749"><ele>24.0</ele><time>2026-04-26T12:02:05.001Z</time></trkpt><trkpt lat="49.32065481058443" lon="-0.7211395503699947"><ele>24.0</ele><time>2026-04-26T12:02:08.001Z</time></trkpt><trkpt lat="49.3207039529315" lon="-0.7212309675523471"><ele>24.0</ele><time>2026-04-26T12:02:11.001Z</time></trkpt><trkpt lat="49.32071693391626" lon="-0.7213456036749334"><ele>24.0</ele><time>2026-04-26T12:02:13.001Z</time></trkpt><trkpt lat="49.32074253798728" lon="-0.7214591047676291"><ele>23.999999999999996</ele><time>2026-04-26T12:02:16.001Z</time></trkpt><trkpt lat="49.320762737650725" lon="-0.7215585723859969"><ele>24.0</ele><time>2026-04-26T12:02:19.001Z</time></trkpt><trkpt lat="49.32079003796849" lon="-0.7216475737995676"><ele>24.0</ele><time>2026-04-26T12:02:36.001Z</time></trkpt><trkpt lat="49.32081351681775" lon="-0.7217428888270233"><ele>24.0</ele><time>2026-04-26T12:02:39.001Z</time></trkpt><trkpt lat="49.32083631861802" lon="-0.7218405683007996"><ele>24.0</ele><time>2026-04-26T12:02:42.001Z</time></trkpt><trkpt lat="49.32086858221183" lon="-0.7219462591335278"><ele>23.999999999999996</ele><time>2026-04-26T12:02:45Z</time></trkpt><trkpt lat="49.32090314667866" lon="-0.7220738063747066"><ele>24.0</ele><time>2026-04-26T12:02:48Z</time></trkpt><trkpt lat="49.32093506474038" lon="-0.7222083929398088"><ele>24.4</ele><time>2026-04-26T12:02:51Z</time></trkpt><trkpt lat="49.320971264042036" lon="-0.7223359220698502"><ele>24.799999999999997</ele><time>2026-04-26T12:02:54Z</time></trkpt><trkpt lat="49.321003172116264" lon="-0.7224672698710758"><ele>25.200000000000003</ele><time>2026-04-26T12:02:57Z</time></trkpt><trkpt lat="49.321038910801065" lon="-0.7225931632261214"><ele>25.6</ele><time>2026-04-26T12:03:00Z</time></trkpt><trkpt lat="49.32107047402738" lon="-0.722725163446901"><ele>26.0</ele><time>2026-04-26T12:03:03Z</time></trkpt><trkpt lat="49.32110567713772" lon="-0.7228558484878187"><ele>25.999999999999996</ele><time>2026-04-26T12:03:06Z</time></trkpt><trkpt lat="49.32113113026593" lon="-0.7229859703561948"><ele>26.0</ele><time>2026-04-26T12:03:09Z</time></trkpt><trkpt lat="49.321159627543445" lon="-0.723104253128726"><ele>26.0</ele><time>2026-04-26T12:03:12Z</time></trkpt><trkpt lat="49.32119517332613" lon="-0.7232135047752409"><ele>26.0</ele><time>2026-04-26T12:03:15Z</time></trkpt><trkpt lat="49.321227192047836" lon="-0.7233232983749409"><ele>25.999999999999996</ele><time>2026-04-26T12:03:18Z</time></trkpt><trkpt lat="49.32125714132919" lon="-0.7234205404605191"><ele>26.0</ele><time>2026-04-26T12:03:21Z</time></trkpt><trkpt lat="49.321288401148195" lon="-0.7235200279418557"><ele>25.999999999999996</ele><time>2026-04-26T12:03:24Z</time></trkpt><trkpt lat="49.32134006493353" lon="-0.7236130418055228"><ele>26.0</ele><time>2026-04-26T12:03:27Z</time></trkpt><trkpt lat="49.32138178304927" lon="-0.7237076863217434"><ele>26.0</ele><time>2026-04-26T12:03:30Z</time></trkpt><trkpt lat="49.32146222079294" lon="-0.7236990522278722"><ele>26.0</ele><time>2026-04-26T12:03:46Z</time></trkpt><trkpt lat="49.321542271023326" lon="-0.7237210812619687"><ele>25.999999999999996</ele><time>2026-04-26T12:03:49.001Z</time></trkpt><trkpt lat="49.32161904011714" lon="-0.7237141561508353"><ele>26.0</ele><time>2026-04-26T12:03:51.001Z</time></trkpt><trkpt lat="49.32168883507022" lon="-0.7237122987502218"><ele>25.833333333333332</ele><time>2026-04-26T12:03:53.001Z</time></trkpt><trkpt lat="49.32176739029766" lon="-0.7237045513795836"><ele>25.666666666666664</ele><time>2026-04-26T12:03:55.001Z</time></trkpt><trkpt lat="49.321850224791035" lon="-0.7237003250215523"><ele>25.5</ele><time>2026-04-26T12:03:57.001Z</time></trkpt><trkpt lat="49.32193209875934" lon="-0.7236946909736016"><ele>25.333333333333336</ele><time>2026-04-26T12:03:59.001Z</time></trkpt><trkpt lat="49.322009163246506" lon="-0.7236794960684926"><ele>25.166666666666668</ele><time>2026-04-26T12:04:01.001Z</time></trkpt><trkpt lat="49.32208982021946" lon="-0.723665734430281"><ele>25.0</ele><time>2026-04-26T12:04:03.001Z</time></trkpt><trkpt lat="49.32216167334026" lon="-0.7236665976593722"><ele>25.000000000000004</ele><time>2026-04-26T12:04:05.001Z</time></trkpt><trkpt lat="49.32222863871838" lon="-0.7236605934809688"><ele>25.0</ele><time>2026-04-26T12:04:07.001Z</time></trkpt><trkpt lat="49.32232843156054" lon="-0.7236475327591477"><ele>25.0</ele><time>2026-04-26T12:04:09.001Z</time></trkpt><trkpt lat="49.322449315803304" lon="-0.7236204368411612"><ele>25.0</ele><time>2026-04-26T12:04:11.001Z</time></trkpt><trkpt lat="49.32251874872433" lon="-0.7236060710360295"><ele>25.000000000000004</ele><time>2026-04-26T12:04:12.001Z</time></trkpt><trkpt lat="49.322598001692704" lon="-0.7236007098723625"><ele>25.0</ele><time>2026-04-26T12:04:13.001Z</time></trkpt><trkpt lat="49.32266916568433" lon="-0.7235974732375343"><ele>24.714285714285715</ele><time>2026-04-26T12:04:14.001Z</time></trkpt><trkpt lat="49.32273601340652" lon="-0.7236041514058726"><ele>24.42857142857143</ele><time>2026-04-26T12:04:15.001Z</time></trkpt><trkpt lat="49.322799803248806" lon="-0.7236449633698329"><ele>24.142857142857146</ele><time>2026-04-26T12:04:16.001Z</time></trkpt><trkpt lat="49.32284982808725" lon="-0.7237071422908115"><ele>23.857142857142858</ele><time>2026-04-26T12:04:17.001Z</time></trkpt><trkpt lat="49.322865319838876" lon="-0.7238045925891484"><ele>23.57142857142857</ele><time>2026-04-26T12:04:32.001Z</time></trkpt><trkpt lat="49.32288788006432" lon="-0.7239061587222381"><ele>23.28571428571429</ele><time>2026-04-26T12:04:35.001Z</time></trkpt><trkpt lat="49.32288911555341" lon="-0.7240289767782323"><ele>23.0</ele><time>2026-04-26T12:04:39.001Z</time></trkpt><trkpt lat="49.32285098097484" lon="-0.7241309137152991"><ele>23.0</ele><time>2026-04-26T12:04:42.001Z</time></trkpt><trkpt lat="49.322858367369214" lon="-0.7242662147118545"><ele>23.0</ele><time>2026-04-26T12:04:46.001Z</time></trkpt><trkpt lat="49.32286797925861" lon="-0.7243658344714791"><ele>23.0</ele><time>2026-04-26T12:04:48.001Z</time></trkpt><trkpt lat="49.32287772772445" lon="-0.7244918081611109"><ele>23.0</ele><time>2026-04-26T12:04:51Z</time></trkpt><trkpt lat="49.32292670156977" lon="-0.7245613066972636"><ele>23.0</ele><time>2026-04-26T12:04:53Z</time></trkpt><trkpt lat="49.32294842829453" lon="-0.7246724359254463"><ele>23.0</ele><time>2026-04-26T12:04:56Z</time></trkpt><trkpt lat="49.32296242742614" lon="-0.7247713548103607"><ele>23.0</ele><time>2026-04-26T12:04:59Z</time></trkpt><trkpt lat="49.32298159187043" lon="-0.7248648917379223"><ele>23.0</ele><time>2026-04-26T12:05:02Z</time></trkpt><trkpt lat="49.323001835362234" lon="-0.7249765506878925"><ele>23.0</ele><time>2026-04-26T12:05:06Z</time></trkpt><trkpt lat="49.323007501461404" lon="-0.7250847787840201"><ele>23.0</ele><time>2026-04-26T12:06:00.001Z</time></trkpt><trkpt lat="49.32303438263694" lon="-0.7251872783066977"><ele>23.0</ele><time>2026-04-26T12:06:06.001Z</time></trkpt><trkpt lat="49.323074084174976" lon="-0.725303503737218"><ele>23.0</ele><time>2026-04-26T12:06:10.001Z</time></trkpt><trkpt lat="49.32306550742725" lon="-0.725406042029542"><ele>23.0</ele><time>2026-04-26T12:06:15.001Z</time></trkpt><trkpt lat="49.323067338356935" lon="-0.7255057433861932"><ele>23.0</ele><time>2026-04-26T12:06:20.001Z</time></trkpt><trkpt lat="49.32307830294112" lon="-0.72560577104597"><ele>23.0</ele><time>2026-04-26T12:06:28.001Z</time></trkpt><trkpt lat="49.32308274105843" lon="-0.7257386960022336"><ele>23.0</ele><time>2026-04-26T12:06:31.001Z</time></trkpt><trkpt lat="49.323093968776384" lon="-0.7258794975309568"><ele>23.0</ele><time>2026-04-26T12:06:34.001Z</time></trkpt><trkpt lat="49.32309286508578" lon="-0.7260141314584856"><ele>23.0</ele><time>2026-04-26T12:06:37.001Z</time></trkpt><trkpt lat="49.32310155173648" lon="-0.7261379106171397"><ele>23.0</ele><time>2026-04-26T12:06:40.001Z</time></trkpt><trkpt lat="49.32310184111003" lon="-0.7262616861804998"><ele>23.0</ele><time>2026-04-26T12:06:44.001Z</time></trkpt><trkpt lat="49.32310045278213" lon="-0.7264041634096491"><ele>23.0</ele><time>2026-04-26T12:06:47.001Z</time></trkpt><trkpt lat="49.32311216783387" lon="-0.7265118896749677"><ele>23.0</ele><time>2026-04-26T12:06:50.001Z</time></trkpt><trkpt lat="49.323106828781235" lon="-0.726615646790485"><ele>23.0</ele><time>2026-04-26T12:06:53.001Z</time></trkpt><trkpt lat="49.323116125993046" lon="-0.726720131940463"><ele>23.0</ele><time>2026-04-26T12:06:57Z</time></trkpt><trkpt lat="49.3231252431835" lon="-0.7268179455505462"><ele>23.0</ele><time>2026-04-26T12:07:00Z</time></trkpt><trkpt lat="49.323133205828796" lon="-0.7269554737736028"><ele>23.0</ele><time>2026-04-26T12:07:03Z</time></trkpt><trkpt lat="49.32314352271925" lon="-0.7271293089310119"><ele>23.0</ele><time>2026-04-26T12:07:06Z</time></trkpt><trkpt lat="49.32316107739574" lon="-0.7272700785026458"><ele>23.0</ele><time>2026-04-26T12:07:08Z</time></trkpt><trkpt lat="49.32317353194234" lon="-0.7274140719327249"><ele>23.0</ele><time>2026-04-26T12:07:10Z</time></trkpt><trkpt lat="49.323190449852135" lon="-0.7275502993237174"><ele>23.0</ele><time>2026-04-26T12:07:12Z</time></trkpt><trkpt lat="49.323202032197415" lon="-0.727698063414846"><ele>23.0</ele><time>2026-04-26T12:07:14Z</time></trkpt><trkpt lat="49.32321898953859" lon="-0.7278298806008644"><ele>23.2</ele><time>2026-04-26T12:07:16Z</time></trkpt><trkpt lat="49.323230663135675" lon="-0.7279703686763437"><ele>23.4</ele><time>2026-04-26T12:07:18Z</time></trkpt><trkpt lat="49.32324152793404" lon="-0.7281071461768893"><ele>23.599999999999998</ele><time>2026-04-26T12:07:20Z</time></trkpt><trkpt lat="49.32324994573543" lon="-0.7282466685517396"><ele>23.799999999999997</ele><time>2026-04-26T12:07:22Z</time></trkpt><trkpt lat="49.32328122269943" lon="-0.7283696254567288"><ele>24.0</ele><time>2026-04-26T12:07:24Z</time></trkpt><trkpt lat="49.32330314364617" lon="-0.7285091740845402"><ele>24.0</ele><time>2026-04-26T12:07:26Z</time></trkpt><trkpt lat="49.32332632723562" lon="-0.7286611796192034"><ele>24.0</ele><time>2026-04-26T12:07:28Z</time></trkpt><trkpt lat="49.32335357835913" lon="-0.728808090667858"><ele>24.0</ele><time>2026-04-26T12:07:30Z</time></trkpt><trkpt lat="49.32338204600333" lon="-0.7289503978886727"><ele>24.0</ele><time>2026-04-26T12:07:32Z</time></trkpt><trkpt lat="49.3234084912979" lon="-0.7290941578612519"><ele>24.0</ele><time>2026-04-26T12:07:34Z</time></trkpt><trkpt lat="49.32342580818761" lon="-0.7292432480818826"><ele>24.0</ele><time>2026-04-26T12:07:36Z</time></trkpt><trkpt lat="49.32345479655039" lon="-0.7293717016855673"><ele>24.0</ele><time>2026-04-26T12:07:38.001Z</time></trkpt><trkpt lat="49.32347497190522" lon="-0.7295201422742073"><ele>24.0</ele><time>2026-04-26T12:07:40.001Z</time></trkpt><trkpt lat="49.323501282295844" lon="-0.7296669230229842"><ele>24.0</ele><time>2026-04-26T12:07:42.001Z</time></trkpt><trkpt lat="49.32352025016753" lon="-0.7298005520621368"><ele>24.0</ele><time>2026-04-26T12:07:44.001Z</time></trkpt><trkpt lat="49.32352635122799" lon="-0.7298971922286339"><ele>24.0</ele><time>2026-04-26T12:08:38.001Z</time></trkpt><trkpt lat="49.32358784557078" lon="-0.7299236464569896"><ele>24.0</ele><time>2026-04-26T12:15:07.001Z</time></trkpt><trkpt lat="49.32360587981812" lon="-0.7300250696488583"><ele>24.0</ele><time>2026-04-26T12:15:11.001Z</time></trkpt><trkpt lat="49.32362271987943" lon="-0.7301250446144708"><ele>24.0</ele><time>2026-04-26T12:15:15.001Z</time></trkpt><trkpt lat="49.32363923791996" lon="-0.7302328835896242"><ele>24.0</ele><time>2026-04-26T12:15:18.001Z</time></trkpt><trkpt lat="49.32365614883256" lon="-0.7303593108311895"><ele>24.0</ele><time>2026-04-26T12:15:21.001Z</time></trkpt><trkpt lat="49.323682486638994" lon="-0.7304791587443441"><ele>24.0</ele><time>2026-04-26T12:15:24.001Z</time></trkpt><trkpt lat="49.32370810602322" lon="-0.7306131405229357"><ele>24.0</ele><time>2026-04-26T12:15:27.001Z</time></trkpt><trkpt lat="49.32372931906801" lon="-0.730715186342407"><ele>24.0</ele><time>2026-04-26T12:15:29.001Z</time></trkpt><trkpt lat="49.32374688047904" lon="-0.7308273454166693"><ele>24.0</ele><time>2026-04-26T12:15:32Z</time></trkpt><trkpt lat="49.32376819835747" lon="-0.7309562550906331"><ele>24.0</ele><time>2026-04-26T12:15:35Z</time></trkpt><trkpt lat="49.3237772469898" lon="-0.7310859533830405"><ele>24.0</ele><time>2026-04-26T12:15:38Z</time></trkpt><trkpt lat="49.32379145165109" lon="-0.7312404667054577"><ele>24.0</ele><time>2026-04-26T12:15:41Z</time></trkpt><trkpt lat="49.32379848874188" lon="-0.7313605029828124"><ele>23.999999999999996</ele><time>2026-04-26T12:15:43Z</time></trkpt><trkpt lat="49.32382078647273" lon="-0.7314675980348951"><ele>24.0</ele><time>2026-04-26T12:15:45Z</time></trkpt><trkpt lat="49.323829405212905" lon="-0.7315708350125586"><ele>24.0</ele><time>2026-04-26T12:15:47Z</time></trkpt><trkpt lat="49.32382737022475" lon="-0.7316815368203294"><ele>24.0</ele><time>2026-04-26T12:15:49Z</time></trkpt><trkpt lat="49.32382105690039" lon="-0.7317873578080221"><ele>24.0</ele><time>2026-04-26T12:15:51Z</time></trkpt><trkpt lat="49.32383346618593" lon="-0.7318901260637272"><ele>23.999999999999996</ele><time>2026-04-26T12:15:53Z</time></trkpt><trkpt lat="49.32384714187359" lon="-0.7319878866913052"><ele>24.0</ele><time>2026-04-26T12:15:55Z</time></trkpt><trkpt lat="49.323861531386136" lon="-0.7321289086838276"><ele>24.0</ele><time>2026-04-26T12:15:58Z</time></trkpt><trkpt lat="49.32387777945525" lon="-0.7322696169958528"><ele>24.0</ele><time>2026-04-26T12:16:01Z</time></trkpt><trkpt lat="49.32387778007108" lon="-0.7324134764338199"><ele>24.0</ele><time>2026-04-26T12:16:04Z</time></trkpt><trkpt lat="49.32388243264937" lon="-0.7325140702635886"><ele>24.0</ele><time>2026-04-26T12:16:06Z</time></trkpt><trkpt lat="49.323886047445484" lon="-0.7326444966179797"><ele>24.0</ele><time>2026-04-26T12:16:09Z</time></trkpt><trkpt lat="49.32388695264303" lon="-0.7327766106958797"><ele>24.0</ele><time>2026-04-26T12:16:12Z</time></trkpt><trkpt lat="49.32389109368576" lon="-0.7329056085462495"><ele>24.166666666666668</ele><time>2026-04-26T12:16:15Z</time></trkpt><trkpt lat="49.323891769869874" lon="-0.7330364319794982"><ele>24.333333333333336</ele><time>2026-04-26T12:16:18Z</time></trkpt><trkpt lat="49.323891923423574" lon="-0.7331684335882778"><ele>24.5</ele><time>2026-04-26T12:16:21Z</time></trkpt><trkpt lat="49.32389841116502" lon="-0.7332887454984125"><ele>24.666666666666668</ele><time>2026-04-26T12:16:24Z</time></trkpt><trkpt lat="49.32390753449952" lon="-0.7334109367221558"><ele>24.833333333333336</ele><time>2026-04-26T12:16:27Z</time></trkpt><trkpt lat="49.323923958358016" lon="-0.7335388870532453"><ele>25.0</ele><time>2026-04-26T12:16:30Z</time></trkpt><trkpt lat="49.32393858788425" lon="-0.7336661534211383"><ele>24.666666666666668</ele><time>2026-04-26T12:16:33Z</time></trkpt><trkpt lat="49.323960529467854" lon="-0.7338005820668753"><ele>24.333333333333336</ele><time>2026-04-26T12:16:36.001Z</time></trkpt><trkpt lat="49.32397025573633" lon="-0.7339048430176073"><ele>24.0</ele><time>2026-04-26T12:16:38.001Z</time></trkpt><trkpt lat="49.32398860315718" lon="-0.7340283576203782"><ele>23.666666666666668</ele><time>2026-04-26T12:16:41.001Z</time></trkpt><trkpt lat="49.32402103252782" lon="-0.7341476524284818"><ele>23.333333333333336</ele><time>2026-04-26T12:16:56.001Z</time></trkpt><trkpt lat="49.32404022639643" lon="-0.7342584168655693"><ele>23.0</ele><time>2026-04-26T12:16:58.001Z</time></trkpt><trkpt lat="49.32404917306818" lon="-0.7343541818283624"><ele>23.4</ele><time>2026-04-26T12:17:00.001Z</time></trkpt><trkpt lat="49.324060782405745" lon="-0.7344756532917546"><ele>23.799999999999997</ele><time>2026-04-26T12:17:03.001Z</time></trkpt><trkpt lat="49.324069099466385" lon="-0.7346135601253752"><ele>24.2</ele><time>2026-04-26T12:17:06.001Z</time></trkpt><trkpt lat="49.32406729212541" lon="-0.7347399030628257"><ele>24.6</ele><time>2026-04-26T12:17:08.001Z</time></trkpt><trkpt lat="49.32405514323403" lon="-0.7348913440030348"><ele>25.0</ele><time>2026-04-26T12:17:10.001Z</time></trkpt><trkpt lat="49.32403628435537" lon="-0.7350843184390222"><ele>25.000000000000004</ele><time>2026-04-26T12:17:12.001Z</time></trkpt><trkpt lat="49.3240375701032" lon="-0.735191249158278"><ele>25.0</ele><time>2026-04-26T12:17:13.001Z</time></trkpt><trkpt lat="49.32402095969587" lon="-0.735285495796777"><ele>25.0</ele><time>2026-04-26T12:17:14.001Z</time></trkpt><trkpt lat="49.32397903828582" lon="-0.7353666748772739"><ele>25.0</ele><time>2026-04-26T12:17:15.001Z</time></trkpt><trkpt lat="49.32393298133682" lon="-0.7354432597243179"><ele>25.000000000000004</ele><time>2026-04-26T12:17:16.001Z</time></trkpt><trkpt lat="49.323847481926684" lon="-0.7355982507421434"><ele>25.0</ele><time>2026-04-26T12:17:18.001Z</time></trkpt><trkpt lat="49.32380662820767" lon="-0.7356782641931748"><ele>25.142857142857146</ele><time>2026-04-26T12:17:19.001Z</time></trkpt><trkpt lat="49.32376206981681" lon="-0.7357667820907052"><ele>25.285714285714285</ele><time>2026-04-26T12:17:20.001Z</time></trkpt><trkpt lat="49.323717648102345" lon="-0.7358537694415055"><ele>25.42857142857143</ele><time>2026-04-26T12:17:21.001Z</time></trkpt><trkpt lat="49.3236693692601" lon="-0.7359406423685662"><ele>25.571428571428573</ele><time>2026-04-26T12:17:22.001Z</time></trkpt><trkpt lat="49.3236250320201" lon="-0.7360317015844323"><ele>25.714285714285715</ele><time>2026-04-26T12:17:23.001Z</time></trkpt><trkpt lat="49.323586389453595" lon="-0.7361317384898771"><ele>25.857142857142858</ele><time>2026-04-26T12:17:24.001Z</time></trkpt><trkpt lat="49.32356045928347" lon="-0.7362283624818502"><ele>26.0</ele><time>2026-04-26T12:17:25Z</time></trkpt><trkpt lat="49.32352401178384" lon="-0.7363212002112157"><ele>25.499999999999996</ele><time>2026-04-26T12:17:26Z</time></trkpt><trkpt lat="49.32349930929948" lon="-0.7364383261878936"><ele>25.0</ele><time>2026-04-26T12:17:27Z</time></trkpt><trkpt lat="49.32347721710782" lon="-0.7365643194834863"><ele>24.5</ele><time>2026-04-26T12:17:28Z</time></trkpt><trkpt lat="49.32343799714211" lon="-0.7366735259907091"><ele>24.0</ele><time>2026-04-26T12:17:29Z</time></trkpt><trkpt lat="49.32338264159093" lon="-0.7367730799996276"><ele>23.5</ele><time>2026-04-26T12:17:30Z</time></trkpt><trkpt lat="49.323316463657086" lon="-0.7368658383082615"><ele>23.0</ele><time>2026-04-26T12:17:31Z</time></trkpt><trkpt lat="49.32326496305248" lon="-0.7369587248380949"><ele>23.142857142857142</ele><time>2026-04-26T12:17:32Z</time></trkpt><trkpt lat="49.32320536239967" lon="-0.7370375778634884"><ele>23.285714285714285</ele><time>2026-04-26T12:17:33Z</time></trkpt><trkpt lat="49.32314580259571" lon="-0.7371080783284614"><ele>23.428571428571427</ele><time>2026-04-26T12:17:34Z</time></trkpt><trkpt lat="49.32309123362616" lon="-0.7371769634078086"><ele>23.57142857142857</ele><time>2026-04-26T12:17:35Z</time></trkpt><trkpt lat="49.323036764371274" lon="-0.7372469307450649"><ele>23.714285714285715</ele><time>2026-04-26T12:17:36Z</time></trkpt><trkpt lat="49.32298649585813" lon="-0.7373290514338612"><ele>23.857142857142854</ele><time>2026-04-26T12:17:37Z</time></trkpt><trkpt lat="49.32293733382334" lon="-0.7374078873648852"><ele>24.0</ele><time>2026-04-26T12:17:38Z</time></trkpt><trkpt lat="49.32289247102977" lon="-0.7374832878152425"><ele>24.0</ele><time>2026-04-26T12:17:39Z</time></trkpt><trkpt lat="49.322848272413815" lon="-0.7375526705190387"><ele>24.0</ele><time>2026-04-26T12:17:40Z</time></trkpt><trkpt lat="49.322761038865586" lon="-0.7376795996347556"><ele>24.0</ele><time>2026-04-26T12:17:42Z</time></trkpt><trkpt lat="49.3226964274633" lon="-0.7378305250974325"><ele>24.0</ele><time>2026-04-26T12:17:44Z</time></trkpt><trkpt lat="49.32263451388509" lon="-0.7379239305331778"><ele>24.0</ele><time>2026-04-26T12:17:46Z</time></trkpt><trkpt lat="49.32258071639669" lon="-0.7380189432104488"><ele>23.5</ele><time>2026-04-26T12:17:48Z</time></trkpt><trkpt lat="49.32252550165349" lon="-0.7381063830034703"><ele>23.0</ele><time>2026-04-26T12:17:50Z</time></trkpt><trkpt lat="49.32247584693323" lon="-0.7381849870207466"><ele>22.5</ele><time>2026-04-26T12:17:52Z</time></trkpt><trkpt lat="49.322429754477476" lon="-0.7382707684559291"><ele>22.0</ele><time>2026-04-26T12:17:54Z</time></trkpt><trkpt lat="49.32237180525822" lon="-0.7383862889517163"><ele>21.5</ele><time>2026-04-26T12:17:57Z</time></trkpt><trkpt lat="49.32232290462111" lon="-0.7384846647363088"><ele>21.0</ele><time>2026-04-26T12:18:00Z</time></trkpt><trkpt lat="49.32227493507019" lon="-0.7385716089857117"><ele>21.142857142857142</ele><time>2026-04-26T12:18:03Z</time></trkpt><trkpt lat="49.3222284231305" lon="-0.7386517817139293"><ele>21.285714285714285</ele><time>2026-04-26T12:18:06Z</time></trkpt><trkpt lat="49.32217340569642" lon="-0.738726391302521"><ele>21.42857142857143</ele><time>2026-04-26T12:18:09Z</time></trkpt><trkpt lat="49.32213415143248" lon="-0.7388081977302774"><ele>21.57142857142857</ele><time>2026-04-26T12:18:12Z</time></trkpt><trkpt lat="49.32207705259947" lon="-0.7388888435311235"><ele>21.714285714285715</ele><time>2026-04-26T12:18:16Z</time></trkpt><trkpt lat="49.32201492249509" lon="-0.7389562244958612"><ele>21.857142857142858</ele><time>2026-04-26T12:18:19Z</time></trkpt><trkpt lat="49.32195248481223" lon="-0.739031012360721"><ele>22.0</ele><time>2026-04-26T12:18:24Z</time></trkpt><trkpt lat="49.321893066043266" lon="-0.7390850219182541"><ele>22.0</ele><time>2026-04-26T12:18:27Z</time></trkpt><trkpt lat="49.3218257437225" lon="-0.7391176053094095"><ele>22.0</ele><time>2026-04-26T12:18:30Z</time></trkpt><trkpt lat="49.32175357319458" lon="-0.7391508214016596"><ele>22.0</ele><time>2026-04-26T12:18:33Z</time></trkpt><trkpt lat="49.32167972156484" lon="-0.7392066486395081"><ele>22.0</ele><time>2026-04-26T12:18:36Z</time></trkpt><trkpt lat="49.321605507341886" lon="-0.7392538715023931"><ele>22.0</ele><time>2026-04-26T12:18:39Z</time></trkpt><trkpt lat="49.32154504593102" lon="-0.7393043563014184"><ele>22.0</ele><time>2026-04-26T12:18:42Z</time></trkpt><trkpt lat="49.32147712100057" lon="-0.739387056120684"><ele>22.166666666666664</ele><time>2026-04-26T12:18:45Z</time></trkpt><trkpt lat="49.32143202116627" lon="-0.7394546200325492"><ele>22.333333333333332</ele><time>2026-04-26T12:18:47Z</time></trkpt><trkpt lat="49.321379414822964" lon="-0.7395518785704424"><ele>22.5</ele><time>2026-04-26T12:18:50Z</time></trkpt><trkpt lat="49.321335228880244" lon="-0.7396581486460678"><ele>22.666666666666668</ele><time>2026-04-26T12:18:53Z</time></trkpt><trkpt lat="49.32129613383378" lon="-0.7397748218694313"><ele>22.833333333333336</ele><time>2026-04-26T12:18:56Z</time></trkpt><trkpt lat="49.32125433907721" lon="-0.7398939088066181"><ele>23.0</ele><time>2026-04-26T12:18:59Z</time></trkpt><trkpt lat="49.321218069135995" lon="-0.7400100216962511"><ele>23.0</ele><time>2026-04-26T12:19:02Z</time></trkpt><trkpt lat="49.32117296325539" lon="-0.7401316532075747"><ele>23.0</ele><time>2026-04-26T12:19:05Z</time></trkpt><trkpt lat="49.321143435507416" lon="-0.740217363650003"><ele>23.0</ele><time>2026-04-26T12:19:07Z</time></trkpt><trkpt lat="49.32111579924495" lon="-0.7403089349552894"><ele>23.0</ele><time>2026-04-26T12:19:09Z</time></trkpt><trkpt lat="49.321082685930214" lon="-0.740400447155464"><ele>23.0</ele><time>2026-04-26T12:19:11Z</time></trkpt><trkpt lat="49.32106133977686" lon="-0.7404913475526925"><ele>23.0</ele><time>2026-04-26T12:19:13Z</time></trkpt><trkpt lat="49.32102531990036" lon="-0.7405873642557005"><ele>23.0</ele><time>2026-04-26T12:19:16Z</time></trkpt><trkpt lat="49.32098989786442" lon="-0.7407107236830778"><ele>22.666666666666668</ele><time>2026-04-26T12:19:22Z</time></trkpt><trkpt lat="49.320945720530254" lon="-0.7408326271985862"><ele>22.333333333333336</ele><time>2026-04-26T12:19:25Z</time></trkpt><trkpt lat="49.320901949177696" lon="-0.7409497619858906"><ele>22.0</ele><time>2026-04-26T12:19:28Z</time></trkpt><trkpt lat="49.32086324830097" lon="-0.7410597416013546"><ele>21.666666666666668</ele><time>2026-04-26T12:19:30.999Z</time></trkpt><trkpt lat="49.32083013016007" lon="-0.7411657766034833"><ele>21.333333333333332</ele><time>2026-04-26T12:19:33.999Z</time></trkpt><trkpt lat="49.320796159263395" lon="-0.7412693437296042"><ele>21.0</ele><time>2026-04-26T12:19:36.999Z</time></trkpt><trkpt lat="49.32076466517591" lon="-0.7413703349079029"><ele>21.0</ele><time>2026-04-26T12:19:39.999Z</time></trkpt><trkpt lat="49.32073013427909" lon="-0.7414769316539215"><ele>21.0</ele><time>2026-04-26T12:19:42.999Z</time></trkpt><trkpt lat="49.320695142250415" lon="-0.7415875100754447"><ele>21.0</ele><time>2026-04-26T12:19:45.999Z</time></trkpt><trkpt lat="49.320656147756" lon="-0.7417009908209912"><ele>21.0</ele><time>2026-04-26T12:19:48.999Z</time></trkpt><trkpt lat="49.32061950143258" lon="-0.7418209986092531"><ele>21.0</ele><time>2026-04-26T12:19:51.999Z</time></trkpt><trkpt lat="49.320579523540424" lon="-0.7419431481679115"><ele>21.0</ele><time>2026-04-26T12:19:54.999Z</time></trkpt><trkpt lat="49.3205336414418" lon="-0.7420534722956974"><ele>21.142857142857142</ele><time>2026-04-26T12:19:58Z</time></trkpt><trkpt lat="49.3204887097934" lon="-0.7421562191271882"><ele>21.285714285714285</ele><time>2026-04-26T12:20:01Z</time></trkpt><trkpt lat="49.32043815689964" lon="-0.7422470656593122"><ele>21.42857142857143</ele><time>2026-04-26T12:20:04Z</time></trkpt><trkpt lat="49.3203870168349" lon="-0.7423220334582821"><ele>21.57142857142857</ele><time>2026-04-26T12:20:07Z</time></trkpt><trkpt lat="49.32033117265734" lon="-0.7423903469810703"><ele>21.714285714285715</ele><time>2026-04-26T12:20:10Z</time></trkpt><trkpt lat="49.320270954565544" lon="-0.7424692731139594"><ele>21.857142857142858</ele><time>2026-04-26T12:20:13Z</time></trkpt><trkpt lat="49.32021772344427" lon="-0.7425380427058298"><ele>22.0</ele><time>2026-04-26T12:20:16Z</time></trkpt><trkpt lat="49.320151241225666" lon="-0.7426071755615961"><ele>22.0</ele><time>2026-04-26T12:20:19Z</time></trkpt><trkpt lat="49.320104217945264" lon="-0.7426729253285266"><ele>22.0</ele><time>2026-04-26T12:20:22Z</time></trkpt><trkpt lat="49.32005143017181" lon="-0.7427370257881352"><ele>22.0</ele><time>2026-04-26T12:20:25Z</time></trkpt><trkpt lat="49.31999415568428" lon="-0.7428132378145152"><ele>22.0</ele><time>2026-04-26T12:20:28Z</time></trkpt><trkpt lat="49.31993077662679" lon="-0.7428774661366305"><ele>22.0</ele><time>2026-04-26T12:20:31Z</time></trkpt><trkpt lat="49.319877497757524" lon="-0.7429425681990277"><ele>22.0</ele><time>2026-04-26T12:20:34Z</time></trkpt><trkpt lat="49.319823538982284" lon="-0.7430165021317096"><ele>22.0</ele><time>2026-04-26T12:20:37Z</time></trkpt><trkpt lat="49.31976930594753" lon="-0.7430875568774467"><ele>21.833333333333332</ele><time>2026-04-26T12:20:40Z</time></trkpt><trkpt lat="49.319711846842104" lon="-0.7431642743564448"><ele>21.666666666666664</ele><time>2026-04-26T12:20:43Z</time></trkpt><trkpt lat="49.319651197123186" lon="-0.7432365385451352"><ele>21.5</ele><time>2026-04-26T12:20:46Z</time></trkpt><trkpt lat="49.31959074828344" lon="-0.7433164270089414"><ele>21.333333333333332</ele><time>2026-04-26T12:20:49Z</time></trkpt><trkpt lat="49.319538973274945" lon="-0.7433991455163872"><ele>21.166666666666668</ele><time>2026-04-26T12:20:52Z</time></trkpt><trkpt lat="49.31948182199292" lon="-0.7434817914431807"><ele>21.0</ele><time>2026-04-26T12:20:55Z</time></trkpt><trkpt lat="49.31943014137169" lon="-0.7435726927656571"><ele>21.0</ele><time>2026-04-26T12:20:58Z</time></trkpt><trkpt lat="49.31938121300789" lon="-0.743640808645784"><ele>21.0</ele><time>2026-04-26T12:21:00Z</time></trkpt><trkpt lat="49.319324296146384" lon="-0.7437378630726589"><ele>21.0</ele><time>2026-04-26T12:21:03Z</time></trkpt><trkpt lat="49.319264007323" lon="-0.7438236375248883"><ele>21.0</ele><time>2026-04-26T12:21:06Z</time></trkpt><trkpt lat="49.31920889108447" lon="-0.7439168215347893"><ele>21.0</ele><time>2026-04-26T12:21:09Z</time></trkpt><trkpt lat="49.31914798323236" lon="-0.7440179599717718"><ele>21.0</ele><time>2026-04-26T12:21:12Z</time></trkpt><trkpt lat="49.319077098279315" lon="-0.7441147203131855"><ele>21.0</ele><time>2026-04-26T12:21:15Z</time></trkpt><trkpt lat="49.31902959922625" lon="-0.7441906219392438"><ele>21.0</ele><time>2026-04-26T12:21:17Z</time></trkpt><trkpt lat="49.318980549217144" lon="-0.7442641094789321"><ele>21.0</ele><time>2026-04-26T12:21:19Z</time></trkpt><trkpt lat="49.31893761417291" lon="-0.7443575638539784"><ele>21.0</ele><time>2026-04-26T12:21:21Z</time></trkpt><trkpt lat="49.318881603191265" lon="-0.7444402335244993"><ele>21.0</ele><time>2026-04-26T12:21:23Z</time></trkpt><trkpt lat="49.318823010638134" lon="-0.7445231106132503"><ele>21.0</ele><time>2026-04-26T12:21:25Z</time></trkpt><trkpt lat="49.31876878581621" lon="-0.744617771950448"><ele>21.166666666666668</ele><time>2026-04-26T12:21:27Z</time></trkpt><trkpt lat="49.318711979121275" lon="-0.7447132818685961"><ele>21.333333333333332</ele><time>2026-04-26T12:21:29Z</time></trkpt><trkpt lat="49.31865340882916" lon="-0.7447896864089809"><ele>21.5</ele><time>2026-04-26T12:21:31Z</time></trkpt><trkpt lat="49.31860405654683" lon="-0.7448922801187505"><ele>21.666666666666664</ele><time>2026-04-26T12:21:33Z</time></trkpt><trkpt lat="49.31854404328272" lon="-0.7449734870882313"><ele>21.833333333333332</ele><time>2026-04-26T12:21:35Z</time></trkpt><trkpt lat="49.31849401360935" lon="-0.7450696523489434"><ele>22.0</ele><time>2026-04-26T12:21:36.999Z</time></trkpt><trkpt lat="49.31843419995442" lon="-0.7451375308219728"><ele>22.142857142857142</ele><time>2026-04-26T12:21:38.999Z</time></trkpt><trkpt lat="49.31838651561647" lon="-0.7452305126155034"><ele>22.285714285714285</ele><time>2026-04-26T12:21:40.999Z</time></trkpt><trkpt lat="49.318336251867876" lon="-0.7453097964440224"><ele>22.42857142857143</ele><time>2026-04-26T12:21:42.999Z</time></trkpt><trkpt lat="49.31829419239918" lon="-0.7453917350574886"><ele>22.57142857142857</ele><time>2026-04-26T12:21:44.999Z</time></trkpt><trkpt lat="49.31822697908915" lon="-0.7454235068747377"><ele>22.71428571428571</ele><time>2026-04-26T12:22:04Z</time></trkpt><trkpt lat="49.31816052170133" lon="-0.7454284371832188"><ele>22.857142857142858</ele><time>2026-04-26T12:22:07Z</time></trkpt><trkpt lat="49.31809443651285" lon="-0.7454337367973309"><ele>23.0</ele><time>2026-04-26T12:22:10Z</time></trkpt><trkpt lat="49.31802938205459" lon="-0.7454498922701085"><ele>23.0</ele><time>2026-04-26T12:25:27.001Z</time></trkpt><trkpt lat="49.31798085501194" lon="-0.7453696910577681"><ele>23.0</ele><time>2026-04-26T12:25:31.001Z</time></trkpt><trkpt lat="49.317916824206" lon="-0.745317311324807"><ele>23.0</ele><time>2026-04-26T12:25:35.001Z</time></trkpt><trkpt lat="49.31785970326974" lon="-0.745265141178594"><ele>23.0</ele><time>2026-04-26T12:25:38.001Z</time></trkpt><trkpt lat="49.31780801861852" lon="-0.7451919731586237"><ele>23.0</ele><time>2026-04-26T12:25:43.001Z</time></trkpt><trkpt lat="49.3177639143723" lon="-0.7451117627917166"><ele>23.0</ele><time>2026-04-26T12:25:46.001Z</time></trkpt><trkpt lat="49.31772194588993" lon="-0.7450151024383205"><ele>23.0</ele><time>2026-04-26T12:25:49Z</time></trkpt><trkpt lat="49.31769686689168" lon="-0.7448979234475958"><ele>23.0</ele><time>2026-04-26T12:25:53Z</time></trkpt><trkpt lat="49.31762441912927" lon="-0.7448345104459398"><ele>23.0</ele><time>2026-04-26T12:25:57Z</time></trkpt><trkpt lat="49.31757674291672" lon="-0.7447545150294278"><ele>23.0</ele><time>2026-04-26T12:26:00Z</time></trkpt><trkpt lat="49.31750293509739" lon="-0.74469219232712"><ele>23.0</ele><time>2026-04-26T12:26:33Z</time></trkpt><trkpt lat="49.317443311667475" lon="-0.7445927537464885"><ele>23.0</ele><time>2026-04-26T12:26:36Z</time></trkpt><trkpt lat="49.31737367164067" lon="-0.7445235007660432"><ele>23.0</ele><time>2026-04-26T12:26:39Z</time></trkpt><trkpt lat="49.31731191606523" lon="-0.7444414615956663"><ele>23.0</ele><time>2026-04-26T12:26:41Z</time></trkpt><trkpt lat="49.317257135673096" lon="-0.744385536676931"><ele>23.0</ele><time>2026-04-26T12:26:43Z</time></trkpt><trkpt lat="49.31720499891972" lon="-0.74431456125649"><ele>23.0</ele><time>2026-04-26T12:26:46Z</time></trkpt><trkpt lat="49.31715738792385" lon="-0.7442507525667426"><ele>23.0</ele><time>2026-04-26T12:26:50.001Z</time></trkpt><trkpt lat="49.31709585799743" lon="-0.7441872701777971"><ele>23.0</ele><time>2026-04-26T12:27:13.001Z</time></trkpt><trkpt lat="49.31704630650317" lon="-0.744113136957837"><ele>23.0</ele><time>2026-04-26T12:27:21.001Z</time></trkpt><trkpt lat="49.317001559078385" lon="-0.7440426677363469"><ele>23.0</ele><time>2026-04-26T12:27:26.001Z</time></trkpt><trkpt lat="49.31695204796101" lon="-0.7439726107440032"><ele>23.28571428571429</ele><time>2026-04-26T12:27:31.001Z</time></trkpt><trkpt lat="49.31690403939475" lon="-0.7439075999184273"><ele>23.57142857142857</ele><time>2026-04-26T12:27:36.001Z</time></trkpt><trkpt lat="49.31685647740867" lon="-0.743842009433241"><ele>23.857142857142858</ele><time>2026-04-26T12:27:42.001Z</time></trkpt><trkpt lat="49.31679131840651" lon="-0.7437821360670989"><ele>24.142857142857146</ele><time>2026-04-26T12:27:48.001Z</time></trkpt><trkpt lat="49.31673298202828" lon="-0.7437025153591297"><ele>24.42857142857143</ele><time>2026-04-26T12:27:54.001Z</time></trkpt><trkpt lat="49.31667629595691" lon="-0.7436523444054476"><ele>24.714285714285715</ele><time>2026-04-26T12:27:57.999Z</time></trkpt><trkpt lat="49.31662000595418" lon="-0.7435671167038398"><ele>25.0</ele><time>2026-04-26T12:28:01.999Z</time></trkpt><trkpt lat="49.31655696717579" lon="-0.7434929780177152"><ele>25.000000000000004</ele><time>2026-04-26T12:28:06Z</time></trkpt><trkpt lat="49.31649848221431" lon="-0.7434372482865514"><ele>25.0</ele><time>2026-04-26T12:28:10Z</time></trkpt><trkpt lat="49.316433651751254" lon="-0.7434201986713923"><ele>25.0</ele><time>2026-04-26T12:28:14Z</time></trkpt><trkpt lat="49.316391727397445" lon="-0.7435040403470077"><ele>25.0</ele><time>2026-04-26T12:28:18Z</time></trkpt><trkpt lat="49.31636072421243" lon="-0.7436071320855739"><ele>25.0</ele><time>2026-04-26T12:28:37Z</time></trkpt><trkpt lat="49.31634083743823" lon="-0.7437062284596444"><ele>25.000000000000004</ele><time>2026-04-26T12:28:40Z</time></trkpt><trkpt lat="49.316315246986484" lon="-0.7438097447325988"><ele>25.0</ele><time>2026-04-26T12:28:44Z</time></trkpt><trkpt lat="49.31629398138414" lon="-0.7439343291632542"><ele>25.000000000000004</ele><time>2026-04-26T12:28:48Z</time></trkpt><trkpt lat="49.316268731736486" lon="-0.7440462187518682"><ele>25.0</ele><time>2026-04-26T12:28:51Z</time></trkpt><trkpt lat="49.31623443202364" lon="-0.7441510574285678"><ele>25.0</ele><time>2026-04-26T12:28:53Z</time></trkpt><trkpt lat="49.31620027903393" lon="-0.7442980734774873"><ele>25.0</ele><time>2026-04-26T12:28:55Z</time></trkpt><trkpt lat="49.316172182222545" lon="-0.7444305144817729"><ele>25.000000000000004</ele><time>2026-04-26T12:28:57Z</time></trkpt><trkpt lat="49.31612975661147" lon="-0.7445225032768432"><ele>25.0</ele><time>2026-04-26T12:29:00Z</time></trkpt><trkpt lat="49.31606706739795" lon="-0.7445045759156785"><ele>25.000000000000004</ele><time>2026-04-26T12:29:46.001Z</time></trkpt><trkpt lat="49.316004521402256" lon="-0.7444349528185005"><ele>25.0</ele><time>2026-04-26T12:29:49.001Z</time></trkpt><trkpt lat="49.315922800672965" lon="-0.7443826833297923"><ele>25.0</ele><time>2026-04-26T12:29:52.001Z</time></trkpt><trkpt lat="49.315865923827495" lon="-0.7443394865585587"><ele>25.0</ele><time>2026-04-26T12:29:54.001Z</time></trkpt><trkpt lat="49.315805858058496" lon="-0.7442843108207194"><ele>25.000000000000004</ele><time>2026-04-26T12:29:56.001Z</time></trkpt><trkpt lat="49.31573468295061" lon="-0.7442265295524664"><ele>25.0</ele><time>2026-04-26T12:29:58.001Z</time></trkpt><trkpt lat="49.315671448433754" lon="-0.7441796943439497"><ele>25.000000000000004</ele><time>2026-04-26T12:30:00.001Z</time></trkpt><trkpt lat="49.31560014190546" lon="-0.7441155633763178"><ele>25.0</ele><time>2026-04-26T12:30:01.999Z</time></trkpt><trkpt lat="49.31552443405887" lon="-0.7440619134197998"><ele>25.0</ele><time>2026-04-26T12:30:03.999Z</time></trkpt><trkpt lat="49.31545814513273" lon="-0.7440030649066586"><ele>25.0</ele><time>2026-04-26T12:30:05.999Z</time></trkpt><trkpt lat="49.31539804502202" lon="-0.7439482350996113"><ele>25.000000000000004</ele><time>2026-04-26T12:30:07.999Z</time></trkpt><trkpt lat="49.31533397137958" lon="-0.7438876982652844"><ele>25.0</ele><time>2026-04-26T12:30:09.999Z</time></trkpt><trkpt lat="49.31526744377058" lon="-0.7438307476846265"><ele>25.142857142857146</ele><time>2026-04-26T12:30:11.999Z</time></trkpt><trkpt lat="49.315206940032944" lon="-0.7437795434796761"><ele>25.285714285714285</ele><time>2026-04-26T12:30:13.999Z</time></trkpt><trkpt lat="49.31514750976581" lon="-0.7437384986497322"><ele>25.42857142857143</ele><time>2026-04-26T12:30:15.999Z</time></trkpt><trkpt lat="49.31507780779423" lon="-0.7436764948973915"><ele>25.571428571428573</ele><time>2026-04-26T12:30:18Z</time></trkpt><trkpt lat="49.31505537977101" lon="-0.7435666410442223"><ele>25.714285714285715</ele><time>2026-04-26T12:30:20Z</time></trkpt><trkpt lat="49.315067807889925" lon="-0.7434686970705686"><ele>25.857142857142858</ele><time>2026-04-26T12:30:23Z</time></trkpt><trkpt lat="49.31508957239056" lon="-0.743371387336553"><ele>26.0</ele><time>2026-04-26T12:30:41Z</time></trkpt><trkpt lat="49.31509955847805" lon="-0.7432755874958795"><ele>26.0</ele><time>2026-04-26T12:30:45Z</time></trkpt><trkpt lat="49.31511667066661" lon="-0.7431711653095822"><ele>26.0</ele><time>2026-04-26T12:30:52Z</time></trkpt><trkpt lat="49.31514737020031" lon="-0.7430741141031436"><ele>26.0</ele><time>2026-04-26T12:30:58Z</time></trkpt><trkpt lat="49.31514817581864" lon="-0.7429544563406743"><ele>26.0</ele><time>2026-04-26T12:31:05.001Z</time></trkpt><trkpt lat="49.31516262832026" lon="-0.7428588066678761"><ele>26.0</ele><time>2026-04-26T12:31:10.001Z</time></trkpt><trkpt lat="49.315174219143884" lon="-0.7427606867650461"><ele>26.0</ele><time>2026-04-26T12:31:17.001Z</time></trkpt><trkpt lat="49.31518339206091" lon="-0.7426443052161208"><ele>26.0</ele><time>2026-04-26T12:31:24.001Z</time></trkpt><trkpt lat="49.31519762023308" lon="-0.7425329503829514"><ele>26.142857142857142</ele><time>2026-04-26T12:31:29.001Z</time></trkpt><trkpt lat="49.31521657250145" lon="-0.7424215770766928"><ele>26.28571428571429</ele><time>2026-04-26T12:31:34.001Z</time></trkpt><trkpt lat="49.315220947787395" lon="-0.7423241793828116"><ele>26.42857142857143</ele><time>2026-04-26T12:31:38.001Z</time></trkpt><trkpt lat="49.31522694992048" lon="-0.7422126476295505"><ele>26.57142857142857</ele><time>2026-04-26T12:31:41.001Z</time></trkpt><trkpt lat="49.31517838472839" lon="-0.7421052875993848"><ele>26.714285714285715</ele><time>2026-04-26T12:31:44.001Z</time></trkpt><trkpt lat="49.315111130784544" lon="-0.7420676452768806"><ele>26.857142857142858</ele><time>2026-04-26T12:31:46.001Z</time></trkpt><trkpt lat="49.31504037857677" lon="-0.7420471108213212"><ele>27.0</ele><time>2026-04-26T12:31:48.001Z</time></trkpt><trkpt lat="49.31497364277964" lon="-0.7420133464000024"><ele>27.0</ele><time>2026-04-26T12:31:50.001Z</time></trkpt><trkpt lat="49.314902822030646" lon="-0.7419749815358584"><ele>27.0</ele><time>2026-04-26T12:31:55.001Z</time></trkpt><trkpt lat="49.314821823185646" lon="-0.7419480651755032"><ele>27.0</ele><time>2026-04-26T12:32:00.001Z</time></trkpt><trkpt lat="49.314760224873744" lon="-0.7419184316933609"><ele>27.0</ele><time>2026-04-26T12:32:04.002Z</time></trkpt><trkpt lat="49.31469257892628" lon="-0.7418877264392241"><ele>27.0</ele><time>2026-04-26T12:32:07.999Z</time></trkpt><trkpt lat="49.31462189620671" lon="-0.7418845130401257"><ele>27.0</ele><time>2026-04-26T12:32:11.999Z</time></trkpt><trkpt lat="49.31455751947713" lon="-0.7418622884018127"><ele>27.0</ele><time>2026-04-26T12:32:15Z</time></trkpt><trkpt lat="49.314489500577665" lon="-0.7418378939124227"><ele>27.5</ele><time>2026-04-26T12:32:19Z</time></trkpt><trkpt lat="49.31440814407073" lon="-0.7418283931131637"><ele>28.0</ele><time>2026-04-26T12:32:23Z</time></trkpt><trkpt lat="49.31433197681056" lon="-0.7417899499993589"><ele>28.5</ele><time>2026-04-26T12:32:26Z</time></trkpt><trkpt lat="49.3142535671024" lon="-0.7417579755791573"><ele>29.0</ele><time>2026-04-26T12:32:30Z</time></trkpt><trkpt lat="49.31419095288007" lon="-0.7417478933729933"><ele>29.5</ele><time>2026-04-26T12:33:08.001Z</time></trkpt><trkpt lat="49.31410034973682" lon="-0.7417134147915379"><ele>30.0</ele><time>2026-04-26T12:33:11.001Z</time></trkpt><trkpt lat="49.31400602120559" lon="-0.741683818939095"><ele>29.4</ele><time>2026-04-26T12:33:13.001Z</time></trkpt><trkpt lat="49.313895599814124" lon="-0.7416439126614857"><ele>28.8</ele><time>2026-04-26T12:33:15.001Z</time></trkpt><trkpt lat="49.31378960731827" lon="-0.7415968427523851"><ele>28.200000000000003</ele><time>2026-04-26T12:33:17.001Z</time></trkpt><trkpt lat="49.313695474822104" lon="-0.7415584019519936"><ele>27.6</ele><time>2026-04-26T12:33:19.001Z</time></trkpt><trkpt lat="49.313617582118574" lon="-0.7415357185097293"><ele>27.0</ele><time>2026-04-26T12:33:21.001Z</time></trkpt><trkpt lat="49.31354829995735" lon="-0.74154211114046"><ele>27.0</ele><time>2026-04-26T12:33:24.001Z</time></trkpt><trkpt lat="49.31346806104759" lon="-0.7414776051007044"><ele>27.0</ele><time>2026-04-26T12:33:27.001Z</time></trkpt><trkpt lat="49.3133891953841" lon="-0.7414534609742802"><ele>27.0</ele><time>2026-04-26T12:33:29.001Z</time></trkpt><trkpt lat="49.31331126819579" lon="-0.74143394155026"><ele>27.0</ele><time>2026-04-26T12:33:31.001Z</time></trkpt><trkpt lat="49.31322992185007" lon="-0.7414261960598666"><ele>27.0</ele><time>2026-04-26T12:33:33.001Z</time></trkpt><trkpt lat="49.31313581917791" lon="-0.7414615021762346"><ele>27.0</ele><time>2026-04-26T12:33:35.001Z</time></trkpt><trkpt lat="49.31303800073935" lon="-0.7415148681895298"><ele>26.285714285714285</ele><time>2026-04-26T12:33:37.001Z</time></trkpt><trkpt lat="49.31297425611045" lon="-0.7415401413229072"><ele>25.57142857142857</ele><time>2026-04-26T12:33:38.001Z</time></trkpt><trkpt lat="49.31292511776696" lon="-0.74160558244162"><ele>24.857142857142858</ele><time>2026-04-26T12:33:39.001Z</time></trkpt><trkpt lat="49.31289140755439" lon="-0.7417018590918293"><ele>24.142857142857142</ele><time>2026-04-26T12:33:40.001Z</time></trkpt><trkpt lat="49.31287140377169" lon="-0.7417949914096458"><ele>23.428571428571427</ele><time>2026-04-26T12:33:41.001Z</time></trkpt><trkpt lat="49.312849357542646" lon="-0.7418865695723736"><ele>22.714285714285715</ele><time>2026-04-26T12:33:42.001Z</time></trkpt><trkpt lat="49.31280309023289" lon="-0.7420176313734017"><ele>22.0</ele><time>2026-04-26T12:33:44.001Z</time></trkpt><trkpt lat="49.31275259640217" lon="-0.7420894627600003"><ele>22.0</ele><time>2026-04-26T12:33:46.001Z</time></trkpt><trkpt lat="49.31267912007033" lon="-0.7420689049528597"><ele>22.0</ele><time>2026-04-26T12:34:04.002Z</time></trkpt><trkpt lat="49.31260395724395" lon="-0.741997970123129"><ele>22.0</ele><time>2026-04-26T12:34:07.002Z</time></trkpt><trkpt lat="49.312539709508286" lon="-0.7419154575302339"><ele>22.0</ele><time>2026-04-26T12:34:09.002Z</time></trkpt><trkpt lat="49.31247606108115" lon="-0.7418086589530126"><ele>22.0</ele><time>2026-04-26T12:34:11.002Z</time></trkpt><trkpt lat="49.31241147413701" lon="-0.7417063822234627"><ele>22.0</ele><time>2026-04-26T12:34:13Z</time></trkpt><trkpt lat="49.3123503453112" lon="-0.7416138596851994"><ele>22.0</ele><time>2026-04-26T12:34:15Z</time></trkpt><trkpt lat="49.31229941711251" lon="-0.7415267643152198"><ele>22.0</ele><time>2026-04-26T12:34:17Z</time></trkpt><trkpt lat="49.31223896760084" lon="-0.7414486519433975"><ele>22.0</ele><time>2026-04-26T12:34:19Z</time></trkpt><trkpt lat="49.31217124662646" lon="-0.7413732917623088"><ele>22.0</ele><time>2026-04-26T12:34:21Z</time></trkpt><trkpt lat="49.312106483939864" lon="-0.7413069219502347"><ele>22.0</ele><time>2026-04-26T12:34:23Z</time></trkpt><trkpt lat="49.31205079700255" lon="-0.7412584962265427"><ele>22.0</ele><time>2026-04-26T12:34:25Z</time></trkpt><trkpt lat="49.31198275415783" lon="-0.7412155655551744"><ele>21.857142857142858</ele><time>2026-04-26T12:34:27Z</time></trkpt><trkpt lat="49.31191424140343" lon="-0.7411727759129959"><ele>21.714285714285715</ele><time>2026-04-26T12:34:29Z</time></trkpt><trkpt lat="49.31184431169577" lon="-0.741138576359068"><ele>21.57142857142857</ele><time>2026-04-26T12:34:31Z</time></trkpt><trkpt lat="49.31177990061318" lon="-0.7411059656814185"><ele>21.42857142857143</ele><time>2026-04-26T12:34:33Z</time></trkpt><trkpt lat="49.31171353337534" lon="-0.7410881385617379"><ele>21.285714285714285</ele><time>2026-04-26T12:34:35Z</time></trkpt><trkpt lat="49.311629747519554" lon="-0.741064785663661"><ele>21.142857142857142</ele><time>2026-04-26T12:34:38Z</time></trkpt><trkpt lat="49.31156386949733" lon="-0.7410612108004268"><ele>21.0</ele><time>2026-04-26T12:34:41Z</time></trkpt><trkpt lat="49.311492451263476" lon="-0.7410691517631266"><ele>21.0</ele><time>2026-04-26T12:36:04.002Z</time></trkpt><trkpt lat="49.31142095164815" lon="-0.7410714188372028"><ele>21.0</ele><time>2026-04-26T12:36:08.002Z</time></trkpt><trkpt lat="49.31135379887834" lon="-0.7410770055629494"><ele>21.0</ele><time>2026-04-26T12:36:12.002Z</time></trkpt><trkpt lat="49.31128092840529" lon="-0.7410791891058464"><ele>21.0</ele><time>2026-04-26T12:36:15.002Z</time></trkpt><trkpt lat="49.311202307321075" lon="-0.7411044077934822"><ele>21.0</ele><time>2026-04-26T12:36:18.002Z</time></trkpt><trkpt lat="49.3111179295096" lon="-0.7411082829044138"><ele>21.0</ele><time>2026-04-26T12:36:20.999Z</time></trkpt><trkpt lat="49.31104005882631" lon="-0.7411240492327825"><ele>21.5</ele><time>2026-04-26T12:36:23.999Z</time></trkpt><trkpt lat="49.310973937169976" lon="-0.7411313173953435"><ele>22.0</ele><time>2026-04-26T12:36:26.999Z</time></trkpt><trkpt lat="49.31090333857449" lon="-0.7411237159997944"><ele>22.5</ele><time>2026-04-26T12:36:29.999Z</time></trkpt><trkpt lat="49.31083056079831" lon="-0.7411297241952373"><ele>23.0</ele><time>2026-04-26T12:36:32.999Z</time></trkpt><trkpt lat="49.31075259779761" lon="-0.7411298298167345"><ele>23.5</ele><time>2026-04-26T12:36:36.999Z</time></trkpt><trkpt lat="49.31067067348064" lon="-0.7411322570941826"><ele>24.0</ele><time>2026-04-26T12:36:41Z</time></trkpt><trkpt lat="49.31058684841073" lon="-0.7411275384254825"><ele>23.71428571428571</ele><time>2026-04-26T12:36:45Z</time></trkpt><trkpt lat="49.31050799379272" lon="-0.7411278397859304"><ele>23.428571428571427</ele><time>2026-04-26T12:36:50Z</time></trkpt><trkpt lat="49.310438813783776" lon="-0.7411176456295364"><ele>23.142857142857142</ele><time>2026-04-26T12:36:54Z</time></trkpt><trkpt lat="49.3103702879416" lon="-0.7411237056239481"><ele>22.857142857142854</ele><time>2026-04-26T12:36:59Z</time></trkpt><trkpt lat="49.310301669276406" lon="-0.7411201382850975"><ele>22.57142857142857</ele><time>2026-04-26T12:37:02Z</time></trkpt><trkpt lat="49.31023777675926" lon="-0.7411268899580258"><ele>22.285714285714285</ele><time>2026-04-26T12:37:05Z</time></trkpt><trkpt lat="49.310164812879535" lon="-0.7411283314762273"><ele>22.0</ele><time>2026-04-26T12:37:21.001Z</time></trkpt><trkpt lat="49.310101539139175" lon="-0.7411356369987351"><ele>22.0</ele><time>2026-04-26T12:37:25.001Z</time></trkpt><trkpt lat="49.31001497410539" lon="-0.7411443671812828"><ele>22.0</ele><time>2026-04-26T12:37:31.001Z</time></trkpt><trkpt lat="49.30992595089931" lon="-0.7411443124024816"><ele>22.0</ele><time>2026-04-26T12:37:34.001Z</time></trkpt><trkpt lat="49.30984000106203" lon="-0.7411471632170663"><ele>22.0</ele><time>2026-04-26T12:37:36.001Z</time></trkpt><trkpt lat="49.309773991938215" lon="-0.741155162483061"><ele>22.0</ele><time>2026-04-26T12:37:38.001Z</time></trkpt><trkpt lat="49.30970338044569" lon="-0.7411520909018859"><ele>22.0</ele><time>2026-04-26T12:37:40.001Z</time></trkpt><trkpt lat="49.309638548544434" lon="-0.7411488814179422"><ele>22.666666666666664</ele><time>2026-04-26T12:37:42.001Z</time></trkpt><trkpt lat="49.30956748940869" lon="-0.7411673944914402"><ele>23.333333333333332</ele><time>2026-04-26T12:37:44.001Z</time></trkpt><trkpt lat="49.30948141726617" lon="-0.741174210991501"><ele>24.0</ele><time>2026-04-26T12:37:46.001Z</time></trkpt><trkpt lat="49.30939983141878" lon="-0.741181464349168"><ele>24.666666666666664</ele><time>2026-04-26T12:37:48.001Z</time></trkpt><trkpt lat="49.30927693168785" lon="-0.7411548789671496"><ele>25.333333333333332</ele><time>2026-04-26T12:37:50.001Z</time></trkpt><trkpt lat="49.309201750571674" lon="-0.741116640776483"><ele>26.0</ele><time>2026-04-26T12:37:51.001Z</time></trkpt><trkpt lat="49.30913774872123" lon="-0.7410908501566134"><ele>25.999999999999996</ele><time>2026-04-26T12:37:52.001Z</time></trkpt><trkpt lat="49.30907444545208" lon="-0.7410652101450175"><ele>26.0</ele><time>2026-04-26T12:37:53.001Z</time></trkpt><trkpt lat="49.308998214575965" lon="-0.7410209150753178"><ele>26.0</ele><time>2026-04-26T12:37:55.001Z</time></trkpt><trkpt lat="49.30891759438685" lon="-0.7409684103511361"><ele>26.0</ele><time>2026-04-26T12:37:58.001Z</time></trkpt><trkpt lat="49.30885472579371" lon="-0.7409228102400236"><ele>25.999999999999996</ele><time>2026-04-26T12:38:01.002Z</time></trkpt><trkpt lat="49.30878087093042" lon="-0.7408801608318971"><ele>26.0</ele><time>2026-04-26T12:38:37Z</time></trkpt><trkpt lat="49.30870861539595" lon="-0.7408284604853667"><ele>26.666666666666664</ele><time>2026-04-26T12:38:41Z</time></trkpt><trkpt lat="49.30863086282763" lon="-0.7407948504883488"><ele>27.333333333333332</ele><time>2026-04-26T12:38:45Z</time></trkpt><trkpt lat="49.30856895104713" lon="-0.7407636517871244"><ele>28.0</ele><time>2026-04-26T12:38:48Z</time></trkpt><trkpt lat="49.308498083824745" lon="-0.7407315513296026"><ele>28.666666666666664</ele><time>2026-04-26T12:38:51Z</time></trkpt><trkpt lat="49.3084254293999" lon="-0.7407009524195128"><ele>29.333333333333332</ele><time>2026-04-26T12:38:54Z</time></trkpt><trkpt lat="49.3083465897743" lon="-0.740676891661158"><ele>30.0</ele><time>2026-04-26T12:38:57Z</time></trkpt><trkpt lat="49.3082686120612" lon="-0.7406476833345808"><ele>30.0</ele><time>2026-04-26T12:39:00Z</time></trkpt><trkpt lat="49.308201092638576" lon="-0.7406154067775594"><ele>30.0</ele><time>2026-04-26T12:39:03Z</time></trkpt><trkpt lat="49.30811686997381" lon="-0.7405896051402676"><ele>30.0</ele><time>2026-04-26T12:39:06.001Z</time></trkpt><trkpt lat="49.30805477587841" lon="-0.7405647652747825"><ele>30.0</ele><time>2026-04-26T12:39:09.001Z</time></trkpt><trkpt lat="49.30799089622423" lon="-0.7405524297987269"><ele>30.0</ele><time>2026-04-26T12:39:12.001Z</time></trkpt><trkpt lat="49.307924306481326" lon="-0.7404884559494713"><ele>30.0</ele><time>2026-04-26T12:39:16.001Z</time></trkpt><trkpt lat="49.307856259764414" lon="-0.7404631188272884"><ele>30.0</ele><time>2026-04-26T12:40:05.002Z</time></trkpt><trkpt lat="49.30777038532261" lon="-0.7404393078374168"><ele>30.0</ele><time>2026-04-26T12:40:10.002Z</time></trkpt><trkpt lat="49.307701949683064" lon="-0.740398160508066"><ele>30.0</ele><time>2026-04-26T12:40:13.002Z</time></trkpt><trkpt lat="49.307613808691606" lon="-0.7403719367524985"><ele>30.0</ele><time>2026-04-26T12:40:16.002Z</time></trkpt><trkpt lat="49.30754919119171" lon="-0.7403359004769297"><ele>30.0</ele><time>2026-04-26T12:40:18.002Z</time></trkpt><trkpt lat="49.307462937138155" lon="-0.7402906135366806"><ele>30.0</ele><time>2026-04-26T12:40:21.002Z</time></trkpt><trkpt lat="49.30738564367907" lon="-0.7402599751342971"><ele>30.0</ele><time>2026-04-26T12:40:24.002Z</time></trkpt><trkpt lat="49.30731489009281" lon="-0.7402162387482508"><ele>30.5</ele><time>2026-04-26T12:40:27.002Z</time></trkpt><trkpt lat="49.30725280450017" lon="-0.7401802319315097"><ele>31.0</ele><time>2026-04-26T12:40:30.002Z</time></trkpt><trkpt lat="49.307171255314394" lon="-0.7401170425310769"><ele>31.5</ele><time>2026-04-26T12:40:33Z</time></trkpt><trkpt lat="49.30709393256678" lon="-0.7400472718233139"><ele>32.0</ele><time>2026-04-26T12:40:36Z</time></trkpt><trkpt lat="49.3070157717985" lon="-0.7399858126412875"><ele>32.5</ele><time>2026-04-26T12:40:39Z</time></trkpt><trkpt lat="49.30696023726503" lon="-0.7399067273080581"><ele>33.0</ele><time>2026-04-26T12:40:43Z</time></trkpt><trkpt lat="49.306930587282665" lon="-0.7398159999633642"><ele>33.0</ele><time>2026-04-26T12:40:48Z</time></trkpt><trkpt lat="49.30695084159333" lon="-0.7396980101400329"><ele>33.0</ele><time>2026-04-26T12:40:52Z</time></trkpt><trkpt lat="49.30698226277479" lon="-0.739584941016448"><ele>33.0</ele><time>2026-04-26T12:40:56Z</time></trkpt><trkpt lat="49.30700458651463" lon="-0.7394848317576275"><ele>33.0</ele><time>2026-04-26T12:41:00Z</time></trkpt><trkpt lat="49.307023773255395" lon="-0.7393793672368024"><ele>33.0</ele><time>2026-04-26T12:41:04.001Z</time></trkpt><trkpt lat="49.307059310473164" lon="-0.7392629971165323"><ele>33.0</ele><time>2026-04-26T12:41:08.001Z</time></trkpt><trkpt lat="49.30706906928262" lon="-0.7391421869268886"><ele>33.42857142857143</ele><time>2026-04-26T12:41:12.001Z</time></trkpt><trkpt lat="49.30703557315317" lon="-0.7390550640523628"><ele>33.85714285714286</ele><time>2026-04-26T12:41:15.001Z</time></trkpt><trkpt lat="49.306960435138" lon="-0.7390009778640383"><ele>34.28571428571429</ele><time>2026-04-26T12:41:19.001Z</time></trkpt><trkpt lat="49.306892311013804" lon="-0.7389842999814468"><ele>34.714285714285715</ele><time>2026-04-26T12:43:08.001Z</time></trkpt><trkpt lat="49.30683210699648" lon="-0.7389512027630062"><ele>35.142857142857146</ele><time>2026-04-26T12:43:11.001Z</time></trkpt><trkpt lat="49.30676831282182" lon="-0.7389329498769879"><ele>35.57142857142858</ele><time>2026-04-26T12:43:14.001Z</time></trkpt><trkpt lat="49.306702606981595" lon="-0.7389114854847807"><ele>36.0</ele><time>2026-04-26T12:43:18.001Z</time></trkpt><trkpt lat="49.30662792057903" lon="-0.7388604503544391"><ele>36.00000000000001</ele><time>2026-04-26T12:43:22.001Z</time></trkpt><trkpt lat="49.306559577424466" lon="-0.7388387496411859"><ele>36.0</ele><time>2026-04-26T12:43:25.001Z</time></trkpt><trkpt lat="49.3064962363949" lon="-0.738803260788266"><ele>36.0</ele><time>2026-04-26T12:43:28.001Z</time></trkpt><trkpt lat="49.30643012656844" lon="-0.7387709356062423"><ele>36.0</ele><time>2026-04-26T12:43:31.001Z</time></trkpt><trkpt lat="49.30635650558366" lon="-0.7387354514156805"><ele>36.0</ele><time>2026-04-26T12:43:34.001Z</time></trkpt><trkpt lat="49.30627896927922" lon="-0.7386952820678889"><ele>36.00000000000001</ele><time>2026-04-26T12:43:37.001Z</time></trkpt><trkpt lat="49.30620102334472" lon="-0.7386615386103597"><ele>36.0</ele><time>2026-04-26T12:43:40.001Z</time></trkpt><trkpt lat="49.30612125519007" lon="-0.7386190796775247"><ele>36.0</ele><time>2026-04-26T12:43:43.001Z</time></trkpt><trkpt lat="49.30603826416421" lon="-0.7385773852698183"><ele>36.0</ele><time>2026-04-26T12:43:46.001Z</time></trkpt><trkpt lat="49.30596124009874" lon="-0.738539435501099"><ele>36.0</ele><time>2026-04-26T12:43:49.001Z</time></trkpt><trkpt lat="49.30589206182576" lon="-0.7384974855595413"><ele>36.0</ele><time>2026-04-26T12:43:52.001Z</time></trkpt><trkpt lat="49.30581944722625" lon="-0.7384610119495958"><ele>36.0</ele><time>2026-04-26T12:43:55.002Z</time></trkpt><trkpt lat="49.305740837918464" lon="-0.7384087422451837"><ele>36.0</ele><time>2026-04-26T12:43:58.002Z</time></trkpt><trkpt lat="49.305659715471975" lon="-0.7383609285521938"><ele>35.666666666666664</ele><time>2026-04-26T12:44:01.002Z</time></trkpt><trkpt lat="49.30557307347715" lon="-0.738312379330195"><ele>35.333333333333336</ele><time>2026-04-26T12:44:04.002Z</time></trkpt><trkpt lat="49.305515881288144" lon="-0.7382663591081626"><ele>35.0</ele><time>2026-04-26T12:44:06.002Z</time></trkpt><trkpt lat="49.305450222276335" lon="-0.7382280363944828"><ele>34.66666666666667</ele><time>2026-04-26T12:44:08.002Z</time></trkpt><trkpt lat="49.30537921671075" lon="-0.7381830936785482"><ele>34.333333333333336</ele><time>2026-04-26T12:44:10.002Z</time></trkpt><trkpt lat="49.30531246665231" lon="-0.7381317682288676"><ele>34.0</ele><time>2026-04-26T12:44:12.002Z</time></trkpt><trkpt lat="49.30523891437556" lon="-0.7380734798016714"><ele>34.0</ele><time>2026-04-26T12:44:14.002Z</time></trkpt><trkpt lat="49.30515965992713" lon="-0.7380177914480561"><ele>34.0</ele><time>2026-04-26T12:44:16.002Z</time></trkpt><trkpt lat="49.30507247726437" lon="-0.7379612723508977"><ele>34.0</ele><time>2026-04-26T12:44:18.002Z</time></trkpt><trkpt lat="49.30498617654345" lon="-0.7378838063526896"><ele>34.0</ele><time>2026-04-26T12:44:20.002Z</time></trkpt><trkpt lat="49.304893068189145" lon="-0.7378054813427227"><ele>34.0</ele><time>2026-04-26T12:44:22.002Z</time></trkpt><trkpt lat="49.304796241743055" lon="-0.7377183432394238"><ele>33.4</ele><time>2026-04-26T12:44:24.002Z</time></trkpt><trkpt lat="49.30470464547752" lon="-0.7376267094208587"><ele>32.8</ele><time>2026-04-26T12:44:26.002Z</time></trkpt><trkpt lat="49.30460711568584" lon="-0.7375269538172297"><ele>32.2</ele><time>2026-04-26T12:44:28.002Z</time></trkpt><trkpt lat="49.304503107797544" lon="-0.7374175394785557"><ele>31.6</ele><time>2026-04-26T12:44:30.002Z</time></trkpt><trkpt lat="49.30444928606382" lon="-0.737354384511725"><ele>31.0</ele><time>2026-04-26T12:44:31.002Z</time></trkpt><trkpt lat="49.30439085077432" lon="-0.7372966335942528"><ele>31.0</ele><time>2026-04-26T12:44:32.002Z</time></trkpt><trkpt lat="49.30432993637984" lon="-0.7372428577700826"><ele>31.000000000000004</ele><time>2026-04-26T12:44:33.002Z</time></trkpt><trkpt lat="49.30426680595103" lon="-0.7371838451718385"><ele>31.0</ele><time>2026-04-26T12:44:34.002Z</time></trkpt><trkpt lat="49.30420402276447" lon="-0.7371200990530142"><ele>31.0</ele><time>2026-04-26T12:44:35.002Z</time></trkpt><trkpt lat="49.30414464288146" lon="-0.7370529559815696"><ele>31.000000000000004</ele><time>2026-04-26T12:44:36.002Z</time></trkpt><trkpt lat="49.30408495136425" lon="-0.7369806580242068"><ele>31.0</ele><time>2026-04-26T12:44:37.002Z</time></trkpt><trkpt lat="49.30402287711653" lon="-0.7369096191778793"><ele>31.0</ele><time>2026-04-26T12:44:38.002Z</time></trkpt><trkpt lat="49.30395518741091" lon="-0.7368488733948348"><ele>30.500000000000004</ele><time>2026-04-26T12:44:39.002Z</time></trkpt><trkpt lat="49.30388406610537" lon="-0.7367935266308852"><ele>30.0</ele><time>2026-04-26T12:44:40.002Z</time></trkpt><trkpt lat="49.30381956333112" lon="-0.7367297751456509"><ele>29.5</ele><time>2026-04-26T12:44:41.002Z</time></trkpt><trkpt lat="49.30376277082211" lon="-0.7366421350887358"><ele>29.0</ele><time>2026-04-26T12:44:42.002Z</time></trkpt><trkpt lat="49.303699086470225" lon="-0.7365776166040502"><ele>28.500000000000004</ele><time>2026-04-26T12:44:43.001Z</time></trkpt><trkpt lat="49.30363266619963" lon="-0.7365103691756617"><ele>28.0</ele><time>2026-04-26T12:44:44.001Z</time></trkpt><trkpt lat="49.3035659879295" lon="-0.7364470425326128"><ele>28.000000000000004</ele><time>2026-04-26T12:44:45.001Z</time></trkpt><trkpt lat="49.303497614867915" lon="-0.7363802278316218"><ele>28.0</ele><time>2026-04-26T12:44:46.001Z</time></trkpt><trkpt lat="49.30342992616205" lon="-0.7363151731287083"><ele>28.0</ele><time>2026-04-26T12:44:47.001Z</time></trkpt><trkpt lat="49.30336157474765" lon="-0.7362538270339484"><ele>28.0</ele><time>2026-04-26T12:44:48.001Z</time></trkpt><trkpt lat="49.303301324360156" lon="-0.7361941594487371"><ele>28.000000000000004</ele><time>2026-04-26T12:44:49.001Z</time></trkpt><trkpt lat="49.30324013451811" lon="-0.7361331613347689"><ele>28.0</ele><time>2026-04-26T12:44:50.001Z</time></trkpt><trkpt lat="49.30318373139541" lon="-0.7360734260600728"><ele>28.285714285714285</ele><time>2026-04-26T12:44:51.001Z</time></trkpt><trkpt lat="49.30312374399941" lon="-0.7360077455143977"><ele>28.57142857142857</ele><time>2026-04-26T12:44:52Z</time></trkpt><trkpt lat="49.3030691435592" lon="-0.7359463459530465"><ele>28.857142857142858</ele><time>2026-04-26T12:44:53Z</time></trkpt><trkpt lat="49.30301026148785" lon="-0.7358901613545488"><ele>29.142857142857142</ele><time>2026-04-26T12:44:54Z</time></trkpt><trkpt lat="49.302952784247964" lon="-0.7358331790442494"><ele>29.428571428571427</ele><time>2026-04-26T12:44:55Z</time></trkpt><trkpt lat="49.302895458263365" lon="-0.7357749198095999"><ele>29.714285714285715</ele><time>2026-04-26T12:44:56Z</time></trkpt><trkpt lat="49.30283592920796" lon="-0.735712055542825"><ele>30.0</ele><time>2026-04-26T12:44:57Z</time></trkpt><trkpt lat="49.30277821916982" lon="-0.7356505306261162"><ele>30.285714285714285</ele><time>2026-04-26T12:44:58Z</time></trkpt><trkpt lat="49.302717600545236" lon="-0.7355903316821508"><ele>30.57142857142857</ele><time>2026-04-26T12:44:59Z</time></trkpt><trkpt lat="49.30266048544698" lon="-0.7355306100661606"><ele>30.857142857142854</ele><time>2026-04-26T12:45:00Z</time></trkpt><trkpt lat="49.30260468640392" lon="-0.7354641737884453"><ele>31.142857142857142</ele><time>2026-04-26T12:45:01Z</time></trkpt><trkpt lat="49.30254512259239" lon="-0.7354020692066997"><ele>31.428571428571423</ele><time>2026-04-26T12:45:02Z</time></trkpt><trkpt lat="49.30249197809183" lon="-0.7353374045317845"><ele>31.71428571428571</ele><time>2026-04-26T12:45:03Z</time></trkpt><trkpt lat="49.302432728669146" lon="-0.7352782866273931"><ele>32.0</ele><time>2026-04-26T12:45:04.001Z</time></trkpt><trkpt lat="49.302373287713465" lon="-0.7352211192060498"><ele>32.14285714285714</ele><time>2026-04-26T12:45:05.001Z</time></trkpt><trkpt lat="49.302309958377336" lon="-0.7351694068756869"><ele>32.285714285714285</ele><time>2026-04-26T12:45:06.001Z</time></trkpt><trkpt lat="49.30225301187802" lon="-0.7351127510860735"><ele>32.42857142857143</ele><time>2026-04-26T12:45:07.001Z</time></trkpt><trkpt lat="49.302200288891996" lon="-0.7350486160440098"><ele>32.57142857142857</ele><time>2026-04-26T12:45:08.001Z</time></trkpt><trkpt lat="49.30214149440767" lon="-0.734991782412371"><ele>32.714285714285715</ele><time>2026-04-26T12:45:09.001Z</time></trkpt><trkpt lat="49.302088148027956" lon="-0.7349347875442982"><ele>32.857142857142854</ele><time>2026-04-26T12:45:10.001Z</time></trkpt><trkpt lat="49.302031974205725" lon="-0.7348800294479029"><ele>33.0</ele><time>2026-04-26T12:45:11.001Z</time></trkpt><trkpt lat="49.30197875861393" lon="-0.7348252045237584"><ele>33.5</ele><time>2026-04-26T12:45:12.001Z</time></trkpt><trkpt lat="49.30189242656368" lon="-0.7347319199457474"><ele>34.0</ele><time>2026-04-26T12:45:14.001Z</time></trkpt><trkpt lat="49.30180960883074" lon="-0.7346544281065455"><ele>34.5</ele><time>2026-04-26T12:45:16.001Z</time></trkpt><trkpt lat="49.301739061085996" lon="-0.7345827996572302"><ele>35.0</ele><time>2026-04-26T12:45:18.001Z</time></trkpt><trkpt lat="49.30168266936939" lon="-0.7345311241039869"><ele>35.5</ele><time>2026-04-26T12:45:20.001Z</time></trkpt><trkpt lat="49.301625601242534" lon="-0.7344480651181651"><ele>36.0</ele><time>2026-04-26T12:45:23.001Z</time></trkpt><trkpt lat="49.3015593922313" lon="-0.7343793450251209"><ele>36.0</ele><time>2026-04-26T12:45:26.001Z</time></trkpt><trkpt lat="49.30151422356313" lon="-0.7343111005267888"><ele>36.0</ele><time>2026-04-26T12:45:29.001Z</time></trkpt><trkpt lat="49.30145760241102" lon="-0.734263920123238"><ele>36.0</ele><time>2026-04-26T12:45:33.001Z</time></trkpt><trkpt lat="49.30139424827521" lon="-0.734201734366339"><ele>36.0</ele><time>2026-04-26T12:45:37.001Z</time></trkpt><trkpt lat="49.301316967328866" lon="-0.7341225818882874"><ele>36.0</ele><time>2026-04-26T12:45:40.001Z</time></trkpt><trkpt lat="49.30125247292402" lon="-0.734040573941457"><ele>36.0</ele><time>2026-04-26T12:45:43.001Z</time></trkpt><trkpt lat="49.30118103385625" lon="-0.7339719124909042"><ele>36.0</ele><time>2026-04-26T12:45:46.001Z</time></trkpt><trkpt lat="49.30110411596545" lon="-0.7339038800480059"><ele>36.0</ele><time>2026-04-26T12:45:49.001Z</time></trkpt><trkpt lat="49.30102401335888" lon="-0.7338384588622568"><ele>36.0</ele><time>2026-04-26T12:45:52.001Z</time></trkpt><trkpt lat="49.30095219073048" lon="-0.7337587720831859"><ele>36.0</ele><time>2026-04-26T12:45:55.001Z</time></trkpt><trkpt lat="49.30087823093689" lon="-0.7336800863520335"><ele>36.0</ele><time>2026-04-26T12:45:58.001Z</time></trkpt><trkpt lat="49.300755190841876" lon="-0.7335383463225863"><ele>36.333333333333336</ele><time>2026-04-26T12:46:04.002Z</time></trkpt><trkpt lat="49.30068543822507" lon="-0.7334737045247023"><ele>36.666666666666664</ele><time>2026-04-26T12:46:07.002Z</time></trkpt><trkpt lat="49.30061415198719" lon="-0.7334072903293573"><ele>37.0</ele><time>2026-04-26T12:46:10.002Z</time></trkpt><trkpt lat="49.30054002415826" lon="-0.7333340875170143"><ele>37.33333333333333</ele><time>2026-04-26T12:46:13.002Z</time></trkpt><trkpt lat="49.30047178719364" lon="-0.7332626087242154"><ele>37.666666666666664</ele><time>2026-04-26T12:46:16.002Z</time></trkpt><trkpt lat="49.30040915954163" lon="-0.7331812810269172"><ele>38.0</ele><time>2026-04-26T12:46:19.002Z</time></trkpt><trkpt lat="49.30033417699641" lon="-0.7331116176051083"><ele>38.5</ele><time>2026-04-26T12:46:22.002Z</time></trkpt><trkpt lat="49.30026040039926" lon="-0.7330353689572682"><ele>39.0</ele><time>2026-04-26T12:46:25.002Z</time></trkpt><trkpt lat="49.30019184261849" lon="-0.732963112650316"><ele>39.5</ele><time>2026-04-26T12:46:28.002Z</time></trkpt><trkpt lat="49.30011688820113" lon="-0.7328887604534965"><ele>40.0</ele><time>2026-04-26T12:46:31.002Z</time></trkpt><trkpt lat="49.30004016390038" lon="-0.7328153813433578"><ele>40.5</ele><time>2026-04-26T12:46:34.002Z</time></trkpt><trkpt lat="49.29996413296641" lon="-0.732737457035616"><ele>41.0</ele><time>2026-04-26T12:46:37.002Z</time></trkpt><trkpt lat="49.29988940317755" lon="-0.7326601317165226"><ele>41.199999999999996</ele><time>2026-04-26T12:46:40.002Z</time></trkpt><trkpt lat="49.2998177414921" lon="-0.7325897920801309"><ele>41.4</ele><time>2026-04-26T12:46:43.002Z</time></trkpt><trkpt lat="49.299745429718726" lon="-0.7325082492673936"><ele>41.6</ele><time>2026-04-26T12:46:46.002Z</time></trkpt><trkpt lat="49.29966718341926" lon="-0.732434205155657"><ele>41.8</ele><time>2026-04-26T12:46:49Z</time></trkpt><trkpt lat="49.299588849064804" lon="-0.7323546400930768"><ele>42.0</ele><time>2026-04-26T12:46:52Z</time></trkpt><trkpt lat="49.299517875006686" lon="-0.7322726629772887"><ele>41.666666666666664</ele><time>2026-04-26T12:46:55Z</time></trkpt><trkpt lat="49.29944458495409" lon="-0.7321884615606626"><ele>41.333333333333336</ele><time>2026-04-26T12:46:58Z</time></trkpt><trkpt lat="49.29936832963973" lon="-0.7321122204961956"><ele>41.0</ele><time>2026-04-26T12:47:01Z</time></trkpt><trkpt lat="49.29929789884897" lon="-0.7320325282506019"><ele>40.66666666666667</ele><time>2026-04-26T12:47:04Z</time></trkpt><trkpt lat="49.29922036592494" lon="-0.7319584435678664"><ele>40.333333333333336</ele><time>2026-04-26T12:47:07Z</time></trkpt><trkpt lat="49.29915987954354" lon="-0.7319188968807697"><ele>40.0</ele><time>2026-04-26T12:47:10Z</time></trkpt><trkpt lat="49.299123202030394" lon="-0.7318239249717"><ele>40.0</ele><time>2026-04-26T12:50:05.001Z</time></trkpt><trkpt lat="49.29908127875896" lon="-0.7317363906847032"><ele>40.0</ele><time>2026-04-26T12:50:10.001Z</time></trkpt><trkpt lat="49.29910025087677" lon="-0.7316283535175437"><ele>40.0</ele><time>2026-04-26T12:50:14.001Z</time></trkpt><trkpt lat="49.29915690310211" lon="-0.7315384623779798"><ele>40.0</ele><time>2026-04-26T12:50:23.001Z</time></trkpt><trkpt lat="49.29919975923577" lon="-0.731407093690792"><ele>40.0</ele><time>2026-04-26T12:50:26.002Z</time></trkpt><trkpt lat="49.29924865301982" lon="-0.7312976199650638"><ele>40.0</ele><time>2026-04-26T12:50:28.002Z</time></trkpt><trkpt lat="49.29930166425324" lon="-0.7311863505616486"><ele>40.0</ele><time>2026-04-26T12:50:30.002Z</time></trkpt><trkpt lat="49.29934747244025" lon="-0.7310853381804949"><ele>40.0</ele><time>2026-04-26T12:50:32.002Z</time></trkpt><trkpt lat="49.29939750717226" lon="-0.7310024410258531"><ele>40.0</ele><time>2026-04-26T12:50:34.002Z</time></trkpt><trkpt lat="49.29944441896767" lon="-0.7309186643219447"><ele>40.0</ele><time>2026-04-26T12:50:36.002Z</time></trkpt><trkpt lat="49.29948413154719" lon="-0.7308334763095862"><ele>40.0</ele><time>2026-04-26T12:50:38.002Z</time></trkpt><trkpt lat="49.299524386552044" lon="-0.730728799157169"><ele>40.0</ele><time>2026-04-26T12:50:41.002Z</time></trkpt><trkpt lat="49.29957700433292" lon="-0.73063662000946"><ele>40.14285714285714</ele><time>2026-04-26T12:50:44.002Z</time></trkpt><trkpt lat="49.29962374938201" lon="-0.7305440751071726"><ele>40.285714285714285</ele><time>2026-04-26T12:50:47.002Z</time></trkpt><trkpt lat="49.29966718450524" lon="-0.730449276085713"><ele>40.42857142857143</ele><time>2026-04-26T12:50:50.002Z</time></trkpt><trkpt lat="49.29970954357926" lon="-0.7303562584907681"><ele>40.57142857142857</ele><time>2026-04-26T12:50:53.002Z</time></trkpt><trkpt lat="49.29975052556602" lon="-0.7302727295547441"><ele>40.714285714285715</ele><time>2026-04-26T12:50:56.002Z</time></trkpt><trkpt lat="49.29979153798632" lon="-0.7301838783452688"><ele>40.857142857142854</ele><time>2026-04-26T12:50:59.002Z</time></trkpt><trkpt lat="49.2998330002975" lon="-0.730094776137895"><ele>41.0</ele><time>2026-04-26T12:51:02Z</time></trkpt><trkpt lat="49.29988082386911" lon="-0.729992045549658"><ele>41.33333333333333</ele><time>2026-04-26T12:51:05Z</time></trkpt><trkpt lat="49.29992911371764" lon="-0.729892470660348"><ele>41.666666666666664</ele><time>2026-04-26T12:51:08Z</time></trkpt><trkpt lat="49.29997688243649" lon="-0.7297812371908075"><ele>42.0</ele><time>2026-04-26T12:51:11Z</time></trkpt><trkpt lat="49.300025042178184" lon="-0.7296808053261763"><ele>42.333333333333336</ele><time>2026-04-26T12:51:14Z</time></trkpt><trkpt lat="49.30007296542726" lon="-0.7295893265868636"><ele>42.66666666666667</ele><time>2026-04-26T12:51:17Z</time></trkpt><trkpt lat="49.30011931526067" lon="-0.7294997348705569"><ele>43.0</ele><time>2026-04-26T12:51:20Z</time></trkpt><trkpt lat="49.30016241428166" lon="-0.7294058939821978"><ele>43.0</ele><time>2026-04-26T12:51:23Z</time></trkpt><trkpt lat="49.300205216115145" lon="-0.729313467493282"><ele>43.0</ele><time>2026-04-26T12:51:26Z</time></trkpt><trkpt lat="49.30025363546941" lon="-0.7292211136513462"><ele>43.0</ele><time>2026-04-26T12:51:29Z</time></trkpt><trkpt lat="49.30030236926078" lon="-0.7291224047312744"><ele>43.0</ele><time>2026-04-26T12:51:32Z</time></trkpt><trkpt lat="49.300352311396345" lon="-0.7290045553068979"><ele>43.0</ele><time>2026-04-26T12:51:35Z</time></trkpt><trkpt lat="49.30040209507581" lon="-0.7288989327927234"><ele>43.0</ele><time>2026-04-26T12:51:38.001Z</time></trkpt><trkpt lat="49.300449077989775" lon="-0.7287969223311959"><ele>43.0</ele><time>2026-04-26T12:51:41.001Z</time></trkpt><trkpt lat="49.30050745976416" lon="-0.7286941139183031"><ele>43.0</ele><time>2026-04-26T12:51:44.001Z</time></trkpt><trkpt lat="49.300559440781626" lon="-0.7285846284230338"><ele>43.0</ele><time>2026-04-26T12:51:47.001Z</time></trkpt><trkpt lat="49.30060039053476" lon="-0.7284774523230104"><ele>43.0</ele><time>2026-04-26T12:51:50.001Z</time></trkpt><trkpt lat="49.30064723196058" lon="-0.7283671690171845"><ele>43.0</ele><time>2026-04-26T12:51:53.001Z</time></trkpt><trkpt lat="49.300696366694176" lon="-0.7282559744939526"><ele>43.0</ele><time>2026-04-26T12:51:56.001Z</time></trkpt><trkpt lat="49.30072971452941" lon="-0.728128859785576"><ele>43.0</ele><time>2026-04-26T12:51:59.001Z</time></trkpt><trkpt lat="49.30075158673639" lon="-0.7280245171206499"><ele>43.0</ele><time>2026-04-26T12:52:01.001Z</time></trkpt><trkpt lat="49.30076401863692" lon="-0.7279270416809469"><ele>43.0</ele><time>2026-04-26T12:52:03.001Z</time></trkpt><trkpt lat="49.30076845888353" lon="-0.7277798941594812"><ele>43.0</ele><time>2026-04-26T12:52:06.001Z</time></trkpt><trkpt lat="49.30076889618451" lon="-0.7276720755196565"><ele>43.0</ele><time>2026-04-26T12:52:08.001Z</time></trkpt><trkpt lat="49.30077009812403" lon="-0.7275458335663165"><ele>43.0</ele><time>2026-04-26T12:52:10.001Z</time></trkpt><trkpt lat="49.300765664497405" lon="-0.7274290865580118"><ele>43.0</ele><time>2026-04-26T12:52:12.001Z</time></trkpt><trkpt lat="49.30076402186505" lon="-0.727309192937335"><ele>43.0</ele><time>2026-04-26T12:52:14.001Z</time></trkpt><trkpt lat="49.30075534696051" lon="-0.7271890216528377"><ele>43.0</ele><time>2026-04-26T12:52:16.001Z</time></trkpt><trkpt lat="49.30074797735313" lon="-0.7270867385437126"><ele>43.0</ele><time>2026-04-26T12:52:18.001Z</time></trkpt><trkpt lat="49.300743967129485" lon="-0.7269734367632197"><ele>43.0</ele><time>2026-04-26T12:52:20.001Z</time></trkpt><trkpt lat="49.3007415806666" lon="-0.726850962878716"><ele>43.0</ele><time>2026-04-26T12:52:22.001Z</time></trkpt><trkpt lat="49.300745338497464" lon="-0.7267361728984808"><ele>42.85714285714286</ele><time>2026-04-26T12:52:24.001Z</time></trkpt><trkpt lat="49.30074107893702" lon="-0.7266164893027268"><ele>42.714285714285715</ele><time>2026-04-26T12:52:26.001Z</time></trkpt><trkpt lat="49.30073047444724" lon="-0.7265062134045883"><ele>42.57142857142857</ele><time>2026-04-26T12:52:28.001Z</time></trkpt><trkpt lat="49.30073022734205" lon="-0.7263934476945629"><ele>42.42857142857143</ele><time>2026-04-26T12:52:30.001Z</time></trkpt><trkpt lat="49.300731199718335" lon="-0.7262846371749454"><ele>42.285714285714285</ele><time>2026-04-26T12:52:32.002Z</time></trkpt><trkpt lat="49.300727632845366" lon="-0.7261668838536965"><ele>42.142857142857146</ele><time>2026-04-26T12:52:34.002Z</time></trkpt><trkpt lat="49.3007282716703" lon="-0.726054237344298"><ele>42.0</ele><time>2026-04-26T12:52:36.002Z</time></trkpt><trkpt lat="49.30072734297659" lon="-0.725943287314227"><ele>41.857142857142854</ele><time>2026-04-26T12:52:38.002Z</time></trkpt><trkpt lat="49.30072542883033" lon="-0.7258337017805274"><ele>41.714285714285715</ele><time>2026-04-26T12:52:40.002Z</time></trkpt><trkpt lat="49.30072269817553" lon="-0.7257258705239737"><ele>41.57142857142857</ele><time>2026-04-26T12:52:42.002Z</time></trkpt><trkpt lat="49.30072391744369" lon="-0.7256284172000751"><ele>41.42857142857143</ele><time>2026-04-26T12:52:44.002Z</time></trkpt><trkpt lat="49.30072170468634" lon="-0.7255300306994334"><ele>41.285714285714285</ele><time>2026-04-26T12:52:46.002Z</time></trkpt><trkpt lat="49.30072364173274" lon="-0.7254327817201247"><ele>41.14285714285714</ele><time>2026-04-26T12:52:48.002Z</time></trkpt><trkpt lat="49.30071370363071" lon="-0.7253151916434271"><ele>41.0</ele><time>2026-04-26T12:52:50.002Z</time></trkpt><trkpt lat="49.300715939406835" lon="-0.7251865688796914"><ele>40.83333333333333</ele><time>2026-04-26T12:52:52.002Z</time></trkpt><trkpt lat="49.300714250497535" lon="-0.7250710888837725"><ele>40.666666666666664</ele><time>2026-04-26T12:52:54.002Z</time></trkpt><trkpt lat="49.300714761415506" lon="-0.7249595375919017"><ele>40.5</ele><time>2026-04-26T12:52:56.002Z</time></trkpt><trkpt lat="49.30071431113119" lon="-0.7248474499579144"><ele>40.333333333333336</ele><time>2026-04-26T12:52:58.002Z</time></trkpt><trkpt lat="49.300706014551466" lon="-0.7247351035460923"><ele>40.16666666666667</ele><time>2026-04-26T12:53:00.002Z</time></trkpt><trkpt lat="49.30070742834713" lon="-0.7246294446791945"><ele>40.0</ele><time>2026-04-26T12:53:02.002Z</time></trkpt><trkpt lat="49.300710167939876" lon="-0.7244827319809439"><ele>40.14285714285714</ele><time>2026-04-26T12:53:05.002Z</time></trkpt><trkpt lat="49.30070630814821" lon="-0.7243737692313863"><ele>40.285714285714285</ele><time>2026-04-26T12:53:07Z</time></trkpt><trkpt lat="49.3007037625174" lon="-0.7242655029666286"><ele>40.42857142857143</ele><time>2026-04-26T12:53:09Z</time></trkpt><trkpt lat="49.3007031424684" lon="-0.7241565125675993"><ele>40.57142857142857</ele><time>2026-04-26T12:53:11Z</time></trkpt><trkpt lat="49.30070043137352" lon="-0.7240513111710462"><ele>40.714285714285715</ele><time>2026-04-26T12:53:13Z</time></trkpt><trkpt lat="49.30069655255187" lon="-0.7239446373140893"><ele>40.857142857142854</ele><time>2026-04-26T12:53:15Z</time></trkpt><trkpt lat="49.300689049399885" lon="-0.7238112240914084"><ele>41.0</ele><time>2026-04-26T12:53:18Z</time></trkpt><trkpt lat="49.30068877258363" lon="-0.7236763380177462"><ele>41.0</ele><time>2026-04-26T12:53:21Z</time></trkpt><trkpt lat="49.300674763128306" lon="-0.7235712403491035"><ele>41.0</ele><time>2026-04-26T12:53:23Z</time></trkpt><trkpt lat="49.30067813976923" lon="-0.7234260834109968"><ele>41.0</ele><time>2026-04-26T12:53:26Z</time></trkpt><trkpt lat="49.30069050268382" lon="-0.7233228127227477"><ele>41.0</ele><time>2026-04-26T12:53:28Z</time></trkpt><trkpt lat="49.300699044543514" lon="-0.7231850403550428"><ele>41.0</ele><time>2026-04-26T12:53:31Z</time></trkpt><trkpt lat="49.30071564247261" lon="-0.7230828508766884"><ele>41.0</ele><time>2026-04-26T12:53:33Z</time></trkpt><trkpt lat="49.30074354652492" lon="-0.7229620107798219"><ele>41.14285714285714</ele><time>2026-04-26T12:53:36Z</time></trkpt><trkpt lat="49.30075827204421" lon="-0.7228564921481853"><ele>41.285714285714285</ele><time>2026-04-26T12:53:39Z</time></trkpt><trkpt lat="49.30070170934975" lon="-0.7227954051408022"><ele>41.42857142857143</ele><time>2026-04-26T13:01:24.002Z</time></trkpt><trkpt lat="49.300634073856806" lon="-0.7227563206108666"><ele>41.57142857142857</ele><time>2026-04-26T13:01:37Z</time></trkpt><trkpt lat="49.30058847578112" lon="-0.7226666363752892"><ele>41.714285714285715</ele><time>2026-04-26T13:01:41Z</time></trkpt><trkpt lat="49.300546666907536" lon="-0.722583755692274"><ele>41.857142857142854</ele><time>2026-04-26T13:01:44Z</time></trkpt><trkpt lat="49.30051668849092" lon="-0.7224789824160184"><ele>42.0</ele><time>2026-04-26T13:01:47Z</time></trkpt><trkpt lat="49.300479201799845" lon="-0.7223760412190849"><ele>42.166666666666664</ele><time>2026-04-26T13:01:50Z</time></trkpt><trkpt lat="49.30045892537487" lon="-0.7222689834122994"><ele>42.333333333333336</ele><time>2026-04-26T13:01:53Z</time></trkpt><trkpt lat="49.3004206205257" lon="-0.7221635091464081"><ele>42.5</ele><time>2026-04-26T13:01:56Z</time></trkpt><trkpt lat="49.30036641988309" lon="-0.722054618426076"><ele>42.66666666666667</ele><time>2026-04-26T13:01:59Z</time></trkpt><trkpt lat="49.30029215058129" lon="-0.7219894211742927"><ele>42.833333333333336</ele><time>2026-04-26T13:02:02Z</time></trkpt><trkpt lat="49.300213939058985" lon="-0.7219669559025764"><ele>43.0</ele><time>2026-04-26T13:02:05Z</time></trkpt><trkpt lat="49.30013865300304" lon="-0.7219439923924449"><ele>43.00000000000001</ele><time>2026-04-26T13:02:08Z</time></trkpt><trkpt lat="49.300075769571166" lon="-0.7219652716117859"><ele>43.0</ele><time>2026-04-26T13:02:10Z</time></trkpt><trkpt lat="49.30000825968315" lon="-0.7219013694945141"><ele>43.0</ele><time>2026-04-26T13:02:13.001Z</time></trkpt><trkpt lat="49.29995035871971" lon="-0.721841812858235"><ele>43.0</ele><time>2026-04-26T13:02:15.001Z</time></trkpt><trkpt lat="49.29989483255904" lon="-0.7217926602297441"><ele>43.0</ele><time>2026-04-26T13:02:17.001Z</time></trkpt><trkpt lat="49.29983260332619" lon="-0.721709583694565"><ele>43.00000000000001</ele><time>2026-04-26T13:02:20.001Z</time></trkpt><trkpt lat="49.29977491025084" lon="-0.7216535767090886"><ele>43.0</ele><time>2026-04-26T13:02:53.001Z</time></trkpt><trkpt lat="49.29971010822665" lon="-0.7215715904531614"><ele>43.142857142857146</ele><time>2026-04-26T13:02:57.001Z</time></trkpt><trkpt lat="49.299655140905635" lon="-0.7215168108766378"><ele>43.285714285714285</ele><time>2026-04-26T13:03:00.001Z</time></trkpt><trkpt lat="49.29959028477781" lon="-0.7214564043764121"><ele>43.42857142857143</ele><time>2026-04-26T13:03:03.001Z</time></trkpt><trkpt lat="49.29952174426965" lon="-0.7214054028979917"><ele>43.57142857142857</ele><time>2026-04-26T13:03:06.001Z</time></trkpt><trkpt lat="49.29945810069459" lon="-0.7213499016129649"><ele>43.714285714285715</ele><time>2026-04-26T13:03:09.001Z</time></trkpt><trkpt lat="49.29938457285613" lon="-0.7213061575937252"><ele>43.85714285714286</ele><time>2026-04-26T13:03:12.001Z</time></trkpt><trkpt lat="49.29932050046189" lon="-0.7212558988350647"><ele>44.0</ele><time>2026-04-26T13:03:19.002Z</time></trkpt><trkpt lat="49.29925272878208" lon="-0.7212152573312812"><ele>44.0</ele><time>2026-04-26T13:03:32.002Z</time></trkpt><trkpt lat="49.29918066583287" lon="-0.7211584876667515"><ele>44.0</ele><time>2026-04-26T13:03:36.002Z</time></trkpt><trkpt lat="49.29910796666721" lon="-0.721120232459317"><ele>44.0</ele><time>2026-04-26T13:03:39.999Z</time></trkpt><trkpt lat="49.299043020654324" lon="-0.721070035151653"><ele>44.0</ele><time>2026-04-26T13:03:42.999Z</time></trkpt><trkpt lat="49.29897291152831" lon="-0.721038075763601"><ele>44.0</ele><time>2026-04-26T13:03:45.999Z</time></trkpt><trkpt lat="49.29890723632586" lon="-0.7209806162682394"><ele>44.0</ele><time>2026-04-26T13:03:49.999Z</time></trkpt><trkpt lat="49.298843806840125" lon="-0.7209627462354514"><ele>44.0</ele><time>2026-04-26T13:03:52.999Z</time></trkpt><trkpt lat="49.29877144029629" lon="-0.7209227629844209"><ele>44.0</ele><time>2026-04-26T13:03:57Z</time></trkpt><trkpt lat="49.29869323891346" lon="-0.7208950350881396"><ele>44.0</ele><time>2026-04-26T13:04:01Z</time></trkpt><trkpt lat="49.29862527313023" lon="-0.7208498451170395"><ele>44.0</ele><time>2026-04-26T13:04:23Z</time></trkpt><trkpt lat="49.29854200372147" lon="-0.7208246043197218"><ele>44.0</ele><time>2026-04-26T13:04:28Z</time></trkpt><trkpt lat="49.29847274921514" lon="-0.7207871111616192"><ele>44.0</ele><time>2026-04-26T13:04:32Z</time></trkpt><trkpt lat="49.29840665713301" lon="-0.7207630073251232"><ele>44.0</ele><time>2026-04-26T13:04:35Z</time></trkpt><trkpt lat="49.298348747325775" lon="-0.7207236996740091"><ele>44.0</ele><time>2026-04-26T13:04:38.001Z</time></trkpt><trkpt lat="49.298288910456215" lon="-0.720689204679595"><ele>44.0</ele><time>2026-04-26T13:04:51.001Z</time></trkpt><trkpt lat="49.29822450159369" lon="-0.7206572658895004"><ele>44.0</ele><time>2026-04-26T13:04:57.001Z</time></trkpt><trkpt lat="49.298155622432645" lon="-0.7206238985124462"><ele>44.0</ele><time>2026-04-26T13:05:03.001Z</time></trkpt><trkpt lat="49.29809387734989" lon="-0.7206018472480222"><ele>44.0</ele><time>2026-04-26T13:05:09.001Z</time></trkpt><trkpt lat="49.29803532588301" lon="-0.7205469787592441"><ele>44.0</ele><time>2026-04-26T13:05:21.001Z</time></trkpt><trkpt lat="49.29796554255599" lon="-0.7204912383451234"><ele>44.0</ele><time>2026-04-26T13:05:26.001Z</time></trkpt><trkpt lat="49.2978942191296" lon="-0.720451301267225"><ele>44.0</ele><time>2026-04-26T13:05:29.001Z</time></trkpt><trkpt lat="49.29780128850116" lon="-0.7204049599221514"><ele>44.285714285714285</ele><time>2026-04-26T13:05:32.002Z</time></trkpt><trkpt lat="49.29773024294019" lon="-0.7203593157547348"><ele>44.57142857142857</ele><time>2026-04-26T13:05:35.002Z</time></trkpt><trkpt lat="49.297676410663875" lon="-0.7203047232485967"><ele>44.85714285714286</ele><time>2026-04-26T13:05:38.002Z</time></trkpt><trkpt lat="49.29760697020639" lon="-0.7202979076604482"><ele>45.14285714285714</ele><time>2026-04-26T13:05:42.002Z</time></trkpt><trkpt lat="49.297557912874616" lon="-0.7202369505552083"><ele>45.42857142857142</ele><time>2026-04-26T13:05:46.999Z</time></trkpt><trkpt lat="49.297483277043725" lon="-0.7201905046180402"><ele>45.714285714285715</ele><time>2026-04-26T13:06:11Z</time></trkpt><trkpt lat="49.29742333384608" lon="-0.720134114356348"><ele>46.0</ele><time>2026-04-26T13:06:19Z</time></trkpt><trkpt lat="49.297343284237954" lon="-0.7201154630106239"><ele>46.0</ele><time>2026-04-26T13:06:30Z</time></trkpt><trkpt lat="49.29727955408252" lon="-0.7200636951275585"><ele>46.0</ele><time>2026-04-26T13:06:34.001Z</time></trkpt><trkpt lat="49.29721184705051" lon="-0.7200242947334606"><ele>46.0</ele><time>2026-04-26T13:06:40.001Z</time></trkpt><trkpt lat="49.29715350659478" lon="-0.7199817192115533"><ele>46.0</ele><time>2026-04-26T13:06:47.001Z</time></trkpt><trkpt lat="49.29708829684747" lon="-0.7199373499219284"><ele>46.0</ele><time>2026-04-26T13:06:54.001Z</time></trkpt><trkpt lat="49.297029091641406" lon="-0.7198836774629377"><ele>46.0</ele><time>2026-04-26T13:07:00.001Z</time></trkpt><trkpt lat="49.296967491118735" lon="-0.7198460508827107"><ele>46.0</ele><time>2026-04-26T13:07:05.001Z</time></trkpt><trkpt lat="49.29690947097045" lon="-0.7198032247185857"><ele>46.42857142857143</ele><time>2026-04-26T13:07:11.001Z</time></trkpt><trkpt lat="49.29685068504375" lon="-0.7197546414067902"><ele>46.857142857142854</ele><time>2026-04-26T13:07:21.001Z</time></trkpt><trkpt lat="49.29679613019461" lon="-0.719682009476348"><ele>47.285714285714285</ele><time>2026-04-26T13:07:32.002Z</time></trkpt><trkpt lat="49.29673680381565" lon="-0.7196304579878879"><ele>47.714285714285715</ele><time>2026-04-26T13:07:39.002Z</time></trkpt><trkpt lat="49.29668426026448" lon="-0.7195768165836"><ele>48.14285714285714</ele><time>2026-04-26T13:07:45.002Z</time></trkpt><trkpt lat="49.29662406300475" lon="-0.7195376005509715"><ele>48.57142857142857</ele><time>2026-04-26T13:07:52Z</time></trkpt><trkpt lat="49.296569120006154" lon="-0.7194902496602856"><ele>49.0</ele><time>2026-04-26T13:07:58Z</time></trkpt><trkpt lat="49.29651324010173" lon="-0.7194309799566019"><ele>48.857142857142854</ele><time>2026-04-26T13:08:05Z</time></trkpt><trkpt lat="49.29645274951964" lon="-0.7193790207596661"><ele>48.714285714285715</ele><time>2026-04-26T13:08:11Z</time></trkpt><trkpt lat="49.296392592805034" lon="-0.7193221337658726"><ele>48.57142857142857</ele><time>2026-04-26T13:08:18Z</time></trkpt><trkpt lat="49.2963324842067" lon="-0.7192804607228319"><ele>48.42857142857143</ele><time>2026-04-26T13:08:24Z</time></trkpt><trkpt lat="49.29627706867251" lon="-0.7192238815078468"><ele>48.285714285714285</ele><time>2026-04-26T13:08:32.001Z</time></trkpt><trkpt lat="49.29622137784916" lon="-0.7191689340122802"><ele>48.14285714285714</ele><time>2026-04-26T13:08:39.001Z</time></trkpt><trkpt lat="49.29616202508274" lon="-0.7191175829116533"><ele>48.0</ele><time>2026-04-26T13:08:45.001Z</time></trkpt><trkpt lat="49.29609037436272" lon="-0.7190700382668954"><ele>48.71428571428571</ele><time>2026-04-26T13:08:52.001Z</time></trkpt><trkpt lat="49.29602447272873" lon="-0.7190138947512913"><ele>49.42857142857143</ele><time>2026-04-26T13:08:59.001Z</time></trkpt><trkpt lat="49.295954780551725" lon="-0.7189712031132531"><ele>50.14285714285714</ele><time>2026-04-26T13:09:05.001Z</time></trkpt><trkpt lat="49.29589314096401" lon="-0.7189391469855736"><ele>50.857142857142854</ele><time>2026-04-26T13:09:11.001Z</time></trkpt><trkpt lat="49.29584101063167" lon="-0.7188847885667041"><ele>51.57142857142857</ele><time>2026-04-26T13:09:22.002Z</time></trkpt><trkpt lat="49.29577923402625" lon="-0.7188460348640748"><ele>52.285714285714285</ele><time>2026-04-26T13:09:28.002Z</time></trkpt><trkpt lat="49.295713306554184" lon="-0.7188049912583566"><ele>53.0</ele><time>2026-04-26T13:09:34.002Z</time></trkpt><trkpt lat="49.29564753615562" lon="-0.7187637635584269"><ele>53.42857142857143</ele><time>2026-04-26T13:09:41.002Z</time></trkpt><trkpt lat="49.29557757508676" lon="-0.7187107399843395"><ele>53.857142857142854</ele><time>2026-04-26T13:09:48.002Z</time></trkpt><trkpt lat="49.2955150597789" lon="-0.718665036061109"><ele>54.285714285714285</ele><time>2026-04-26T13:09:54.002Z</time></trkpt><trkpt lat="49.29545999700595" lon="-0.7186096756046836"><ele>54.714285714285715</ele><time>2026-04-26T13:10:08Z</time></trkpt><trkpt lat="49.29539233065064" lon="-0.7185772270621473"><ele>55.14285714285714</ele><time>2026-04-26T13:10:14Z</time></trkpt><trkpt lat="49.295328246121834" lon="-0.7185473165333446"><ele>55.57142857142857</ele><time>2026-04-26T13:10:21Z</time></trkpt><trkpt lat="49.29526616912982" lon="-0.7185114067600415"><ele>56.0</ele><time>2026-04-26T13:10:26.001Z</time></trkpt><trkpt lat="49.2952059787373" lon="-0.7184733119724499"><ele>56.0</ele><time>2026-04-26T13:10:31.001Z</time></trkpt><trkpt lat="49.29514131861726" lon="-0.7184320332556828"><ele>56.0</ele><time>2026-04-26T13:10:58.001Z</time></trkpt><trkpt lat="49.29506393149983" lon="-0.7183888818362635"><ele>56.0</ele><time>2026-04-26T13:11:02.001Z</time></trkpt><trkpt lat="49.29500681359625" lon="-0.7183475519781968"><ele>56.0</ele><time>2026-04-26T13:11:05.001Z</time></trkpt><trkpt lat="49.294937185065784" lon="-0.7183028101445956"><ele>56.0</ele><time>2026-04-26T13:11:18.002Z</time></trkpt><trkpt lat="49.294874958238495" lon="-0.7182709889833623"><ele>56.0</ele><time>2026-04-26T13:11:22.002Z</time></trkpt><trkpt lat="49.2948038943923" lon="-0.7182231959031213"><ele>56.0</ele><time>2026-04-26T13:11:27.002Z</time></trkpt><trkpt lat="49.29473941946564" lon="-0.7181791563878971"><ele>56.42857142857143</ele><time>2026-04-26T13:11:36.002Z</time></trkpt><trkpt lat="49.294677668294575" lon="-0.718139061708428"><ele>56.85714285714286</ele><time>2026-04-26T13:11:40.002Z</time></trkpt><trkpt lat="49.294609382624586" lon="-0.718097488982175"><ele>57.285714285714285</ele><time>2026-04-26T13:11:45.002Z</time></trkpt><trkpt lat="49.294536494291684" lon="-0.7180545458384227"><ele>57.714285714285715</ele><time>2026-04-26T13:11:51.002Z</time></trkpt><trkpt lat="49.29447685240216" lon="-0.7180124776897174"><ele>58.142857142857146</ele><time>2026-04-26T13:12:23Z</time></trkpt><trkpt lat="49.294411335640646" lon="-0.717961880093786"><ele>58.57142857142857</ele><time>2026-04-26T13:12:27.001Z</time></trkpt><trkpt lat="49.2943492067443" lon="-0.7179226661311996"><ele>59.0</ele><time>2026-04-26T13:12:31.001Z</time></trkpt><trkpt lat="49.29427739556961" lon="-0.7178675345320106"><ele>59.00000000000001</ele><time>2026-04-26T13:12:34.001Z</time></trkpt><trkpt lat="49.29420348265889" lon="-0.7178086826417304"><ele>59.0</ele><time>2026-04-26T13:12:37.001Z</time></trkpt><trkpt lat="49.29413215444257" lon="-0.7177489615707735"><ele>59.0</ele><time>2026-04-26T13:12:40.001Z</time></trkpt><trkpt lat="49.29406128157202" lon="-0.7176812042334177"><ele>59.0</ele><time>2026-04-26T13:12:43.001Z</time></trkpt><trkpt lat="49.293985450870004" lon="-0.7176273587246097"><ele>59.00000000000001</ele><time>2026-04-26T13:12:46.001Z</time></trkpt><trkpt lat="49.29392887228155" lon="-0.7175747504058048"><ele>59.0</ele><time>2026-04-26T13:12:49.001Z</time></trkpt><trkpt lat="49.29385574509996" lon="-0.7175167938869988"><ele>59.16666666666667</ele><time>2026-04-26T13:12:51.001Z</time></trkpt><trkpt lat="49.2937739755367" lon="-0.7174514936526698"><ele>59.333333333333336</ele><time>2026-04-26T13:12:54.001Z</time></trkpt><trkpt lat="49.29369744350693" lon="-0.7173694591190352"><ele>59.5</ele><time>2026-04-26T13:12:57.001Z</time></trkpt><trkpt lat="49.29363967212242" lon="-0.7173293608665262"><ele>59.66666666666667</ele><time>2026-04-26T13:12:59.001Z</time></trkpt><trkpt lat="49.293578447492216" lon="-0.71724263846378"><ele>59.833333333333336</ele><time>2026-04-26T13:13:01.001Z</time></trkpt><trkpt lat="49.29350430124532" lon="-0.7171827921104608"><ele>60.0</ele><time>2026-04-26T13:13:04.001Z</time></trkpt><trkpt lat="49.29345024836144" lon="-0.7171059399627854"><ele>60.0</ele><time>2026-04-26T13:14:14.001Z</time></trkpt><trkpt lat="49.29338615984824" lon="-0.7170660181490814"><ele>60.0</ele><time>2026-04-26T13:14:17.001Z</time></trkpt><trkpt lat="49.29332650517459" lon="-0.7170083519454227"><ele>60.0</ele><time>2026-04-26T13:14:20.001Z</time></trkpt><trkpt lat="49.293242625887316" lon="-0.7169267944298383"><ele>60.0</ele><time>2026-04-26T13:14:23.001Z</time></trkpt><trkpt lat="49.29318817086101" lon="-0.716865102421102"><ele>60.0</ele><time>2026-04-26T13:14:25.001Z</time></trkpt><trkpt lat="49.29312709014944" lon="-0.7168311021432542"><ele>60.0</ele><time>2026-04-26T13:14:27.001Z</time></trkpt><trkpt lat="49.293072011464545" lon="-0.7167639280331228"><ele>60.0</ele><time>2026-04-26T13:14:29.001Z</time></trkpt><trkpt lat="49.29300831798661" lon="-0.716704724712926"><ele>59.833333333333336</ele><time>2026-04-26T13:14:31.001Z</time></trkpt><trkpt lat="49.29295540148673" lon="-0.716641845608059"><ele>59.66666666666667</ele><time>2026-04-26T13:14:33.001Z</time></trkpt><trkpt lat="49.292881442524035" lon="-0.7165648036088494"><ele>59.5</ele><time>2026-04-26T13:14:36.001Z</time></trkpt><trkpt lat="49.29280359329708" lon="-0.7164823412663441"><ele>59.333333333333336</ele><time>2026-04-26T13:14:39.001Z</time></trkpt><trkpt lat="49.29273424310937" lon="-0.7163904442730403"><ele>59.16666666666667</ele><time>2026-04-26T13:14:42.001Z</time></trkpt><trkpt lat="49.29268868972861" lon="-0.7163119208757865"><ele>59.0</ele><time>2026-04-26T13:14:44.001Z</time></trkpt><trkpt lat="49.292621618873156" lon="-0.7162575549483857"><ele>59.0</ele><time>2026-04-26T13:14:46.001Z</time></trkpt><trkpt lat="49.29256304604386" lon="-0.716188464334753"><ele>59.0</ele><time>2026-04-26T13:14:48.001Z</time></trkpt><trkpt lat="49.292519845855196" lon="-0.716113972125501"><ele>59.0</ele><time>2026-04-26T13:14:50.001Z</time></trkpt><trkpt lat="49.29245638653268" lon="-0.7160542671163874"><ele>59.0</ele><time>2026-04-26T13:14:52.001Z</time></trkpt><trkpt lat="49.29239767610001" lon="-0.7159865465807256"><ele>59.0</ele><time>2026-04-26T13:14:54.001Z</time></trkpt><trkpt lat="49.29233898399482" lon="-0.7159453930513852"><ele>59.0</ele><time>2026-04-26T13:14:56.001Z</time></trkpt><trkpt lat="49.29228278798281" lon="-0.715893107221004"><ele>59.0</ele><time>2026-04-26T13:14:58.001Z</time></trkpt><trkpt lat="49.2922103202744" lon="-0.7158161157683646"><ele>58.71428571428571</ele><time>2026-04-26T13:15:01.001Z</time></trkpt><trkpt lat="49.29215354199449" lon="-0.715765853026461"><ele>58.42857142857143</ele><time>2026-04-26T13:15:03.001Z</time></trkpt><trkpt lat="49.29209047097323" lon="-0.7157073147035425"><ele>58.14285714285714</ele><time>2026-04-26T13:15:05.001Z</time></trkpt><trkpt lat="49.2920342624656" lon="-0.7156480975612645"><ele>57.857142857142854</ele><time>2026-04-26T13:15:07.001Z</time></trkpt><trkpt lat="49.29197068215089" lon="-0.7155860552461182"><ele>57.57142857142857</ele><time>2026-04-26T13:15:09.001Z</time></trkpt><trkpt lat="49.29191313370754" lon="-0.715514496189189"><ele>57.285714285714285</ele><time>2026-04-26T13:15:11.001Z</time></trkpt><trkpt lat="49.29186150858975" lon="-0.7154525241604576"><ele>57.0</ele><time>2026-04-26T13:15:13.001Z</time></trkpt><trkpt lat="49.29180989576503" lon="-0.7153959481788156"><ele>57.0</ele><time>2026-04-26T13:15:15.001Z</time></trkpt><trkpt lat="49.291753211463735" lon="-0.7153360960412343"><ele>57.0</ele><time>2026-04-26T13:15:17.001Z</time></trkpt><trkpt lat="49.29169880983701" lon="-0.7152813814202252"><ele>57.0</ele><time>2026-04-26T13:15:19.001Z</time></trkpt><trkpt lat="49.2916356284467" lon="-0.7152149709031239"><ele>57.0</ele><time>2026-04-26T13:15:21.001Z</time></trkpt><trkpt lat="49.29156552403095" lon="-0.7151357951236188"><ele>57.0</ele><time>2026-04-26T13:15:23.001Z</time></trkpt><trkpt lat="49.29150527239712" lon="-0.7150689444712968"><ele>57.0</ele><time>2026-04-26T13:15:25.001Z</time></trkpt><trkpt lat="49.291438746688186" lon="-0.7149967973820986"><ele>56.857142857142854</ele><time>2026-04-26T13:15:27.002Z</time></trkpt><trkpt lat="49.291375716703484" lon="-0.7149448453685773"><ele>56.71428571428571</ele><time>2026-04-26T13:15:29.002Z</time></trkpt><trkpt lat="49.29132278176731" lon="-0.7148842737357334"><ele>56.57142857142857</ele><time>2026-04-26T13:15:31.002Z</time></trkpt><trkpt lat="49.29126909010207" lon="-0.7148258736004063"><ele>56.42857142857143</ele><time>2026-04-26T13:15:33.002Z</time></trkpt><trkpt lat="49.29119580827336" lon="-0.7147364022081123"><ele>56.285714285714285</ele><time>2026-04-26T13:15:36.002Z</time></trkpt><trkpt lat="49.291139799485286" lon="-0.7146684079460939"><ele>56.14285714285714</ele><time>2026-04-26T13:15:38.002Z</time></trkpt><trkpt lat="49.29108202627505" lon="-0.7146127676509904"><ele>56.0</ele><time>2026-04-26T13:15:40.002Z</time></trkpt><trkpt lat="49.29102362634306" lon="-0.7145445332656654"><ele>56.00000000000001</ele><time>2026-04-26T13:15:42.002Z</time></trkpt><trkpt lat="49.290965861561645" lon="-0.7144835243387001"><ele>56.0</ele><time>2026-04-26T13:15:44.002Z</time></trkpt><trkpt lat="49.290910200754794" lon="-0.7144136467266778"><ele>56.0</ele><time>2026-04-26T13:15:46.002Z</time></trkpt><trkpt lat="49.290849256109034" lon="-0.7143587700918325"><ele>56.0</ele><time>2026-04-26T13:15:48.002Z</time></trkpt><trkpt lat="49.2907813407619" lon="-0.7142630715819261"><ele>56.00000000000001</ele><time>2026-04-26T13:15:51.002Z</time></trkpt><trkpt lat="49.290709935288255" lon="-0.7141961585522624"><ele>56.0</ele><time>2026-04-26T13:15:54.002Z</time></trkpt><trkpt lat="49.290644527511056" lon="-0.7141399840057846"><ele>56.0</ele><time>2026-04-26T13:15:58.002Z</time></trkpt><trkpt lat="49.29059846239252" lon="-0.7140623099649178"><ele>56.0</ele><time>2026-04-26T13:16:01.002Z</time></trkpt><trkpt lat="49.29052167017213" lon="-0.714000224023936"><ele>56.0</ele><time>2026-04-26T13:16:06.002Z</time></trkpt><trkpt lat="49.29046539706676" lon="-0.7139502386090526"><ele>56.0</ele><time>2026-04-26T13:16:08.002Z</time></trkpt><trkpt lat="49.29049641791376" lon="-0.7140403339236379"><ele>56.0</ele><time>2026-04-26T13:16:34.001Z</time></trkpt><trkpt lat="49.290480547378515" lon="-0.7139171392090798"><ele>56.0</ele><time>2026-04-26T13:16:38.001Z</time></trkpt><trkpt lat="49.29041553741658" lon="-0.713851625501307"><ele>56.0</ele><time>2026-04-26T13:16:40.001Z</time></trkpt><trkpt lat="49.290357510789" lon="-0.7138120844843052"><ele>56.50000000000001</ele><time>2026-04-26T13:16:42.001Z</time></trkpt><trkpt lat="49.29028387700083" lon="-0.7137167848458817"><ele>57.0</ele><time>2026-04-26T13:16:45.001Z</time></trkpt><trkpt lat="49.29022747188651" lon="-0.7136419227841218"><ele>57.5</ele><time>2026-04-26T13:16:47.001Z</time></trkpt><trkpt lat="49.290173092833854" lon="-0.7135681211244369"><ele>58.0</ele><time>2026-04-26T13:16:49.001Z</time></trkpt><trkpt lat="49.29012275669742" lon="-0.7134953022354106"><ele>58.50000000000001</ele><time>2026-04-26T13:16:51.001Z</time></trkpt><trkpt lat="49.2900573601188" lon="-0.7134120484059352"><ele>59.0</ele><time>2026-04-26T13:16:53.001Z</time></trkpt><trkpt lat="49.289996718032135" lon="-0.71333631956393"><ele>59.0</ele><time>2026-04-26T13:16:55.001Z</time></trkpt><trkpt lat="49.28993049638715" lon="-0.7132753656211402"><ele>59.0</ele><time>2026-04-26T13:16:57.001Z</time></trkpt><trkpt lat="49.28987466093564" lon="-0.7132116956572967"><ele>59.0</ele><time>2026-04-26T13:16:59.001Z</time></trkpt><trkpt lat="49.28981512510528" lon="-0.7131528427712216"><ele>59.0</ele><time>2026-04-26T13:17:01.001Z</time></trkpt><trkpt lat="49.2897685444457" lon="-0.7130865825691571"><ele>59.0</ele><time>2026-04-26T13:17:03.001Z</time></trkpt><trkpt lat="49.28970182593114" lon="-0.7130354024795789"><ele>59.0</ele><time>2026-04-26T13:17:05.001Z</time></trkpt><trkpt lat="49.28964656249212" lon="-0.7129780281225643"><ele>59.0</ele><time>2026-04-26T13:17:07.001Z</time></trkpt><trkpt lat="49.28958746479024" lon="-0.7129241070663328"><ele>59.0</ele><time>2026-04-26T13:17:09.001Z</time></trkpt><trkpt lat="49.289529144413606" lon="-0.7128731287726002"><ele>59.0</ele><time>2026-04-26T13:17:11.001Z</time></trkpt><trkpt lat="49.28947112466293" lon="-0.7128173999948427"><ele>59.0</ele><time>2026-04-26T13:17:13.001Z</time></trkpt><trkpt lat="49.2894217140885" lon="-0.7127575513434685"><ele>59.0</ele><time>2026-04-26T13:17:15.001Z</time></trkpt><trkpt lat="49.2893624394687" lon="-0.7126959783880163"><ele>59.0</ele><time>2026-04-26T13:17:17.001Z</time></trkpt><trkpt lat="49.28930185267277" lon="-0.7126407870950171"><ele>59.0</ele><time>2026-04-26T13:17:19.001Z</time></trkpt><trkpt lat="49.28923605450985" lon="-0.712596407507628"><ele>59.0</ele><time>2026-04-26T13:17:21.001Z</time></trkpt><trkpt lat="49.289178068663155" lon="-0.7125277550058376"><ele>59.00000000000001</ele><time>2026-04-26T13:17:23.001Z</time></trkpt><trkpt lat="49.28910856188087" lon="-0.7124683513745727"><ele>59.0</ele><time>2026-04-26T13:17:25.001Z</time></trkpt><trkpt lat="49.28905159057673" lon="-0.7124232500014249"><ele>59.0</ele><time>2026-04-26T13:17:27.001Z</time></trkpt><trkpt lat="49.288968757905224" lon="-0.7123663181694487"><ele>59.0</ele><time>2026-04-26T13:17:30.001Z</time></trkpt><trkpt lat="49.2888671391227" lon="-0.7123243717165177"><ele>59.00000000000001</ele><time>2026-04-26T13:17:33.001Z</time></trkpt><trkpt lat="49.28881002732196" lon="-0.7122758179119203"><ele>59.0</ele><time>2026-04-26T13:17:35.001Z</time></trkpt><trkpt lat="49.28875127819377" lon="-0.7122240476851256"><ele>59.0</ele><time>2026-04-26T13:17:37.001Z</time></trkpt><trkpt lat="49.288670718527165" lon="-0.7121508348606481"><ele>59.0</ele><time>2026-04-26T13:17:40.001Z</time></trkpt><trkpt lat="49.288611103686385" lon="-0.712118861506065"><ele>59.0</ele><time>2026-04-26T13:17:42.001Z</time></trkpt><trkpt lat="49.288552511854625" lon="-0.7120781529836236"><ele>59.0</ele><time>2026-04-26T13:17:44.001Z</time></trkpt><trkpt lat="49.28847641830509" lon="-0.7120250857643072"><ele>59.0</ele><time>2026-04-26T13:17:47.001Z</time></trkpt><trkpt lat="49.288414681185166" lon="-0.7119665076278716"><ele>59.0</ele><time>2026-04-26T13:17:49.001Z</time></trkpt><trkpt lat="49.288352614290986" lon="-0.7119244887516623"><ele>59.0</ele><time>2026-04-26T13:17:51.001Z</time></trkpt><trkpt lat="49.28829865931109" lon="-0.7118701638190446"><ele>58.71428571428571</ele><time>2026-04-26T13:17:53.002Z</time></trkpt><trkpt lat="49.288236760767326" lon="-0.7118357752299639"><ele>58.42857142857143</ele><time>2026-04-26T13:17:55.002Z</time></trkpt><trkpt lat="49.28817157558713" lon="-0.7117964987699718"><ele>58.14285714285714</ele><time>2026-04-26T13:17:57.002Z</time></trkpt><trkpt lat="49.28810846258277" lon="-0.7117587845823379"><ele>57.857142857142854</ele><time>2026-04-26T13:17:59.002Z</time></trkpt><trkpt lat="49.28804567952053" lon="-0.7117089429153923"><ele>57.57142857142857</ele><time>2026-04-26T13:18:01.002Z</time></trkpt><trkpt lat="49.2879769953556" lon="-0.7116575019933412"><ele>57.285714285714285</ele><time>2026-04-26T13:18:03.002Z</time></trkpt><trkpt lat="49.287909520547664" lon="-0.7116043007549612"><ele>57.0</ele><time>2026-04-26T13:18:05.002Z</time></trkpt><trkpt lat="49.28784964659423" lon="-0.7115519669576635"><ele>56.833333333333336</ele><time>2026-04-26T13:18:07.002Z</time></trkpt><trkpt lat="49.28777166237626" lon="-0.711514006489399"><ele>56.66666666666667</ele><time>2026-04-26T13:18:09.002Z</time></trkpt><trkpt lat="49.28769974629792" lon="-0.711469272388321"><ele>56.5</ele><time>2026-04-26T13:18:11.002Z</time></trkpt><trkpt lat="49.2876286746233" lon="-0.7114343149412531"><ele>56.333333333333336</ele><time>2026-04-26T13:18:13.002Z</time></trkpt><trkpt lat="49.287566061857284" lon="-0.7113803105790699"><ele>56.16666666666667</ele><time>2026-04-26T13:18:15.002Z</time></trkpt><trkpt lat="49.2874906100659" lon="-0.7113331534909029"><ele>56.0</ele><time>2026-04-26T13:18:17.002Z</time></trkpt><trkpt lat="49.2874148909812" lon="-0.7112839947452058"><ele>56.0</ele><time>2026-04-26T13:18:19Z</time></trkpt><trkpt lat="49.28733414684602" lon="-0.7112227140233647"><ele>55.99999999999999</ele><time>2026-04-26T13:18:21Z</time></trkpt><trkpt lat="49.2872568547892" lon="-0.7111694136690792"><ele>55.99999999999999</ele><time>2026-04-26T13:18:23Z</time></trkpt><trkpt lat="49.28716736177978" lon="-0.711105789676227"><ele>56.0</ele><time>2026-04-26T13:18:25Z</time></trkpt><trkpt lat="49.28707999944984" lon="-0.7110342741832505"><ele>56.0</ele><time>2026-04-26T13:18:27Z</time></trkpt><trkpt lat="49.28700233546249" lon="-0.7109697277475809"><ele>54.0</ele><time>2026-04-26T13:18:29Z</time></trkpt><trkpt lat="49.28699164949325" lon="-0.7108596708404801"><ele>54.0</ele><time>2026-04-26T13:18:32Z</time></trkpt><trkpt lat="49.28704487896741" lon="-0.7107572617799035"><ele>54.0</ele><time>2026-04-26T13:18:37Z</time></trkpt></trkseg></trk></gpx>